<?xml version="1.0" encoding="UTF-8" standalone="no" ?>
<gpx xmlns="http://www.topografix.com/GPX/1/1" xmlns:xsi="http://www.w3.org/2001/XMLSchema-instance" xsi:schemaLocation="http://www.topografix.com/GPX/1/1 http://www.topografix.com/GPX/1/1/gpx.xsd" version="1.1" creator="VisuGPX - https://www.visugpx.com">
  <metadata>
    <name>Valempoulières,Forêt des Moidons</name>
  </metadata>
  <trk>
    <name><![CDATA[Valempoulières,Forêt des Moidons_1]]></name>
    <trkseg>
      <trkpt lat="46.83113" lon="5.82173">
        <ele>580.6</ele>
        <time>2021-01-05T12:40:57Z</time>
      </trkpt>
      <trkpt lat="46.83118" lon="5.82172">
        <ele>581.2</ele>
        <time>2021-01-05T12:41:26Z</time>
      </trkpt>
      <trkpt lat="46.83121" lon="5.82177">
        <ele>581.7</ele>
        <time>2021-01-05T12:41:50Z</time>
      </trkpt>
      <trkpt lat="46.83124" lon="5.82182">
        <ele>582.4</ele>
        <time>2021-01-05T12:41:57Z</time>
      </trkpt>
      <trkpt lat="46.83127" lon="5.82187">
        <ele>582.9</ele>
        <time>2021-01-05T12:42:03Z</time>
      </trkpt>
      <trkpt lat="46.8313" lon="5.82192">
        <ele>583.6</ele>
        <time>2021-01-05T12:42:09Z</time>
      </trkpt>
      <trkpt lat="46.83134" lon="5.82196">
        <ele>585.2</ele>
        <time>2021-01-05T12:42:14Z</time>
      </trkpt>
      <trkpt lat="46.83138" lon="5.822">
        <ele>586.4</ele>
        <time>2021-01-05T12:42:20Z</time>
      </trkpt>
      <trkpt lat="46.83141" lon="5.82206">
        <ele>586.8</ele>
        <time>2021-01-05T12:42:26Z</time>
      </trkpt>
      <trkpt lat="46.83144" lon="5.82212">
        <ele>587.6</ele>
        <time>2021-01-05T12:42:32Z</time>
      </trkpt>
      <trkpt lat="46.83147" lon="5.82218">
        <ele>588.2</ele>
        <time>2021-01-05T12:42:38Z</time>
      </trkpt>
      <trkpt lat="46.83149" lon="5.82225">
        <ele>588.2</ele>
        <time>2021-01-05T12:42:43Z</time>
      </trkpt>
      <trkpt lat="46.83149" lon="5.82231">
        <ele>587.6</ele>
        <time>2021-01-05T12:42:49Z</time>
      </trkpt>
      <trkpt lat="46.83153" lon="5.82237">
        <ele>587.2</ele>
        <time>2021-01-05T12:42:55Z</time>
      </trkpt>
      <trkpt lat="46.83154" lon="5.82244">
        <ele>586.4</ele>
        <time>2021-01-05T12:43:01Z</time>
      </trkpt>
      <trkpt lat="46.83157" lon="5.82251">
        <ele>585.9</ele>
        <time>2021-01-05T12:43:07Z</time>
      </trkpt>
      <trkpt lat="46.8316" lon="5.82257">
        <ele>585.9</ele>
        <time>2021-01-05T12:43:12Z</time>
      </trkpt>
      <trkpt lat="46.83161" lon="5.82264">
        <ele>585.8</ele>
        <time>2021-01-05T12:43:18Z</time>
      </trkpt>
      <trkpt lat="46.83164" lon="5.82271">
        <ele>585.7</ele>
        <time>2021-01-05T12:43:23Z</time>
      </trkpt>
      <trkpt lat="46.83167" lon="5.82277">
        <ele>585.8</ele>
        <time>2021-01-05T12:43:28Z</time>
      </trkpt>
      <trkpt lat="46.8317" lon="5.82284">
        <ele>585.8</ele>
        <time>2021-01-05T12:43:33Z</time>
      </trkpt>
      <trkpt lat="46.83173" lon="5.8229">
        <ele>585.8</ele>
        <time>2021-01-05T12:43:38Z</time>
      </trkpt>
      <trkpt lat="46.83175" lon="5.82296">
        <ele>585.9</ele>
        <time>2021-01-05T12:43:44Z</time>
      </trkpt>
      <trkpt lat="46.83178" lon="5.82302">
        <ele>585.7</ele>
        <time>2021-01-05T12:43:50Z</time>
      </trkpt>
      <trkpt lat="46.83181" lon="5.82308">
        <ele>585.3</ele>
        <time>2021-01-05T12:43:56Z</time>
      </trkpt>
      <trkpt lat="46.83184" lon="5.82314">
        <ele>584.5</ele>
        <time>2021-01-05T12:44:02Z</time>
      </trkpt>
      <trkpt lat="46.83186" lon="5.8232">
        <ele>583.9</ele>
        <time>2021-01-05T12:44:08Z</time>
      </trkpt>
      <trkpt lat="46.83189" lon="5.82325">
        <ele>583.5</ele>
        <time>2021-01-05T12:44:13Z</time>
      </trkpt>
      <trkpt lat="46.83192" lon="5.82332">
        <ele>583.1</ele>
        <time>2021-01-05T12:44:18Z</time>
      </trkpt>
      <trkpt lat="46.83196" lon="5.82338">
        <ele>583.4</ele>
        <time>2021-01-05T12:44:23Z</time>
      </trkpt>
      <trkpt lat="46.83199" lon="5.82344">
        <ele>583.9</ele>
        <time>2021-01-05T12:44:28Z</time>
      </trkpt>
      <trkpt lat="46.83202" lon="5.8235">
        <ele>584.5</ele>
        <time>2021-01-05T12:44:34Z</time>
      </trkpt>
      <trkpt lat="46.83205" lon="5.82356">
        <ele>584.5</ele>
        <time>2021-01-05T12:44:40Z</time>
      </trkpt>
      <trkpt lat="46.83208" lon="5.82363">
        <ele>584.5</ele>
        <time>2021-01-05T12:44:45Z</time>
      </trkpt>
      <trkpt lat="46.8321" lon="5.82369">
        <ele>584.6</ele>
        <time>2021-01-05T12:44:50Z</time>
      </trkpt>
      <trkpt lat="46.83213" lon="5.82375">
        <ele>584.5</ele>
        <time>2021-01-05T12:44:55Z</time>
      </trkpt>
      <trkpt lat="46.83215" lon="5.82381">
        <ele>584.3</ele>
        <time>2021-01-05T12:45:00Z</time>
      </trkpt>
      <trkpt lat="46.83217" lon="5.82388">
        <ele>584.1</ele>
        <time>2021-01-05T12:45:05Z</time>
      </trkpt>
      <trkpt lat="46.83219" lon="5.82395">
        <ele>583.5</ele>
        <time>2021-01-05T12:45:11Z</time>
      </trkpt>
      <trkpt lat="46.83222" lon="5.82401">
        <ele>582.7</ele>
        <time>2021-01-05T12:45:16Z</time>
      </trkpt>
      <trkpt lat="46.83225" lon="5.82407">
        <ele>582.2</ele>
        <time>2021-01-05T12:45:21Z</time>
      </trkpt>
      <trkpt lat="46.83228" lon="5.82413">
        <ele>581.9</ele>
        <time>2021-01-05T12:45:26Z</time>
      </trkpt>
      <trkpt lat="46.83231" lon="5.8242">
        <ele>581.4</ele>
        <time>2021-01-05T12:45:31Z</time>
      </trkpt>
      <trkpt lat="46.83234" lon="5.82426">
        <ele>581.2</ele>
        <time>2021-01-05T12:45:36Z</time>
      </trkpt>
      <trkpt lat="46.83236" lon="5.82432">
        <ele>581.1</ele>
        <time>2021-01-05T12:45:41Z</time>
      </trkpt>
      <trkpt lat="46.8324" lon="5.82438">
        <ele>581</ele>
        <time>2021-01-05T12:45:46Z</time>
      </trkpt>
      <trkpt lat="46.83242" lon="5.82445">
        <ele>581</ele>
        <time>2021-01-05T12:45:51Z</time>
      </trkpt>
      <trkpt lat="46.83245" lon="5.82451">
        <ele>580.9</ele>
        <time>2021-01-05T12:45:56Z</time>
      </trkpt>
      <trkpt lat="46.83247" lon="5.82457">
        <ele>580.6</ele>
        <time>2021-01-05T12:46:01Z</time>
      </trkpt>
      <trkpt lat="46.8325" lon="5.82464">
        <ele>580.7</ele>
        <time>2021-01-05T12:46:06Z</time>
      </trkpt>
      <trkpt lat="46.83252" lon="5.8247">
        <ele>581.4</ele>
        <time>2021-01-05T12:46:11Z</time>
      </trkpt>
      <trkpt lat="46.83255" lon="5.82478">
        <ele>582.5</ele>
        <time>2021-01-05T12:46:16Z</time>
      </trkpt>
      <trkpt lat="46.83259" lon="5.82484">
        <ele>583.4</ele>
        <time>2021-01-05T12:46:21Z</time>
      </trkpt>
      <trkpt lat="46.83262" lon="5.8249">
        <ele>583.8</ele>
        <time>2021-01-05T12:46:26Z</time>
      </trkpt>
      <trkpt lat="46.83263" lon="5.82497">
        <ele>584.5</ele>
        <time>2021-01-05T12:46:31Z</time>
      </trkpt>
      <trkpt lat="46.83265" lon="5.82505">
        <ele>585.3</ele>
        <time>2021-01-05T12:46:37Z</time>
      </trkpt>
      <trkpt lat="46.83265" lon="5.82512">
        <ele>586.4</ele>
        <time>2021-01-05T12:46:43Z</time>
      </trkpt>
      <trkpt lat="46.83266" lon="5.8252">
        <ele>586.9</ele>
        <time>2021-01-05T12:46:48Z</time>
      </trkpt>
      <trkpt lat="46.83267" lon="5.82527">
        <ele>587.1</ele>
        <time>2021-01-05T12:46:53Z</time>
      </trkpt>
      <trkpt lat="46.83267" lon="5.82534">
        <ele>587</ele>
        <time>2021-01-05T12:46:58Z</time>
      </trkpt>
      <trkpt lat="46.83267" lon="5.82541">
        <ele>586.9</ele>
        <time>2021-01-05T12:47:03Z</time>
      </trkpt>
      <trkpt lat="46.83268" lon="5.8255">
        <ele>586.7</ele>
        <time>2021-01-05T12:47:08Z</time>
      </trkpt>
      <trkpt lat="46.83268" lon="5.82557">
        <ele>586.1</ele>
        <time>2021-01-05T12:47:14Z</time>
      </trkpt>
      <trkpt lat="46.83268" lon="5.82564">
        <ele>584.8</ele>
        <time>2021-01-05T12:47:21Z</time>
      </trkpt>
      <trkpt lat="46.8327" lon="5.82573">
        <ele>585</ele>
        <time>2021-01-05T12:47:26Z</time>
      </trkpt>
      <trkpt lat="46.83273" lon="5.82583">
        <ele>586.3</ele>
        <time>2021-01-05T12:47:31Z</time>
      </trkpt>
      <trkpt lat="46.83276" lon="5.82591">
        <ele>587.6</ele>
        <time>2021-01-05T12:47:36Z</time>
      </trkpt>
      <trkpt lat="46.8328" lon="5.82599">
        <ele>588.7</ele>
        <time>2021-01-05T12:47:41Z</time>
      </trkpt>
      <trkpt lat="46.83283" lon="5.82605">
        <ele>589.4</ele>
        <time>2021-01-05T12:47:46Z</time>
      </trkpt>
      <trkpt lat="46.83286" lon="5.8261">
        <ele>589.7</ele>
        <time>2021-01-05T12:47:51Z</time>
      </trkpt>
      <trkpt lat="46.83289" lon="5.82616">
        <ele>589.8</ele>
        <time>2021-01-05T12:47:57Z</time>
      </trkpt>
      <trkpt lat="46.83291" lon="5.82623">
        <ele>590</ele>
        <time>2021-01-05T12:48:03Z</time>
      </trkpt>
      <trkpt lat="46.83294" lon="5.82629">
        <ele>590.2</ele>
        <time>2021-01-05T12:48:08Z</time>
      </trkpt>
      <trkpt lat="46.83297" lon="5.82633">
        <ele>590</ele>
        <time>2021-01-05T12:48:13Z</time>
      </trkpt>
      <trkpt lat="46.83302" lon="5.82635">
        <ele>589.7</ele>
        <time>2021-01-05T12:48:18Z</time>
      </trkpt>
      <trkpt lat="46.83306" lon="5.82639">
        <ele>588.8</ele>
        <time>2021-01-05T12:48:25Z</time>
      </trkpt>
      <trkpt lat="46.83309" lon="5.82644">
        <ele>587.8</ele>
        <time>2021-01-05T12:48:32Z</time>
      </trkpt>
      <trkpt lat="46.83313" lon="5.82649">
        <ele>587.8</ele>
        <time>2021-01-05T12:48:37Z</time>
      </trkpt>
      <trkpt lat="46.83317" lon="5.82652">
        <ele>587.6</ele>
        <time>2021-01-05T12:48:42Z</time>
      </trkpt>
      <trkpt lat="46.83321" lon="5.82655">
        <ele>587.1</ele>
        <time>2021-01-05T12:48:49Z</time>
      </trkpt>
      <trkpt lat="46.83326" lon="5.82659">
        <ele>586.6</ele>
        <time>2021-01-05T12:48:56Z</time>
      </trkpt>
      <trkpt lat="46.83329" lon="5.82663">
        <ele>586</ele>
        <time>2021-01-05T12:49:01Z</time>
      </trkpt>
      <trkpt lat="46.83333" lon="5.82668">
        <ele>585.1</ele>
        <time>2021-01-05T12:49:06Z</time>
      </trkpt>
      <trkpt lat="46.83338" lon="5.82673">
        <ele>584.1</ele>
        <time>2021-01-05T12:49:11Z</time>
      </trkpt>
      <trkpt lat="46.83344" lon="5.82677">
        <ele>583.4</ele>
        <time>2021-01-05T12:49:16Z</time>
      </trkpt>
      <trkpt lat="46.83347" lon="5.82681">
        <ele>582.9</ele>
        <time>2021-01-05T12:49:21Z</time>
      </trkpt>
      <trkpt lat="46.83351" lon="5.82687">
        <ele>582.4</ele>
        <time>2021-01-05T12:49:27Z</time>
      </trkpt>
      <trkpt lat="46.83355" lon="5.8269">
        <ele>582</ele>
        <time>2021-01-05T12:49:32Z</time>
      </trkpt>
      <trkpt lat="46.83358" lon="5.82694">
        <ele>581.6</ele>
        <time>2021-01-05T12:49:38Z</time>
      </trkpt>
      <trkpt lat="46.83363" lon="5.82699">
        <ele>581.3</ele>
        <time>2021-01-05T12:49:43Z</time>
      </trkpt>
      <trkpt lat="46.83368" lon="5.82705">
        <ele>581</ele>
        <time>2021-01-05T12:49:48Z</time>
      </trkpt>
      <trkpt lat="46.83374" lon="5.82709">
        <ele>580.9</ele>
        <time>2021-01-05T12:49:53Z</time>
      </trkpt>
      <trkpt lat="46.83378" lon="5.82713">
        <ele>580.6</ele>
        <time>2021-01-05T12:49:58Z</time>
      </trkpt>
      <trkpt lat="46.83382" lon="5.82716">
        <ele>580</ele>
        <time>2021-01-05T12:50:04Z</time>
      </trkpt>
      <trkpt lat="46.83387" lon="5.82719">
        <ele>580.5</ele>
        <time>2021-01-05T12:50:09Z</time>
      </trkpt>
      <trkpt lat="46.83394" lon="5.82723">
        <ele>582</ele>
        <time>2021-01-05T12:50:14Z</time>
      </trkpt>
      <trkpt lat="46.83398" lon="5.82725">
        <ele>584</ele>
        <time>2021-01-05T12:50:19Z</time>
      </trkpt>
      <trkpt lat="46.83402" lon="5.8273">
        <ele>586.7</ele>
        <time>2021-01-05T12:50:26Z</time>
      </trkpt>
      <trkpt lat="46.83406" lon="5.82734">
        <ele>588.1</ele>
        <time>2021-01-05T12:50:33Z</time>
      </trkpt>
      <trkpt lat="46.8341" lon="5.82738">
        <ele>587.8</ele>
        <time>2021-01-05T12:50:38Z</time>
      </trkpt>
      <trkpt lat="46.83415" lon="5.82741">
        <ele>586.1</ele>
        <time>2021-01-05T12:50:44Z</time>
      </trkpt>
      <trkpt lat="46.8342" lon="5.82744">
        <ele>584</ele>
        <time>2021-01-05T12:50:50Z</time>
      </trkpt>
      <trkpt lat="46.83424" lon="5.82746">
        <ele>583</ele>
        <time>2021-01-05T12:50:57Z</time>
      </trkpt>
      <trkpt lat="46.83429" lon="5.82749">
        <ele>584</ele>
        <time>2021-01-05T12:51:02Z</time>
      </trkpt>
      <trkpt lat="46.83435" lon="5.82747">
        <ele>585.7</ele>
        <time>2021-01-05T12:51:07Z</time>
      </trkpt>
      <trkpt lat="46.8344" lon="5.82747">
        <ele>587</ele>
        <time>2021-01-05T12:51:12Z</time>
      </trkpt>
      <trkpt lat="46.83444" lon="5.82746">
        <ele>588</ele>
        <time>2021-01-05T12:51:18Z</time>
      </trkpt>
      <trkpt lat="46.8345" lon="5.82745">
        <ele>587.8</ele>
        <time>2021-01-05T12:51:23Z</time>
      </trkpt>
      <trkpt lat="46.83456" lon="5.82745">
        <ele>587.2</ele>
        <time>2021-01-05T12:51:28Z</time>
      </trkpt>
      <trkpt lat="46.83461" lon="5.82745">
        <ele>587.2</ele>
        <time>2021-01-05T12:51:33Z</time>
      </trkpt>
      <trkpt lat="46.83465" lon="5.82745">
        <ele>587</ele>
        <time>2021-01-05T12:51:39Z</time>
      </trkpt>
      <trkpt lat="46.8347" lon="5.82745">
        <ele>585.9</ele>
        <time>2021-01-05T12:51:49Z</time>
      </trkpt>
      <trkpt lat="46.83474" lon="5.82744">
        <ele>584.8</ele>
        <time>2021-01-05T12:51:57Z</time>
      </trkpt>
      <trkpt lat="46.83479" lon="5.82744">
        <ele>583.8</ele>
        <time>2021-01-05T12:52:04Z</time>
      </trkpt>
      <trkpt lat="46.83484" lon="5.82744">
        <ele>582.7</ele>
        <time>2021-01-05T12:52:12Z</time>
      </trkpt>
      <trkpt lat="46.83489" lon="5.82744">
        <ele>582.3</ele>
        <time>2021-01-05T12:52:17Z</time>
      </trkpt>
      <trkpt lat="46.83494" lon="5.82744">
        <ele>582.1</ele>
        <time>2021-01-05T12:52:23Z</time>
      </trkpt>
      <trkpt lat="46.83499" lon="5.82743">
        <ele>581.5</ele>
        <time>2021-01-05T12:52:29Z</time>
      </trkpt>
      <trkpt lat="46.83504" lon="5.82743">
        <ele>581.3</ele>
        <time>2021-01-05T12:52:35Z</time>
      </trkpt>
      <trkpt lat="46.83508" lon="5.82743">
        <ele>581.7</ele>
        <time>2021-01-05T12:52:40Z</time>
      </trkpt>
      <trkpt lat="46.83513" lon="5.82743">
        <ele>582.8</ele>
        <time>2021-01-05T12:52:47Z</time>
      </trkpt>
      <trkpt lat="46.83518" lon="5.82742">
        <ele>583.4</ele>
        <time>2021-01-05T12:52:52Z</time>
      </trkpt>
      <trkpt lat="46.83523" lon="5.82742">
        <ele>583.5</ele>
        <time>2021-01-05T12:52:58Z</time>
      </trkpt>
      <trkpt lat="46.83528" lon="5.82742">
        <ele>581.8</ele>
        <time>2021-01-05T12:53:04Z</time>
      </trkpt>
      <trkpt lat="46.83533" lon="5.82742">
        <ele>580.7</ele>
        <time>2021-01-05T12:53:10Z</time>
      </trkpt>
      <trkpt lat="46.83538" lon="5.82742">
        <ele>580.6</ele>
        <time>2021-01-05T12:53:15Z</time>
      </trkpt>
      <trkpt lat="46.83543" lon="5.82741">
        <ele>580.7</ele>
        <time>2021-01-05T12:53:21Z</time>
      </trkpt>
      <trkpt lat="46.83549" lon="5.82741">
        <ele>581.3</ele>
        <time>2021-01-05T12:53:27Z</time>
      </trkpt>
      <trkpt lat="46.83554" lon="5.82741">
        <ele>581.6</ele>
        <time>2021-01-05T12:53:32Z</time>
      </trkpt>
      <trkpt lat="46.83559" lon="5.8274">
        <ele>581.5</ele>
        <time>2021-01-05T12:53:37Z</time>
      </trkpt>
      <trkpt lat="46.83564" lon="5.8274">
        <ele>581.4</ele>
        <time>2021-01-05T12:53:42Z</time>
      </trkpt>
      <trkpt lat="46.83569" lon="5.8274">
        <ele>581.5</ele>
        <time>2021-01-05T12:53:47Z</time>
      </trkpt>
      <trkpt lat="46.83573" lon="5.82737">
        <ele>581.7</ele>
        <time>2021-01-05T12:53:53Z</time>
      </trkpt>
      <trkpt lat="46.83578" lon="5.82738">
        <ele>581.8</ele>
        <time>2021-01-05T12:54:06Z</time>
      </trkpt>
      <trkpt lat="46.83582" lon="5.82738">
        <ele>582.3</ele>
        <time>2021-01-05T12:54:13Z</time>
      </trkpt>
      <trkpt lat="46.83587" lon="5.82739">
        <ele>582.8</ele>
        <time>2021-01-05T12:54:19Z</time>
      </trkpt>
      <trkpt lat="46.83592" lon="5.82739">
        <ele>582.7</ele>
        <time>2021-01-05T12:54:24Z</time>
      </trkpt>
      <trkpt lat="46.83597" lon="5.82737">
        <ele>583.8</ele>
        <time>2021-01-05T12:54:42Z</time>
      </trkpt>
      <trkpt lat="46.83602" lon="5.82737">
        <ele>584</ele>
        <time>2021-01-05T12:54:48Z</time>
      </trkpt>
      <trkpt lat="46.83608" lon="5.82737">
        <ele>583.8</ele>
        <time>2021-01-05T12:54:53Z</time>
      </trkpt>
      <trkpt lat="46.83612" lon="5.82736">
        <ele>583.5</ele>
        <time>2021-01-05T12:54:57Z</time>
      </trkpt>
      <trkpt lat="46.83618" lon="5.82736">
        <ele>583.4</ele>
        <time>2021-01-05T12:55:02Z</time>
      </trkpt>
      <trkpt lat="46.83624" lon="5.82736">
        <ele>584</ele>
        <time>2021-01-05T12:55:07Z</time>
      </trkpt>
      <trkpt lat="46.8363" lon="5.82736">
        <ele>584.9</ele>
        <time>2021-01-05T12:55:12Z</time>
      </trkpt>
      <trkpt lat="46.83635" lon="5.82736">
        <ele>585.7</ele>
        <time>2021-01-05T12:55:18Z</time>
      </trkpt>
      <trkpt lat="46.8364" lon="5.82736">
        <ele>586.2</ele>
        <time>2021-01-05T12:55:24Z</time>
      </trkpt>
      <trkpt lat="46.83645" lon="5.82735">
        <ele>586.4</ele>
        <time>2021-01-05T12:55:30Z</time>
      </trkpt>
      <trkpt lat="46.8365" lon="5.82734">
        <ele>586.7</ele>
        <time>2021-01-05T12:55:36Z</time>
      </trkpt>
      <trkpt lat="46.83655" lon="5.82732">
        <ele>586.4</ele>
        <time>2021-01-05T12:55:43Z</time>
      </trkpt>
      <trkpt lat="46.8366" lon="5.8273">
        <ele>586.1</ele>
        <time>2021-01-05T12:55:49Z</time>
      </trkpt>
      <trkpt lat="46.83664" lon="5.8273">
        <ele>585.9</ele>
        <time>2021-01-05T12:55:54Z</time>
      </trkpt>
      <trkpt lat="46.83669" lon="5.82729">
        <ele>585.6</ele>
        <time>2021-01-05T12:56:00Z</time>
      </trkpt>
      <trkpt lat="46.83675" lon="5.82729">
        <ele>585.8</ele>
        <time>2021-01-05T12:56:06Z</time>
      </trkpt>
      <trkpt lat="46.83679" lon="5.82727">
        <ele>585.6</ele>
        <time>2021-01-05T12:56:11Z</time>
      </trkpt>
      <trkpt lat="46.83685" lon="5.82726">
        <ele>585</ele>
        <time>2021-01-05T12:56:17Z</time>
      </trkpt>
      <trkpt lat="46.83689" lon="5.82726">
        <ele>584.5</ele>
        <time>2021-01-05T12:56:22Z</time>
      </trkpt>
      <trkpt lat="46.83695" lon="5.82726">
        <ele>584</ele>
        <time>2021-01-05T12:56:27Z</time>
      </trkpt>
      <trkpt lat="46.837" lon="5.82725">
        <ele>583.8</ele>
        <time>2021-01-05T12:56:32Z</time>
      </trkpt>
      <trkpt lat="46.83704" lon="5.82724">
        <ele>583.9</ele>
        <time>2021-01-05T12:56:37Z</time>
      </trkpt>
      <trkpt lat="46.83709" lon="5.82724">
        <ele>584</ele>
        <time>2021-01-05T12:56:42Z</time>
      </trkpt>
      <trkpt lat="46.83714" lon="5.82724">
        <ele>583.7</ele>
        <time>2021-01-05T12:56:47Z</time>
      </trkpt>
      <trkpt lat="46.83718" lon="5.82724">
        <ele>583.1</ele>
        <time>2021-01-05T12:56:52Z</time>
      </trkpt>
      <trkpt lat="46.83724" lon="5.82725">
        <ele>582.8</ele>
        <time>2021-01-05T12:56:57Z</time>
      </trkpt>
      <trkpt lat="46.83728" lon="5.82726">
        <ele>583.2</ele>
        <time>2021-01-05T12:57:04Z</time>
      </trkpt>
      <trkpt lat="46.83732" lon="5.82728">
        <ele>583.4</ele>
        <time>2021-01-05T12:57:09Z</time>
      </trkpt>
      <trkpt lat="46.83738" lon="5.82731">
        <ele>583.8</ele>
        <time>2021-01-05T12:57:14Z</time>
      </trkpt>
      <trkpt lat="46.83743" lon="5.82734">
        <ele>584.3</ele>
        <time>2021-01-05T12:57:19Z</time>
      </trkpt>
      <trkpt lat="46.83747" lon="5.82737">
        <ele>584.7</ele>
        <time>2021-01-05T12:57:25Z</time>
      </trkpt>
      <trkpt lat="46.83751" lon="5.82742">
        <ele>584.5</ele>
        <time>2021-01-05T12:57:31Z</time>
      </trkpt>
      <trkpt lat="46.83756" lon="5.82747">
        <ele>584.7</ele>
        <time>2021-01-05T12:57:36Z</time>
      </trkpt>
      <trkpt lat="46.8376" lon="5.82753">
        <ele>585.4</ele>
        <time>2021-01-05T12:57:41Z</time>
      </trkpt>
      <trkpt lat="46.83765" lon="5.82758">
        <ele>586.5</ele>
        <time>2021-01-05T12:57:46Z</time>
      </trkpt>
      <trkpt lat="46.83768" lon="5.82764">
        <ele>587.5</ele>
        <time>2021-01-05T12:57:51Z</time>
      </trkpt>
      <trkpt lat="46.83772" lon="5.8277">
        <ele>588.7</ele>
        <time>2021-01-05T12:57:56Z</time>
      </trkpt>
      <trkpt lat="46.83777" lon="5.82774">
        <ele>589.9</ele>
        <time>2021-01-05T12:58:01Z</time>
      </trkpt>
      <trkpt lat="46.83781" lon="5.82778">
        <ele>591</ele>
        <time>2021-01-05T12:58:06Z</time>
      </trkpt>
      <trkpt lat="46.83785" lon="5.82782">
        <ele>592.1</ele>
        <time>2021-01-05T12:58:11Z</time>
      </trkpt>
      <trkpt lat="46.8379" lon="5.82785">
        <ele>593</ele>
        <time>2021-01-05T12:58:16Z</time>
      </trkpt>
      <trkpt lat="46.83795" lon="5.82789">
        <ele>594</ele>
        <time>2021-01-05T12:58:22Z</time>
      </trkpt>
      <trkpt lat="46.83799" lon="5.82793">
        <ele>594.5</ele>
        <time>2021-01-05T12:58:27Z</time>
      </trkpt>
      <trkpt lat="46.83803" lon="5.82795">
        <ele>594.6</ele>
        <time>2021-01-05T12:58:32Z</time>
      </trkpt>
      <trkpt lat="46.83807" lon="5.82799">
        <ele>594.2</ele>
        <time>2021-01-05T12:58:37Z</time>
      </trkpt>
      <trkpt lat="46.83811" lon="5.82803">
        <ele>593.9</ele>
        <time>2021-01-05T12:58:45Z</time>
      </trkpt>
      <trkpt lat="46.83815" lon="5.82808">
        <ele>593</ele>
        <time>2021-01-05T12:58:52Z</time>
      </trkpt>
      <trkpt lat="46.83819" lon="5.82812">
        <ele>591.7</ele>
        <time>2021-01-05T12:58:57Z</time>
      </trkpt>
      <trkpt lat="46.83824" lon="5.82814">
        <ele>590.3</ele>
        <time>2021-01-05T12:59:02Z</time>
      </trkpt>
      <trkpt lat="46.83829" lon="5.82816">
        <ele>589</ele>
        <time>2021-01-05T12:59:07Z</time>
      </trkpt>
      <trkpt lat="46.83832" lon="5.82821">
        <ele>588.1</ele>
        <time>2021-01-05T12:59:13Z</time>
      </trkpt>
      <trkpt lat="46.83836" lon="5.82826">
        <ele>587.5</ele>
        <time>2021-01-05T12:59:18Z</time>
      </trkpt>
      <trkpt lat="46.83841" lon="5.82829">
        <ele>586.7</ele>
        <time>2021-01-05T12:59:23Z</time>
      </trkpt>
      <trkpt lat="46.83845" lon="5.82832">
        <ele>586.2</ele>
        <time>2021-01-05T12:59:28Z</time>
      </trkpt>
      <trkpt lat="46.83849" lon="5.82835">
        <ele>586.1</ele>
        <time>2021-01-05T12:59:33Z</time>
      </trkpt>
      <trkpt lat="46.83854" lon="5.82838">
        <ele>586.2</ele>
        <time>2021-01-05T12:59:38Z</time>
      </trkpt>
      <trkpt lat="46.83858" lon="5.8284">
        <ele>586.3</ele>
        <time>2021-01-05T12:59:43Z</time>
      </trkpt>
      <trkpt lat="46.83863" lon="5.82843">
        <ele>586.5</ele>
        <time>2021-01-05T12:59:50Z</time>
      </trkpt>
      <trkpt lat="46.83865" lon="5.82848">
        <ele>586.7</ele>
        <time>2021-01-05T13:00:01Z</time>
      </trkpt>
      <trkpt lat="46.83866" lon="5.82855">
        <ele>586.8</ele>
        <time>2021-01-05T13:00:13Z</time>
      </trkpt>
      <trkpt lat="46.8387" lon="5.8286">
        <ele>586.4</ele>
        <time>2021-01-05T13:00:26Z</time>
      </trkpt>
      <trkpt lat="46.83874" lon="5.82862">
        <ele>586.6</ele>
        <time>2021-01-05T13:00:32Z</time>
      </trkpt>
      <trkpt lat="46.83878" lon="5.82868">
        <ele>590.8</ele>
        <time>2021-01-05T13:00:37Z</time>
      </trkpt>
      <trkpt lat="46.83881" lon="5.82874">
        <ele>597.2</ele>
        <time>2021-01-05T13:00:43Z</time>
      </trkpt>
      <trkpt lat="46.83887" lon="5.82876">
        <ele>601.1</ele>
        <time>2021-01-05T13:00:49Z</time>
      </trkpt>
      <trkpt lat="46.83901" lon="5.82877">
        <ele>602.8</ele>
        <time>2021-01-05T13:00:54Z</time>
      </trkpt>
      <trkpt lat="46.83909" lon="5.82879">
        <ele>603.9</ele>
        <time>2021-01-05T13:00:59Z</time>
      </trkpt>
      <trkpt lat="46.83913" lon="5.82881">
        <ele>604.2</ele>
        <time>2021-01-05T13:01:04Z</time>
      </trkpt>
      <trkpt lat="46.83918" lon="5.82884">
        <ele>604.4</ele>
        <time>2021-01-05T13:01:09Z</time>
      </trkpt>
      <trkpt lat="46.83922" lon="5.82888">
        <ele>605.7</ele>
        <time>2021-01-05T13:01:14Z</time>
      </trkpt>
      <trkpt lat="46.83928" lon="5.82893">
        <ele>607.2</ele>
        <time>2021-01-05T13:01:19Z</time>
      </trkpt>
      <trkpt lat="46.83932" lon="5.82896">
        <ele>607.4</ele>
        <time>2021-01-05T13:01:24Z</time>
      </trkpt>
      <trkpt lat="46.83937" lon="5.829">
        <ele>607.6</ele>
        <time>2021-01-05T13:01:32Z</time>
      </trkpt>
      <trkpt lat="46.83942" lon="5.82902">
        <ele>608.8</ele>
        <time>2021-01-05T13:01:39Z</time>
      </trkpt>
      <trkpt lat="46.83947" lon="5.82905">
        <ele>609.2</ele>
        <time>2021-01-05T13:01:44Z</time>
      </trkpt>
      <trkpt lat="46.83952" lon="5.82907">
        <ele>610</ele>
        <time>2021-01-05T13:01:50Z</time>
      </trkpt>
      <trkpt lat="46.83956" lon="5.82911">
        <ele>610.7</ele>
        <time>2021-01-05T13:01:55Z</time>
      </trkpt>
      <trkpt lat="46.83961" lon="5.82915">
        <ele>611.5</ele>
        <time>2021-01-05T13:02:00Z</time>
      </trkpt>
      <trkpt lat="46.83965" lon="5.82918">
        <ele>611.9</ele>
        <time>2021-01-05T13:02:05Z</time>
      </trkpt>
      <trkpt lat="46.83969" lon="5.82922">
        <ele>612.3</ele>
        <time>2021-01-05T13:02:10Z</time>
      </trkpt>
      <trkpt lat="46.83973" lon="5.82923">
        <ele>611.6</ele>
        <time>2021-01-05T13:02:21Z</time>
      </trkpt>
      <trkpt lat="46.83978" lon="5.82922">
        <ele>610.4</ele>
        <time>2021-01-05T13:02:27Z</time>
      </trkpt>
      <trkpt lat="46.83983" lon="5.82923">
        <ele>608.7</ele>
        <time>2021-01-05T13:02:36Z</time>
      </trkpt>
      <trkpt lat="46.83987" lon="5.82925">
        <ele>606.8</ele>
        <time>2021-01-05T13:02:59Z</time>
      </trkpt>
      <trkpt lat="46.8399" lon="5.82932">
        <ele>607.1</ele>
        <time>2021-01-05T13:03:04Z</time>
      </trkpt>
      <trkpt lat="46.83993" lon="5.82938">
        <ele>607.5</ele>
        <time>2021-01-05T13:03:10Z</time>
      </trkpt>
      <trkpt lat="46.83998" lon="5.82942">
        <ele>607.6</ele>
        <time>2021-01-05T13:03:15Z</time>
      </trkpt>
      <trkpt lat="46.84005" lon="5.82944">
        <ele>607.8</ele>
        <time>2021-01-05T13:03:20Z</time>
      </trkpt>
      <trkpt lat="46.84012" lon="5.82946">
        <ele>608</ele>
        <time>2021-01-05T13:03:25Z</time>
      </trkpt>
      <trkpt lat="46.84016" lon="5.8295">
        <ele>608.4</ele>
        <time>2021-01-05T13:03:30Z</time>
      </trkpt>
      <trkpt lat="46.84021" lon="5.82955">
        <ele>608.9</ele>
        <time>2021-01-05T13:03:35Z</time>
      </trkpt>
      <trkpt lat="46.84024" lon="5.82959">
        <ele>608.9</ele>
        <time>2021-01-05T13:03:41Z</time>
      </trkpt>
      <trkpt lat="46.84028" lon="5.82965">
        <ele>607.9</ele>
        <time>2021-01-05T13:03:47Z</time>
      </trkpt>
      <trkpt lat="46.84032" lon="5.82969">
        <ele>606.5</ele>
        <time>2021-01-05T13:03:52Z</time>
      </trkpt>
      <trkpt lat="46.84035" lon="5.82974">
        <ele>604.9</ele>
        <time>2021-01-05T13:03:58Z</time>
      </trkpt>
      <trkpt lat="46.84038" lon="5.82979">
        <ele>604.2</ele>
        <time>2021-01-05T13:04:05Z</time>
      </trkpt>
      <trkpt lat="46.84039" lon="5.82985">
        <ele>604.1</ele>
        <time>2021-01-05T13:04:13Z</time>
      </trkpt>
      <trkpt lat="46.84044" lon="5.8299">
        <ele>603.8</ele>
        <time>2021-01-05T13:04:19Z</time>
      </trkpt>
      <trkpt lat="46.8405" lon="5.82993">
        <ele>603.5</ele>
        <time>2021-01-05T13:04:24Z</time>
      </trkpt>
      <trkpt lat="46.84055" lon="5.82996">
        <ele>603</ele>
        <time>2021-01-05T13:04:29Z</time>
      </trkpt>
      <trkpt lat="46.84059" lon="5.83">
        <ele>602.4</ele>
        <time>2021-01-05T13:04:35Z</time>
      </trkpt>
      <trkpt lat="46.84063" lon="5.83004">
        <ele>601.7</ele>
        <time>2021-01-05T13:04:43Z</time>
      </trkpt>
      <trkpt lat="46.84068" lon="5.83007">
        <ele>600.9</ele>
        <time>2021-01-05T13:04:49Z</time>
      </trkpt>
      <trkpt lat="46.84072" lon="5.8301">
        <ele>600.1</ele>
        <time>2021-01-05T13:04:54Z</time>
      </trkpt>
      <trkpt lat="46.84077" lon="5.83013">
        <ele>599.3</ele>
        <time>2021-01-05T13:04:59Z</time>
      </trkpt>
      <trkpt lat="46.84081" lon="5.83018">
        <ele>598.7</ele>
        <time>2021-01-05T13:05:05Z</time>
      </trkpt>
      <trkpt lat="46.84086" lon="5.83023">
        <ele>597.7</ele>
        <time>2021-01-05T13:05:11Z</time>
      </trkpt>
      <trkpt lat="46.84091" lon="5.83026">
        <ele>596.9</ele>
        <time>2021-01-05T13:05:16Z</time>
      </trkpt>
      <trkpt lat="46.84096" lon="5.8303">
        <ele>596.4</ele>
        <time>2021-01-05T13:05:21Z</time>
      </trkpt>
      <trkpt lat="46.84098" lon="5.83036">
        <ele>594.6</ele>
        <time>2021-01-05T13:05:31Z</time>
      </trkpt>
      <trkpt lat="46.84102" lon="5.83038">
        <ele>593.4</ele>
        <time>2021-01-05T13:05:36Z</time>
      </trkpt>
      <trkpt lat="46.84111" lon="5.83042">
        <ele>597.2</ele>
        <time>2021-01-05T13:05:41Z</time>
      </trkpt>
      <trkpt lat="46.84114" lon="5.83047">
        <ele>599.4</ele>
        <time>2021-01-05T13:05:47Z</time>
      </trkpt>
      <trkpt lat="46.84119" lon="5.8305">
        <ele>600.7</ele>
        <time>2021-01-05T13:05:54Z</time>
      </trkpt>
      <trkpt lat="46.84123" lon="5.83054">
        <ele>601.4</ele>
        <time>2021-01-05T13:05:59Z</time>
      </trkpt>
      <trkpt lat="46.8412" lon="5.83059">
        <ele>604.4</ele>
        <time>2021-01-05T13:06:40Z</time>
      </trkpt>
      <trkpt lat="46.84122" lon="5.83066">
        <ele>605.7</ele>
        <time>2021-01-05T13:06:50Z</time>
      </trkpt>
      <trkpt lat="46.84127" lon="5.83067">
        <ele>605.1</ele>
        <time>2021-01-05T13:06:57Z</time>
      </trkpt>
      <trkpt lat="46.84131" lon="5.83068">
        <ele>604.7</ele>
        <time>2021-01-05T13:07:02Z</time>
      </trkpt>
      <trkpt lat="46.84139" lon="5.83068">
        <ele>604.4</ele>
        <time>2021-01-05T13:07:07Z</time>
      </trkpt>
      <trkpt lat="46.84144" lon="5.83071">
        <ele>604.8</ele>
        <time>2021-01-05T13:07:12Z</time>
      </trkpt>
      <trkpt lat="46.84148" lon="5.83073">
        <ele>603.9</ele>
        <time>2021-01-05T13:07:26Z</time>
      </trkpt>
      <trkpt lat="46.84153" lon="5.83076">
        <ele>603.1</ele>
        <time>2021-01-05T13:07:31Z</time>
      </trkpt>
      <trkpt lat="46.84157" lon="5.8308">
        <ele>601.4</ele>
        <time>2021-01-05T13:07:37Z</time>
      </trkpt>
      <trkpt lat="46.84161" lon="5.83085">
        <ele>599.7</ele>
        <time>2021-01-05T13:07:43Z</time>
      </trkpt>
      <trkpt lat="46.84166" lon="5.83087">
        <ele>598.3</ele>
        <time>2021-01-05T13:07:48Z</time>
      </trkpt>
      <trkpt lat="46.84171" lon="5.83091">
        <ele>597.4</ele>
        <time>2021-01-05T13:07:53Z</time>
      </trkpt>
      <trkpt lat="46.84174" lon="5.83095">
        <ele>596.6</ele>
        <time>2021-01-05T13:07:58Z</time>
      </trkpt>
      <trkpt lat="46.84178" lon="5.831">
        <ele>595.8</ele>
        <time>2021-01-05T13:08:04Z</time>
      </trkpt>
      <trkpt lat="46.84182" lon="5.83104">
        <ele>594.2</ele>
        <time>2021-01-05T13:08:10Z</time>
      </trkpt>
      <trkpt lat="46.84187" lon="5.83108">
        <ele>592.5</ele>
        <time>2021-01-05T13:08:16Z</time>
      </trkpt>
      <trkpt lat="46.84191" lon="5.83112">
        <ele>591.6</ele>
        <time>2021-01-05T13:08:22Z</time>
      </trkpt>
      <trkpt lat="46.84196" lon="5.83114">
        <ele>591</ele>
        <time>2021-01-05T13:08:27Z</time>
      </trkpt>
      <trkpt lat="46.84201" lon="5.83116">
        <ele>590.2</ele>
        <time>2021-01-05T13:08:33Z</time>
      </trkpt>
      <trkpt lat="46.84205" lon="5.83119">
        <ele>589.6</ele>
        <time>2021-01-05T13:08:38Z</time>
      </trkpt>
      <trkpt lat="46.8421" lon="5.83123">
        <ele>589.5</ele>
        <time>2021-01-05T13:08:43Z</time>
      </trkpt>
      <trkpt lat="46.84214" lon="5.83127">
        <ele>590.1</ele>
        <time>2021-01-05T13:08:49Z</time>
      </trkpt>
      <trkpt lat="46.84218" lon="5.8313">
        <ele>590.4</ele>
        <time>2021-01-05T13:08:55Z</time>
      </trkpt>
      <trkpt lat="46.84224" lon="5.83133">
        <ele>590</ele>
        <time>2021-01-05T13:09:00Z</time>
      </trkpt>
      <trkpt lat="46.84228" lon="5.83136">
        <ele>589.3</ele>
        <time>2021-01-05T13:09:05Z</time>
      </trkpt>
      <trkpt lat="46.84232" lon="5.83141">
        <ele>588.3</ele>
        <time>2021-01-05T13:09:12Z</time>
      </trkpt>
      <trkpt lat="46.84237" lon="5.83144">
        <ele>587.7</ele>
        <time>2021-01-05T13:09:19Z</time>
      </trkpt>
      <trkpt lat="46.84242" lon="5.83143">
        <ele>587.2</ele>
        <time>2021-01-05T13:09:24Z</time>
      </trkpt>
      <trkpt lat="46.84248" lon="5.83142">
        <ele>586.8</ele>
        <time>2021-01-05T13:09:32Z</time>
      </trkpt>
      <trkpt lat="46.84252" lon="5.83138">
        <ele>586.6</ele>
        <time>2021-01-05T13:09:43Z</time>
      </trkpt>
      <trkpt lat="46.84256" lon="5.83141">
        <ele>586.7</ele>
        <time>2021-01-05T13:10:01Z</time>
      </trkpt>
      <trkpt lat="46.84252" lon="5.83139">
        <ele>588.4</ele>
        <time>2021-01-05T13:10:40Z</time>
      </trkpt>
      <trkpt lat="46.84253" lon="5.83146">
        <ele>589.3</ele>
        <time>2021-01-05T13:10:50Z</time>
      </trkpt>
      <trkpt lat="46.84255" lon="5.83152">
        <ele>590.2</ele>
        <time>2021-01-05T13:10:58Z</time>
      </trkpt>
      <trkpt lat="46.84259" lon="5.83153">
        <ele>590.4</ele>
        <time>2021-01-05T13:11:05Z</time>
      </trkpt>
      <trkpt lat="46.84256" lon="5.83159">
        <ele>589</ele>
        <time>2021-01-05T13:11:12Z</time>
      </trkpt>
      <trkpt lat="46.84258" lon="5.83165">
        <ele>585.4</ele>
        <time>2021-01-05T13:11:22Z</time>
      </trkpt>
      <trkpt lat="46.84263" lon="5.8317">
        <ele>584</ele>
        <time>2021-01-05T13:11:28Z</time>
      </trkpt>
      <trkpt lat="46.84267" lon="5.83175">
        <ele>584.7</ele>
        <time>2021-01-05T13:11:35Z</time>
      </trkpt>
      <trkpt lat="46.84275" lon="5.83178">
        <ele>585.9</ele>
        <time>2021-01-05T13:11:40Z</time>
      </trkpt>
      <trkpt lat="46.8428" lon="5.83182">
        <ele>587</ele>
        <time>2021-01-05T13:11:45Z</time>
      </trkpt>
      <trkpt lat="46.84286" lon="5.83184">
        <ele>588</ele>
        <time>2021-01-05T13:11:50Z</time>
      </trkpt>
      <trkpt lat="46.84291" lon="5.83188">
        <ele>589.2</ele>
        <time>2021-01-05T13:11:56Z</time>
      </trkpt>
      <trkpt lat="46.84295" lon="5.83192">
        <ele>590</ele>
        <time>2021-01-05T13:12:01Z</time>
      </trkpt>
      <trkpt lat="46.84299" lon="5.83196">
        <ele>590.7</ele>
        <time>2021-01-05T13:12:07Z</time>
      </trkpt>
      <trkpt lat="46.84304" lon="5.832">
        <ele>590.7</ele>
        <time>2021-01-05T13:12:13Z</time>
      </trkpt>
      <trkpt lat="46.84309" lon="5.83202">
        <ele>590.9</ele>
        <time>2021-01-05T13:12:19Z</time>
      </trkpt>
      <trkpt lat="46.84313" lon="5.83204">
        <ele>590.7</ele>
        <time>2021-01-05T13:12:25Z</time>
      </trkpt>
      <trkpt lat="46.84317" lon="5.83208">
        <ele>590.4</ele>
        <time>2021-01-05T13:12:31Z</time>
      </trkpt>
      <trkpt lat="46.84321" lon="5.83211">
        <ele>590.2</ele>
        <time>2021-01-05T13:12:37Z</time>
      </trkpt>
      <trkpt lat="46.84326" lon="5.83214">
        <ele>590</ele>
        <time>2021-01-05T13:12:42Z</time>
      </trkpt>
      <trkpt lat="46.8433" lon="5.83217">
        <ele>589.7</ele>
        <time>2021-01-05T13:12:47Z</time>
      </trkpt>
      <trkpt lat="46.84334" lon="5.83222">
        <ele>588.7</ele>
        <time>2021-01-05T13:12:54Z</time>
      </trkpt>
      <trkpt lat="46.8434" lon="5.83226">
        <ele>588.5</ele>
        <time>2021-01-05T13:12:59Z</time>
      </trkpt>
      <trkpt lat="46.84345" lon="5.83231">
        <ele>589.4</ele>
        <time>2021-01-05T13:13:04Z</time>
      </trkpt>
      <trkpt lat="46.84349" lon="5.83237">
        <ele>591.1</ele>
        <time>2021-01-05T13:13:09Z</time>
      </trkpt>
      <trkpt lat="46.84352" lon="5.8324">
        <ele>592.2</ele>
        <time>2021-01-05T13:13:14Z</time>
      </trkpt>
      <trkpt lat="46.84357" lon="5.83244">
        <ele>593.4</ele>
        <time>2021-01-05T13:13:20Z</time>
      </trkpt>
      <trkpt lat="46.84361" lon="5.83246">
        <ele>593.7</ele>
        <time>2021-01-05T13:13:25Z</time>
      </trkpt>
      <trkpt lat="46.84365" lon="5.8325">
        <ele>594.1</ele>
        <time>2021-01-05T13:13:30Z</time>
      </trkpt>
      <trkpt lat="46.8437" lon="5.83254">
        <ele>594.4</ele>
        <time>2021-01-05T13:13:36Z</time>
      </trkpt>
      <trkpt lat="46.84375" lon="5.83258">
        <ele>593.7</ele>
        <time>2021-01-05T13:13:42Z</time>
      </trkpt>
      <trkpt lat="46.8438" lon="5.8326">
        <ele>593</ele>
        <time>2021-01-05T13:13:48Z</time>
      </trkpt>
      <trkpt lat="46.84383" lon="5.83265">
        <ele>593</ele>
        <time>2021-01-05T13:13:57Z</time>
      </trkpt>
      <trkpt lat="46.84387" lon="5.83268">
        <ele>593</ele>
        <time>2021-01-05T13:14:03Z</time>
      </trkpt>
      <trkpt lat="46.84392" lon="5.83271">
        <ele>592.9</ele>
        <time>2021-01-05T13:14:09Z</time>
      </trkpt>
      <trkpt lat="46.84396" lon="5.83274">
        <ele>593</ele>
        <time>2021-01-05T13:14:15Z</time>
      </trkpt>
      <trkpt lat="46.844" lon="5.83277">
        <ele>593.4</ele>
        <time>2021-01-05T13:14:21Z</time>
      </trkpt>
      <trkpt lat="46.84405" lon="5.83281">
        <ele>593.6</ele>
        <time>2021-01-05T13:14:27Z</time>
      </trkpt>
      <trkpt lat="46.84409" lon="5.83284">
        <ele>593.6</ele>
        <time>2021-01-05T13:14:34Z</time>
      </trkpt>
      <trkpt lat="46.84413" lon="5.83288">
        <ele>593.4</ele>
        <time>2021-01-05T13:14:40Z</time>
      </trkpt>
      <trkpt lat="46.84418" lon="5.83292">
        <ele>593.3</ele>
        <time>2021-01-05T13:14:45Z</time>
      </trkpt>
      <trkpt lat="46.84423" lon="5.83295">
        <ele>593.4</ele>
        <time>2021-01-05T13:14:50Z</time>
      </trkpt>
      <trkpt lat="46.84428" lon="5.83299">
        <ele>593.8</ele>
        <time>2021-01-05T13:14:55Z</time>
      </trkpt>
      <trkpt lat="46.84432" lon="5.83302">
        <ele>594.1</ele>
        <time>2021-01-05T13:15:00Z</time>
      </trkpt>
      <trkpt lat="46.84437" lon="5.83305">
        <ele>593.9</ele>
        <time>2021-01-05T13:15:06Z</time>
      </trkpt>
      <trkpt lat="46.84441" lon="5.83309">
        <ele>593.4</ele>
        <time>2021-01-05T13:15:12Z</time>
      </trkpt>
      <trkpt lat="46.84444" lon="5.83315">
        <ele>592.8</ele>
        <time>2021-01-05T13:15:18Z</time>
      </trkpt>
      <trkpt lat="46.84447" lon="5.8332">
        <ele>592.4</ele>
        <time>2021-01-05T13:15:23Z</time>
      </trkpt>
      <trkpt lat="46.84452" lon="5.83324">
        <ele>591.9</ele>
        <time>2021-01-05T13:15:28Z</time>
      </trkpt>
      <trkpt lat="46.84456" lon="5.83326">
        <ele>591.4</ele>
        <time>2021-01-05T13:15:33Z</time>
      </trkpt>
      <trkpt lat="46.84461" lon="5.83329">
        <ele>591</ele>
        <time>2021-01-05T13:15:39Z</time>
      </trkpt>
      <trkpt lat="46.84465" lon="5.83332">
        <ele>590.6</ele>
        <time>2021-01-05T13:15:45Z</time>
      </trkpt>
      <trkpt lat="46.8447" lon="5.83336">
        <ele>590.2</ele>
        <time>2021-01-05T13:15:51Z</time>
      </trkpt>
      <trkpt lat="46.84474" lon="5.83341">
        <ele>589.8</ele>
        <time>2021-01-05T13:15:58Z</time>
      </trkpt>
      <trkpt lat="46.84478" lon="5.83345">
        <ele>589.4</ele>
        <time>2021-01-05T13:16:04Z</time>
      </trkpt>
      <trkpt lat="46.84481" lon="5.83349">
        <ele>588.9</ele>
        <time>2021-01-05T13:16:09Z</time>
      </trkpt>
      <trkpt lat="46.84485" lon="5.83353">
        <ele>588.1</ele>
        <time>2021-01-05T13:16:15Z</time>
      </trkpt>
      <trkpt lat="46.84489" lon="5.83359">
        <ele>587.2</ele>
        <time>2021-01-05T13:16:23Z</time>
      </trkpt>
      <trkpt lat="46.84493" lon="5.83364">
        <ele>586.7</ele>
        <time>2021-01-05T13:16:28Z</time>
      </trkpt>
      <trkpt lat="46.84497" lon="5.83366">
        <ele>586.3</ele>
        <time>2021-01-05T13:16:33Z</time>
      </trkpt>
      <trkpt lat="46.84502" lon="5.83368">
        <ele>586.1</ele>
        <time>2021-01-05T13:16:38Z</time>
      </trkpt>
      <trkpt lat="46.84507" lon="5.83369">
        <ele>585.9</ele>
        <time>2021-01-05T13:16:43Z</time>
      </trkpt>
      <trkpt lat="46.84511" lon="5.83371">
        <ele>585.9</ele>
        <time>2021-01-05T13:16:48Z</time>
      </trkpt>
      <trkpt lat="46.84516" lon="5.83375">
        <ele>586.1</ele>
        <time>2021-01-05T13:16:53Z</time>
      </trkpt>
      <trkpt lat="46.8452" lon="5.83378">
        <ele>586.3</ele>
        <time>2021-01-05T13:16:58Z</time>
      </trkpt>
      <trkpt lat="46.84525" lon="5.8338">
        <ele>586.7</ele>
        <time>2021-01-05T13:17:06Z</time>
      </trkpt>
      <trkpt lat="46.8453" lon="5.83382">
        <ele>586.9</ele>
        <time>2021-01-05T13:17:14Z</time>
      </trkpt>
      <trkpt lat="46.84534" lon="5.83385">
        <ele>587.2</ele>
        <time>2021-01-05T13:17:20Z</time>
      </trkpt>
      <trkpt lat="46.84537" lon="5.8339">
        <ele>587.5</ele>
        <time>2021-01-05T13:17:26Z</time>
      </trkpt>
      <trkpt lat="46.84541" lon="5.83395">
        <ele>587.8</ele>
        <time>2021-01-05T13:17:33Z</time>
      </trkpt>
      <trkpt lat="46.84545" lon="5.83398">
        <ele>588.2</ele>
        <time>2021-01-05T13:17:39Z</time>
      </trkpt>
      <trkpt lat="46.84549" lon="5.83402">
        <ele>587.7</ele>
        <time>2021-01-05T13:17:46Z</time>
      </trkpt>
      <trkpt lat="46.84554" lon="5.83407">
        <ele>586.9</ele>
        <time>2021-01-05T13:17:52Z</time>
      </trkpt>
      <trkpt lat="46.84557" lon="5.83411">
        <ele>585.9</ele>
        <time>2021-01-05T13:17:57Z</time>
      </trkpt>
      <trkpt lat="46.84562" lon="5.83414">
        <ele>585.1</ele>
        <time>2021-01-05T13:18:02Z</time>
      </trkpt>
      <trkpt lat="46.84567" lon="5.83415">
        <ele>582.2</ele>
        <time>2021-01-05T13:18:11Z</time>
      </trkpt>
      <trkpt lat="46.84568" lon="5.83422">
        <ele>582.8</ele>
        <time>2021-01-05T13:19:53Z</time>
      </trkpt>
      <trkpt lat="46.84572" lon="5.83425">
        <ele>582.8</ele>
        <time>2021-01-05T13:19:58Z</time>
      </trkpt>
      <trkpt lat="46.84577" lon="5.83428">
        <ele>582.6</ele>
        <time>2021-01-05T13:20:03Z</time>
      </trkpt>
      <trkpt lat="46.84582" lon="5.8343">
        <ele>582.5</ele>
        <time>2021-01-05T13:20:08Z</time>
      </trkpt>
      <trkpt lat="46.84587" lon="5.83434">
        <ele>582.5</ele>
        <time>2021-01-05T13:20:13Z</time>
      </trkpt>
      <trkpt lat="46.84591" lon="5.83437">
        <ele>582.3</ele>
        <time>2021-01-05T13:20:18Z</time>
      </trkpt>
      <trkpt lat="46.84595" lon="5.83442">
        <ele>581.9</ele>
        <time>2021-01-05T13:20:24Z</time>
      </trkpt>
      <trkpt lat="46.84598" lon="5.83447">
        <ele>581.7</ele>
        <time>2021-01-05T13:20:30Z</time>
      </trkpt>
      <trkpt lat="46.84612" lon="5.83447">
        <ele>588.6</ele>
        <time>2021-01-05T13:20:35Z</time>
      </trkpt>
      <trkpt lat="46.84616" lon="5.8345">
        <ele>591.5</ele>
        <time>2021-01-05T13:20:40Z</time>
      </trkpt>
      <trkpt lat="46.8462" lon="5.83455">
        <ele>593.4</ele>
        <time>2021-01-05T13:20:45Z</time>
      </trkpt>
      <trkpt lat="46.84622" lon="5.83461">
        <ele>595</ele>
        <time>2021-01-05T13:20:53Z</time>
      </trkpt>
      <trkpt lat="46.84627" lon="5.83464">
        <ele>595.9</ele>
        <time>2021-01-05T13:20:59Z</time>
      </trkpt>
      <trkpt lat="46.8463" lon="5.83468">
        <ele>596.6</ele>
        <time>2021-01-05T13:21:05Z</time>
      </trkpt>
      <trkpt lat="46.84634" lon="5.83473">
        <ele>597</ele>
        <time>2021-01-05T13:21:12Z</time>
      </trkpt>
      <trkpt lat="46.84638" lon="5.83477">
        <ele>597.2</ele>
        <time>2021-01-05T13:21:17Z</time>
      </trkpt>
      <trkpt lat="46.84643" lon="5.8348">
        <ele>597.3</ele>
        <time>2021-01-05T13:21:22Z</time>
      </trkpt>
      <trkpt lat="46.84648" lon="5.83482">
        <ele>597.2</ele>
        <time>2021-01-05T13:21:27Z</time>
      </trkpt>
      <trkpt lat="46.84653" lon="5.83484">
        <ele>597</ele>
        <time>2021-01-05T13:21:33Z</time>
      </trkpt>
      <trkpt lat="46.84658" lon="5.83488">
        <ele>597</ele>
        <time>2021-01-05T13:21:39Z</time>
      </trkpt>
      <trkpt lat="46.84663" lon="5.8349">
        <ele>596.7</ele>
        <time>2021-01-05T13:21:44Z</time>
      </trkpt>
      <trkpt lat="46.84668" lon="5.83493">
        <ele>597.2</ele>
        <time>2021-01-05T13:21:49Z</time>
      </trkpt>
      <trkpt lat="46.84672" lon="5.83496">
        <ele>597.3</ele>
        <time>2021-01-05T13:21:55Z</time>
      </trkpt>
      <trkpt lat="46.84676" lon="5.835">
        <ele>596.8</ele>
        <time>2021-01-05T13:22:01Z</time>
      </trkpt>
      <trkpt lat="46.8468" lon="5.83504">
        <ele>596.7</ele>
        <time>2021-01-05T13:22:07Z</time>
      </trkpt>
      <trkpt lat="46.84684" lon="5.83509">
        <ele>597.3</ele>
        <time>2021-01-05T13:22:12Z</time>
      </trkpt>
      <trkpt lat="46.84688" lon="5.83514">
        <ele>598</ele>
        <time>2021-01-05T13:22:19Z</time>
      </trkpt>
      <trkpt lat="46.84691" lon="5.83519">
        <ele>598</ele>
        <time>2021-01-05T13:22:24Z</time>
      </trkpt>
      <trkpt lat="46.84696" lon="5.83521">
        <ele>597.4</ele>
        <time>2021-01-05T13:22:30Z</time>
      </trkpt>
      <trkpt lat="46.84701" lon="5.83525">
        <ele>597</ele>
        <time>2021-01-05T13:22:35Z</time>
      </trkpt>
      <trkpt lat="46.84706" lon="5.83529">
        <ele>597.7</ele>
        <time>2021-01-05T13:22:39Z</time>
      </trkpt>
      <trkpt lat="46.84711" lon="5.83533">
        <ele>598.5</ele>
        <time>2021-01-05T13:22:44Z</time>
      </trkpt>
      <trkpt lat="46.84715" lon="5.83536">
        <ele>599.1</ele>
        <time>2021-01-05T13:22:49Z</time>
      </trkpt>
      <trkpt lat="46.8472" lon="5.83539">
        <ele>599.4</ele>
        <time>2021-01-05T13:22:54Z</time>
      </trkpt>
      <trkpt lat="46.84724" lon="5.83543">
        <ele>599.6</ele>
        <time>2021-01-05T13:23:00Z</time>
      </trkpt>
      <trkpt lat="46.84728" lon="5.83547">
        <ele>599.3</ele>
        <time>2021-01-05T13:23:07Z</time>
      </trkpt>
      <trkpt lat="46.84733" lon="5.8355">
        <ele>599</ele>
        <time>2021-01-05T13:23:13Z</time>
      </trkpt>
      <trkpt lat="46.84737" lon="5.83553">
        <ele>598.9</ele>
        <time>2021-01-05T13:23:18Z</time>
      </trkpt>
      <trkpt lat="46.84742" lon="5.83555">
        <ele>598.7</ele>
        <time>2021-01-05T13:23:23Z</time>
      </trkpt>
      <trkpt lat="46.84745" lon="5.8356">
        <ele>597.9</ele>
        <time>2021-01-05T13:23:31Z</time>
      </trkpt>
      <trkpt lat="46.84749" lon="5.83565">
        <ele>597.1</ele>
        <time>2021-01-05T13:23:36Z</time>
      </trkpt>
      <trkpt lat="46.84754" lon="5.83569">
        <ele>596.7</ele>
        <time>2021-01-05T13:23:42Z</time>
      </trkpt>
      <trkpt lat="46.84758" lon="5.83574">
        <ele>597.7</ele>
        <time>2021-01-05T13:23:47Z</time>
      </trkpt>
      <trkpt lat="46.84762" lon="5.83579">
        <ele>599.2</ele>
        <time>2021-01-05T13:23:51Z</time>
      </trkpt>
      <trkpt lat="46.84768" lon="5.83583">
        <ele>601.7</ele>
        <time>2021-01-05T13:23:56Z</time>
      </trkpt>
      <trkpt lat="46.84773" lon="5.83587">
        <ele>603.9</ele>
        <time>2021-01-05T13:24:01Z</time>
      </trkpt>
      <trkpt lat="46.8478" lon="5.83592">
        <ele>606.9</ele>
        <time>2021-01-05T13:24:06Z</time>
      </trkpt>
      <trkpt lat="46.84785" lon="5.83596">
        <ele>609.9</ele>
        <time>2021-01-05T13:24:11Z</time>
      </trkpt>
      <trkpt lat="46.8479" lon="5.83598">
        <ele>612.3</ele>
        <time>2021-01-05T13:24:18Z</time>
      </trkpt>
      <trkpt lat="46.84794" lon="5.83602">
        <ele>613.4</ele>
        <time>2021-01-05T13:24:25Z</time>
      </trkpt>
      <trkpt lat="46.84798" lon="5.83606">
        <ele>613.2</ele>
        <time>2021-01-05T13:24:33Z</time>
      </trkpt>
      <trkpt lat="46.84799" lon="5.83612">
        <ele>612.6</ele>
        <time>2021-01-05T13:24:41Z</time>
      </trkpt>
      <trkpt lat="46.84803" lon="5.83615">
        <ele>611</ele>
        <time>2021-01-05T13:24:50Z</time>
      </trkpt>
      <trkpt lat="46.84808" lon="5.83617">
        <ele>609.5</ele>
        <time>2021-01-05T13:24:56Z</time>
      </trkpt>
      <trkpt lat="46.84813" lon="5.83621">
        <ele>608.6</ele>
        <time>2021-01-05T13:25:01Z</time>
      </trkpt>
      <trkpt lat="46.84816" lon="5.83625">
        <ele>607.8</ele>
        <time>2021-01-05T13:25:06Z</time>
      </trkpt>
      <trkpt lat="46.84821" lon="5.83628">
        <ele>607</ele>
        <time>2021-01-05T13:25:11Z</time>
      </trkpt>
      <trkpt lat="46.84826" lon="5.83632">
        <ele>606.2</ele>
        <time>2021-01-05T13:25:15Z</time>
      </trkpt>
      <trkpt lat="46.84832" lon="5.83635">
        <ele>605.3</ele>
        <time>2021-01-05T13:25:20Z</time>
      </trkpt>
      <trkpt lat="46.84836" lon="5.83638">
        <ele>603.8</ele>
        <time>2021-01-05T13:25:27Z</time>
      </trkpt>
      <trkpt lat="46.8484" lon="5.83641">
        <ele>601.9</ele>
        <time>2021-01-05T13:25:41Z</time>
      </trkpt>
      <trkpt lat="46.84845" lon="5.83645">
        <ele>601.3</ele>
        <time>2021-01-05T13:25:46Z</time>
      </trkpt>
      <trkpt lat="46.84849" lon="5.83648">
        <ele>600.7</ele>
        <time>2021-01-05T13:25:52Z</time>
      </trkpt>
      <trkpt lat="46.84853" lon="5.83652">
        <ele>600.2</ele>
        <time>2021-01-05T13:25:58Z</time>
      </trkpt>
      <trkpt lat="46.84857" lon="5.83656">
        <ele>599.3</ele>
        <time>2021-01-05T13:26:04Z</time>
      </trkpt>
      <trkpt lat="46.84862" lon="5.83658">
        <ele>598.7</ele>
        <time>2021-01-05T13:26:09Z</time>
      </trkpt>
      <trkpt lat="46.84867" lon="5.8366">
        <ele>598.1</ele>
        <time>2021-01-05T13:26:14Z</time>
      </trkpt>
      <trkpt lat="46.84871" lon="5.83664">
        <ele>597.3</ele>
        <time>2021-01-05T13:26:20Z</time>
      </trkpt>
      <trkpt lat="46.84875" lon="5.83668">
        <ele>596.6</ele>
        <time>2021-01-05T13:26:25Z</time>
      </trkpt>
      <trkpt lat="46.8488" lon="5.83671">
        <ele>596</ele>
        <time>2021-01-05T13:26:30Z</time>
      </trkpt>
      <trkpt lat="46.84885" lon="5.83673">
        <ele>595.2</ele>
        <time>2021-01-05T13:26:35Z</time>
      </trkpt>
      <trkpt lat="46.84889" lon="5.83677">
        <ele>594.3</ele>
        <time>2021-01-05T13:26:40Z</time>
      </trkpt>
      <trkpt lat="46.84892" lon="5.83682">
        <ele>593.3</ele>
        <time>2021-01-05T13:26:46Z</time>
      </trkpt>
      <trkpt lat="46.84897" lon="5.83685">
        <ele>592.5</ele>
        <time>2021-01-05T13:26:51Z</time>
      </trkpt>
      <trkpt lat="46.84903" lon="5.83688">
        <ele>592</ele>
        <time>2021-01-05T13:26:56Z</time>
      </trkpt>
      <trkpt lat="46.84907" lon="5.83691">
        <ele>591.3</ele>
        <time>2021-01-05T13:27:02Z</time>
      </trkpt>
      <trkpt lat="46.84913" lon="5.83695">
        <ele>590.7</ele>
        <time>2021-01-05T13:27:07Z</time>
      </trkpt>
      <trkpt lat="46.84917" lon="5.83698">
        <ele>590.1</ele>
        <time>2021-01-05T13:27:12Z</time>
      </trkpt>
      <trkpt lat="46.84922" lon="5.83702">
        <ele>589.6</ele>
        <time>2021-01-05T13:27:17Z</time>
      </trkpt>
      <trkpt lat="46.84926" lon="5.83704">
        <ele>589.4</ele>
        <time>2021-01-05T13:27:21Z</time>
      </trkpt>
      <trkpt lat="46.84931" lon="5.83706">
        <ele>589.4</ele>
        <time>2021-01-05T13:27:26Z</time>
      </trkpt>
      <trkpt lat="46.84936" lon="5.83709">
        <ele>589.2</ele>
        <time>2021-01-05T13:27:37Z</time>
      </trkpt>
      <trkpt lat="46.84936" lon="5.83716">
        <ele>587.8</ele>
        <time>2021-01-05T13:28:15Z</time>
      </trkpt>
      <trkpt lat="46.84938" lon="5.83723">
        <ele>583.2</ele>
        <time>2021-01-05T13:28:24Z</time>
      </trkpt>
      <trkpt lat="46.84942" lon="5.83726">
        <ele>580.2</ele>
        <time>2021-01-05T13:28:29Z</time>
      </trkpt>
      <trkpt lat="46.84947" lon="5.8373">
        <ele>577.4</ele>
        <time>2021-01-05T13:28:34Z</time>
      </trkpt>
      <trkpt lat="46.84954" lon="5.83732">
        <ele>576.7</ele>
        <time>2021-01-05T13:28:39Z</time>
      </trkpt>
      <trkpt lat="46.8496" lon="5.83734">
        <ele>576.3</ele>
        <time>2021-01-05T13:28:44Z</time>
      </trkpt>
      <trkpt lat="46.84965" lon="5.83737">
        <ele>576.6</ele>
        <time>2021-01-05T13:28:49Z</time>
      </trkpt>
      <trkpt lat="46.8497" lon="5.8374">
        <ele>578.9</ele>
        <time>2021-01-05T13:28:54Z</time>
      </trkpt>
      <trkpt lat="46.84974" lon="5.83743">
        <ele>580.9</ele>
        <time>2021-01-05T13:29:00Z</time>
      </trkpt>
      <trkpt lat="46.84978" lon="5.83747">
        <ele>582.3</ele>
        <time>2021-01-05T13:29:05Z</time>
      </trkpt>
      <trkpt lat="46.84981" lon="5.83751">
        <ele>583.6</ele>
        <time>2021-01-05T13:29:11Z</time>
      </trkpt>
      <trkpt lat="46.84986" lon="5.83753">
        <ele>584.3</ele>
        <time>2021-01-05T13:29:16Z</time>
      </trkpt>
      <trkpt lat="46.8499" lon="5.83756">
        <ele>584.8</ele>
        <time>2021-01-05T13:29:21Z</time>
      </trkpt>
      <trkpt lat="46.84993" lon="5.83762">
        <ele>585.2</ele>
        <time>2021-01-05T13:29:26Z</time>
      </trkpt>
      <trkpt lat="46.84996" lon="5.83767">
        <ele>585.7</ele>
        <time>2021-01-05T13:29:32Z</time>
      </trkpt>
      <trkpt lat="46.85001" lon="5.83771">
        <ele>586.4</ele>
        <time>2021-01-05T13:29:38Z</time>
      </trkpt>
      <trkpt lat="46.85005" lon="5.83776">
        <ele>586.8</ele>
        <time>2021-01-05T13:29:44Z</time>
      </trkpt>
      <trkpt lat="46.85009" lon="5.8378">
        <ele>586.8</ele>
        <time>2021-01-05T13:29:49Z</time>
      </trkpt>
      <trkpt lat="46.85014" lon="5.83784">
        <ele>586.3</ele>
        <time>2021-01-05T13:29:54Z</time>
      </trkpt>
      <trkpt lat="46.8502" lon="5.83786">
        <ele>585.8</ele>
        <time>2021-01-05T13:29:59Z</time>
      </trkpt>
      <trkpt lat="46.85024" lon="5.83788">
        <ele>585.6</ele>
        <time>2021-01-05T13:30:03Z</time>
      </trkpt>
      <trkpt lat="46.85029" lon="5.8379">
        <ele>585.3</ele>
        <time>2021-01-05T13:30:08Z</time>
      </trkpt>
      <trkpt lat="46.85034" lon="5.83791">
        <ele>585.1</ele>
        <time>2021-01-05T13:30:13Z</time>
      </trkpt>
      <trkpt lat="46.85038" lon="5.83796">
        <ele>585</ele>
        <time>2021-01-05T13:30:19Z</time>
      </trkpt>
      <trkpt lat="46.85042" lon="5.838">
        <ele>585</ele>
        <time>2021-01-05T13:30:24Z</time>
      </trkpt>
      <trkpt lat="46.85046" lon="5.83804">
        <ele>585</ele>
        <time>2021-01-05T13:30:30Z</time>
      </trkpt>
      <trkpt lat="46.85051" lon="5.83805">
        <ele>585.2</ele>
        <time>2021-01-05T13:30:35Z</time>
      </trkpt>
      <trkpt lat="46.85056" lon="5.83809">
        <ele>585.5</ele>
        <time>2021-01-05T13:30:40Z</time>
      </trkpt>
      <trkpt lat="46.85061" lon="5.83814">
        <ele>585.6</ele>
        <time>2021-01-05T13:30:45Z</time>
      </trkpt>
      <trkpt lat="46.85066" lon="5.83819">
        <ele>585.6</ele>
        <time>2021-01-05T13:30:50Z</time>
      </trkpt>
      <trkpt lat="46.8507" lon="5.83823">
        <ele>585.4</ele>
        <time>2021-01-05T13:30:56Z</time>
      </trkpt>
      <trkpt lat="46.85074" lon="5.83827">
        <ele>585.3</ele>
        <time>2021-01-05T13:31:02Z</time>
      </trkpt>
      <trkpt lat="46.85078" lon="5.83831">
        <ele>585.7</ele>
        <time>2021-01-05T13:31:07Z</time>
      </trkpt>
      <trkpt lat="46.85085" lon="5.83834">
        <ele>586.7</ele>
        <time>2021-01-05T13:31:12Z</time>
      </trkpt>
      <trkpt lat="46.8509" lon="5.83838">
        <ele>587.5</ele>
        <time>2021-01-05T13:31:17Z</time>
      </trkpt>
      <trkpt lat="46.85093" lon="5.83843">
        <ele>588.3</ele>
        <time>2021-01-05T13:31:23Z</time>
      </trkpt>
      <trkpt lat="46.85098" lon="5.83847">
        <ele>589.2</ele>
        <time>2021-01-05T13:31:29Z</time>
      </trkpt>
      <trkpt lat="46.85101" lon="5.83851">
        <ele>590.6</ele>
        <time>2021-01-05T13:31:37Z</time>
      </trkpt>
      <trkpt lat="46.85105" lon="5.83855">
        <ele>592.2</ele>
        <time>2021-01-05T13:31:44Z</time>
      </trkpt>
      <trkpt lat="46.8511" lon="5.83859">
        <ele>593</ele>
        <time>2021-01-05T13:31:49Z</time>
      </trkpt>
      <trkpt lat="46.85114" lon="5.83862">
        <ele>593.5</ele>
        <time>2021-01-05T13:31:54Z</time>
      </trkpt>
      <trkpt lat="46.85119" lon="5.83865">
        <ele>593.8</ele>
        <time>2021-01-05T13:32:00Z</time>
      </trkpt>
      <trkpt lat="46.85123" lon="5.83869">
        <ele>593.8</ele>
        <time>2021-01-05T13:32:05Z</time>
      </trkpt>
      <trkpt lat="46.85127" lon="5.83874">
        <ele>593.8</ele>
        <time>2021-01-05T13:32:10Z</time>
      </trkpt>
      <trkpt lat="46.85132" lon="5.83879">
        <ele>593.7</ele>
        <time>2021-01-05T13:32:15Z</time>
      </trkpt>
      <trkpt lat="46.85137" lon="5.8388">
        <ele>593.9</ele>
        <time>2021-01-05T13:32:20Z</time>
      </trkpt>
      <trkpt lat="46.85142" lon="5.83884">
        <ele>594</ele>
        <time>2021-01-05T13:32:25Z</time>
      </trkpt>
      <trkpt lat="46.85146" lon="5.83889">
        <ele>594.2</ele>
        <time>2021-01-05T13:32:30Z</time>
      </trkpt>
      <trkpt lat="46.8515" lon="5.83893">
        <ele>594.4</ele>
        <time>2021-01-05T13:32:35Z</time>
      </trkpt>
      <trkpt lat="46.85155" lon="5.83896">
        <ele>594.9</ele>
        <time>2021-01-05T13:32:41Z</time>
      </trkpt>
      <trkpt lat="46.85159" lon="5.83901">
        <ele>594.8</ele>
        <time>2021-01-05T13:32:47Z</time>
      </trkpt>
      <trkpt lat="46.85162" lon="5.83905">
        <ele>594.2</ele>
        <time>2021-01-05T13:32:53Z</time>
      </trkpt>
      <trkpt lat="46.85167" lon="5.83908">
        <ele>593.6</ele>
        <time>2021-01-05T13:32:58Z</time>
      </trkpt>
      <trkpt lat="46.85171" lon="5.83911">
        <ele>593</ele>
        <time>2021-01-05T13:33:04Z</time>
      </trkpt>
      <trkpt lat="46.85176" lon="5.83913">
        <ele>592.6</ele>
        <time>2021-01-05T13:33:11Z</time>
      </trkpt>
      <trkpt lat="46.85173" lon="5.83919">
        <ele>592.2</ele>
        <time>2021-01-05T13:33:22Z</time>
      </trkpt>
      <trkpt lat="46.85174" lon="5.83926">
        <ele>591.8</ele>
        <time>2021-01-05T13:33:37Z</time>
      </trkpt>
      <trkpt lat="46.85175" lon="5.83935">
        <ele>595.3</ele>
        <time>2021-01-05T13:33:45Z</time>
      </trkpt>
      <trkpt lat="46.85176" lon="5.83944">
        <ele>599.7</ele>
        <time>2021-01-05T13:33:50Z</time>
      </trkpt>
      <trkpt lat="46.85173" lon="5.83937">
        <ele>602.9</ele>
        <time>2021-01-05T13:34:07Z</time>
      </trkpt>
      <trkpt lat="46.85173" lon="5.83927">
        <ele>601.3</ele>
        <time>2021-01-05T13:34:46Z</time>
      </trkpt>
      <trkpt lat="46.85176" lon="5.83921">
        <ele>600.4</ele>
        <time>2021-01-05T13:34:52Z</time>
      </trkpt>
      <trkpt lat="46.85181" lon="5.83922">
        <ele>598.6</ele>
        <time>2021-01-05T13:35:28Z</time>
      </trkpt>
      <trkpt lat="46.85185" lon="5.83925">
        <ele>597.6</ele>
        <time>2021-01-05T13:35:33Z</time>
      </trkpt>
      <trkpt lat="46.85189" lon="5.83927">
        <ele>596</ele>
        <time>2021-01-05T13:35:40Z</time>
      </trkpt>
      <trkpt lat="46.85193" lon="5.83929">
        <ele>595</ele>
        <time>2021-01-05T13:35:47Z</time>
      </trkpt>
      <trkpt lat="46.85197" lon="5.83933">
        <ele>594.3</ele>
        <time>2021-01-05T13:35:52Z</time>
      </trkpt>
      <trkpt lat="46.85201" lon="5.83937">
        <ele>593.7</ele>
        <time>2021-01-05T13:35:57Z</time>
      </trkpt>
      <trkpt lat="46.85205" lon="5.8394">
        <ele>592.9</ele>
        <time>2021-01-05T13:36:03Z</time>
      </trkpt>
      <trkpt lat="46.85209" lon="5.83945">
        <ele>592</ele>
        <time>2021-01-05T13:36:09Z</time>
      </trkpt>
      <trkpt lat="46.85213" lon="5.83948">
        <ele>591.1</ele>
        <time>2021-01-05T13:36:15Z</time>
      </trkpt>
      <trkpt lat="46.85215" lon="5.83955">
        <ele>589.5</ele>
        <time>2021-01-05T13:36:32Z</time>
      </trkpt>
      <trkpt lat="46.85219" lon="5.83959">
        <ele>589.1</ele>
        <time>2021-01-05T13:36:41Z</time>
      </trkpt>
      <trkpt lat="46.85224" lon="5.8396">
        <ele>588.8</ele>
        <time>2021-01-05T13:36:47Z</time>
      </trkpt>
      <trkpt lat="46.85229" lon="5.83962">
        <ele>588.4</ele>
        <time>2021-01-05T13:36:53Z</time>
      </trkpt>
      <trkpt lat="46.85235" lon="5.83963">
        <ele>588.2</ele>
        <time>2021-01-05T13:36:58Z</time>
      </trkpt>
      <trkpt lat="46.85239" lon="5.83965">
        <ele>588</ele>
        <time>2021-01-05T13:37:03Z</time>
      </trkpt>
      <trkpt lat="46.85243" lon="5.83969">
        <ele>587.8</ele>
        <time>2021-01-05T13:37:08Z</time>
      </trkpt>
      <trkpt lat="46.85248" lon="5.83972">
        <ele>587.8</ele>
        <time>2021-01-05T13:37:13Z</time>
      </trkpt>
      <trkpt lat="46.85253" lon="5.83975">
        <ele>587.7</ele>
        <time>2021-01-05T13:37:18Z</time>
      </trkpt>
      <trkpt lat="46.85257" lon="5.83979">
        <ele>587.3</ele>
        <time>2021-01-05T13:37:23Z</time>
      </trkpt>
      <trkpt lat="46.85261" lon="5.83983">
        <ele>587.2</ele>
        <time>2021-01-05T13:37:28Z</time>
      </trkpt>
      <trkpt lat="46.85265" lon="5.83987">
        <ele>587.5</ele>
        <time>2021-01-05T13:37:33Z</time>
      </trkpt>
      <trkpt lat="46.85269" lon="5.83992">
        <ele>588.3</ele>
        <time>2021-01-05T13:37:39Z</time>
      </trkpt>
      <trkpt lat="46.85273" lon="5.83996">
        <ele>589.2</ele>
        <time>2021-01-05T13:37:44Z</time>
      </trkpt>
      <trkpt lat="46.85278" lon="5.83998">
        <ele>590.2</ele>
        <time>2021-01-05T13:37:49Z</time>
      </trkpt>
      <trkpt lat="46.85282" lon="5.84002">
        <ele>591</ele>
        <time>2021-01-05T13:37:54Z</time>
      </trkpt>
      <trkpt lat="46.85287" lon="5.84006">
        <ele>591.5</ele>
        <time>2021-01-05T13:37:59Z</time>
      </trkpt>
      <trkpt lat="46.85292" lon="5.84009">
        <ele>591.3</ele>
        <time>2021-01-05T13:38:06Z</time>
      </trkpt>
      <trkpt lat="46.85296" lon="5.84012">
        <ele>590.5</ele>
        <time>2021-01-05T13:38:12Z</time>
      </trkpt>
      <trkpt lat="46.85302" lon="5.84014">
        <ele>589.9</ele>
        <time>2021-01-05T13:38:17Z</time>
      </trkpt>
      <trkpt lat="46.85306" lon="5.84018">
        <ele>589.5</ele>
        <time>2021-01-05T13:38:22Z</time>
      </trkpt>
      <trkpt lat="46.8531" lon="5.84022">
        <ele>588.9</ele>
        <time>2021-01-05T13:38:28Z</time>
      </trkpt>
      <trkpt lat="46.85315" lon="5.84026">
        <ele>588.8</ele>
        <time>2021-01-05T13:38:33Z</time>
      </trkpt>
      <trkpt lat="46.8532" lon="5.84029">
        <ele>589.3</ele>
        <time>2021-01-05T13:38:38Z</time>
      </trkpt>
      <trkpt lat="46.85323" lon="5.84033">
        <ele>589.9</ele>
        <time>2021-01-05T13:38:43Z</time>
      </trkpt>
      <trkpt lat="46.85327" lon="5.84037">
        <ele>590.1</ele>
        <time>2021-01-05T13:38:48Z</time>
      </trkpt>
      <trkpt lat="46.85331" lon="5.8404">
        <ele>590.4</ele>
        <time>2021-01-05T13:38:53Z</time>
      </trkpt>
      <trkpt lat="46.85335" lon="5.84043">
        <ele>590.4</ele>
        <time>2021-01-05T13:38:59Z</time>
      </trkpt>
      <trkpt lat="46.85339" lon="5.84048">
        <ele>590.7</ele>
        <time>2021-01-05T13:39:06Z</time>
      </trkpt>
      <trkpt lat="46.85343" lon="5.84052">
        <ele>591.1</ele>
        <time>2021-01-05T13:39:11Z</time>
      </trkpt>
      <trkpt lat="46.85347" lon="5.84056">
        <ele>591.7</ele>
        <time>2021-01-05T13:39:16Z</time>
      </trkpt>
      <trkpt lat="46.85352" lon="5.8406">
        <ele>592.3</ele>
        <time>2021-01-05T13:39:22Z</time>
      </trkpt>
      <trkpt lat="46.85356" lon="5.84063">
        <ele>593</ele>
        <time>2021-01-05T13:39:28Z</time>
      </trkpt>
      <trkpt lat="46.8536" lon="5.84066">
        <ele>593.3</ele>
        <time>2021-01-05T13:39:34Z</time>
      </trkpt>
      <trkpt lat="46.85365" lon="5.84068">
        <ele>593.5</ele>
        <time>2021-01-05T13:39:39Z</time>
      </trkpt>
      <trkpt lat="46.85369" lon="5.84072">
        <ele>593.5</ele>
        <time>2021-01-05T13:39:44Z</time>
      </trkpt>
      <trkpt lat="46.85373" lon="5.84076">
        <ele>593.4</ele>
        <time>2021-01-05T13:39:49Z</time>
      </trkpt>
      <trkpt lat="46.85376" lon="5.84082">
        <ele>593.7</ele>
        <time>2021-01-05T13:39:54Z</time>
      </trkpt>
      <trkpt lat="46.8538" lon="5.84086">
        <ele>594.3</ele>
        <time>2021-01-05T13:39:59Z</time>
      </trkpt>
      <trkpt lat="46.85384" lon="5.8409">
        <ele>594.9</ele>
        <time>2021-01-05T13:40:04Z</time>
      </trkpt>
      <trkpt lat="46.85389" lon="5.84092">
        <ele>595.6</ele>
        <time>2021-01-05T13:40:09Z</time>
      </trkpt>
      <trkpt lat="46.85394" lon="5.84093">
        <ele>596.5</ele>
        <time>2021-01-05T13:40:14Z</time>
      </trkpt>
      <trkpt lat="46.85398" lon="5.84095">
        <ele>597.4</ele>
        <time>2021-01-05T13:40:19Z</time>
      </trkpt>
      <trkpt lat="46.85403" lon="5.84099">
        <ele>598.2</ele>
        <time>2021-01-05T13:40:24Z</time>
      </trkpt>
      <trkpt lat="46.85407" lon="5.84101">
        <ele>598.8</ele>
        <time>2021-01-05T13:40:29Z</time>
      </trkpt>
      <trkpt lat="46.85411" lon="5.84106">
        <ele>599.4</ele>
        <time>2021-01-05T13:40:34Z</time>
      </trkpt>
      <trkpt lat="46.85414" lon="5.8411">
        <ele>599.8</ele>
        <time>2021-01-05T13:40:39Z</time>
      </trkpt>
      <trkpt lat="46.85419" lon="5.84113">
        <ele>599.9</ele>
        <time>2021-01-05T13:40:44Z</time>
      </trkpt>
      <trkpt lat="46.85422" lon="5.84118">
        <ele>599.9</ele>
        <time>2021-01-05T13:40:49Z</time>
      </trkpt>
      <trkpt lat="46.85427" lon="5.84122">
        <ele>600</ele>
        <time>2021-01-05T13:40:54Z</time>
      </trkpt>
      <trkpt lat="46.85431" lon="5.84125">
        <ele>599.9</ele>
        <time>2021-01-05T13:40:59Z</time>
      </trkpt>
      <trkpt lat="46.85436" lon="5.8413">
        <ele>599.4</ele>
        <time>2021-01-05T13:41:04Z</time>
      </trkpt>
      <trkpt lat="46.8544" lon="5.84133">
        <ele>598.8</ele>
        <time>2021-01-05T13:41:10Z</time>
      </trkpt>
      <trkpt lat="46.85444" lon="5.84135">
        <ele>598.7</ele>
        <time>2021-01-05T13:41:15Z</time>
      </trkpt>
      <trkpt lat="46.85449" lon="5.84138">
        <ele>598.9</ele>
        <time>2021-01-05T13:41:20Z</time>
      </trkpt>
      <trkpt lat="46.85453" lon="5.84142">
        <ele>598.9</ele>
        <time>2021-01-05T13:41:26Z</time>
      </trkpt>
      <trkpt lat="46.85458" lon="5.84147">
        <ele>598.7</ele>
        <time>2021-01-05T13:41:31Z</time>
      </trkpt>
      <trkpt lat="46.85463" lon="5.84149">
        <ele>598.7</ele>
        <time>2021-01-05T13:41:36Z</time>
      </trkpt>
      <trkpt lat="46.85467" lon="5.84153">
        <ele>598.9</ele>
        <time>2021-01-05T13:41:41Z</time>
      </trkpt>
      <trkpt lat="46.8547" lon="5.84157">
        <ele>599.2</ele>
        <time>2021-01-05T13:41:46Z</time>
      </trkpt>
      <trkpt lat="46.85475" lon="5.8416">
        <ele>599.7</ele>
        <time>2021-01-05T13:41:51Z</time>
      </trkpt>
      <trkpt lat="46.85479" lon="5.84165">
        <ele>600.3</ele>
        <time>2021-01-05T13:41:57Z</time>
      </trkpt>
      <trkpt lat="46.85483" lon="5.84169">
        <ele>600.6</ele>
        <time>2021-01-05T13:42:03Z</time>
      </trkpt>
      <trkpt lat="46.85488" lon="5.84172">
        <ele>600.9</ele>
        <time>2021-01-05T13:42:09Z</time>
      </trkpt>
      <trkpt lat="46.85492" lon="5.84176">
        <ele>601.1</ele>
        <time>2021-01-05T13:42:14Z</time>
      </trkpt>
      <trkpt lat="46.85496" lon="5.8418">
        <ele>601</ele>
        <time>2021-01-05T13:42:19Z</time>
      </trkpt>
      <trkpt lat="46.855" lon="5.84183">
        <ele>600.1</ele>
        <time>2021-01-05T13:42:24Z</time>
      </trkpt>
      <trkpt lat="46.85504" lon="5.84188">
        <ele>599.5</ele>
        <time>2021-01-05T13:42:29Z</time>
      </trkpt>
      <trkpt lat="46.85508" lon="5.84191">
        <ele>599.2</ele>
        <time>2021-01-05T13:42:33Z</time>
      </trkpt>
      <trkpt lat="46.85513" lon="5.84195">
        <ele>598.5</ele>
        <time>2021-01-05T13:42:38Z</time>
      </trkpt>
      <trkpt lat="46.85517" lon="5.84199">
        <ele>597.6</ele>
        <time>2021-01-05T13:42:44Z</time>
      </trkpt>
      <trkpt lat="46.85521" lon="5.84203">
        <ele>596.2</ele>
        <time>2021-01-05T13:42:52Z</time>
      </trkpt>
      <trkpt lat="46.85525" lon="5.84202">
        <ele>595</ele>
        <time>2021-01-05T13:42:59Z</time>
      </trkpt>
      <trkpt lat="46.85531" lon="5.84202">
        <ele>593.6</ele>
        <time>2021-01-05T13:43:21Z</time>
      </trkpt>
      <trkpt lat="46.85536" lon="5.84207">
        <ele>594</ele>
        <time>2021-01-05T13:43:32Z</time>
      </trkpt>
      <trkpt lat="46.8554" lon="5.84211">
        <ele>593.9</ele>
        <time>2021-01-05T13:43:37Z</time>
      </trkpt>
      <trkpt lat="46.85545" lon="5.84212">
        <ele>593.7</ele>
        <time>2021-01-05T13:43:44Z</time>
      </trkpt>
      <trkpt lat="46.85549" lon="5.8421">
        <ele>594.5</ele>
        <time>2021-01-05T13:43:53Z</time>
      </trkpt>
      <trkpt lat="46.85548" lon="5.84203">
        <ele>587.7</ele>
        <time>2021-01-05T13:44:40Z</time>
      </trkpt>
      <trkpt lat="46.85549" lon="5.84197">
        <ele>586.8</ele>
        <time>2021-01-05T13:44:46Z</time>
      </trkpt>
      <trkpt lat="46.85545" lon="5.84196">
        <ele>587.1</ele>
        <time>2021-01-05T13:45:05Z</time>
      </trkpt>
      <trkpt lat="46.85547" lon="5.84204">
        <ele>599</ele>
        <time>2021-01-05T13:45:10Z</time>
      </trkpt>
      <trkpt lat="46.85552" lon="5.84202">
        <ele>600.3</ele>
        <time>2021-01-05T13:45:20Z</time>
      </trkpt>
      <trkpt lat="46.85547" lon="5.842">
        <ele>599.1</ele>
        <time>2021-01-05T13:46:01Z</time>
      </trkpt>
      <trkpt lat="46.85543" lon="5.84197">
        <ele>596</ele>
        <time>2021-01-05T13:46:26Z</time>
      </trkpt>
      <trkpt lat="46.85542" lon="5.84203">
        <ele>597.5</ele>
        <time>2021-01-05T13:46:34Z</time>
      </trkpt>
      <trkpt lat="46.85543" lon="5.8421">
        <ele>600</ele>
        <time>2021-01-05T13:46:55Z</time>
      </trkpt>
      <trkpt lat="46.8554" lon="5.84215">
        <ele>597.6</ele>
        <time>2021-01-05T13:47:26Z</time>
      </trkpt>
      <trkpt lat="46.85543" lon="5.8421">
        <ele>591.9</ele>
        <time>2021-01-05T13:48:23Z</time>
      </trkpt>
      <trkpt lat="46.85548" lon="5.84208">
        <ele>593.4</ele>
        <time>2021-01-05T13:48:31Z</time>
      </trkpt>
      <trkpt lat="46.85551" lon="5.84203">
        <ele>592.9</ele>
        <time>2021-01-05T13:49:12Z</time>
      </trkpt>
      <trkpt lat="46.85547" lon="5.84207">
        <ele>592.9</ele>
        <time>2021-01-05T13:49:36Z</time>
      </trkpt>
      <trkpt lat="46.85549" lon="5.84216">
        <ele>596.6</ele>
        <time>2021-01-05T13:49:43Z</time>
      </trkpt>
      <trkpt lat="46.85596" lon="5.84187">
        <ele>597.6</ele>
        <time>2021-01-05T13:49:48Z</time>
      </trkpt>
      <trkpt lat="46.85576" lon="5.84176">
        <ele>597.7</ele>
        <time>2021-01-05T13:49:53Z</time>
      </trkpt>
      <trkpt lat="46.85567" lon="5.84187">
        <ele>597.4</ele>
        <time>2021-01-05T13:49:57Z</time>
      </trkpt>
      <trkpt lat="46.85545" lon="5.84175">
        <ele>596.7</ele>
        <time>2021-01-05T13:50:10Z</time>
      </trkpt>
      <trkpt lat="46.85549" lon="5.84195">
        <ele>596.6</ele>
        <time>2021-01-05T13:50:32Z</time>
      </trkpt>
      <trkpt lat="46.85547" lon="5.84203">
        <ele>596.3</ele>
        <time>2021-01-05T13:50:44Z</time>
      </trkpt>
      <trkpt lat="46.85545" lon="5.84209">
        <ele>596.1</ele>
        <time>2021-01-05T13:50:48Z</time>
      </trkpt>
      <trkpt lat="46.85539" lon="5.84212">
        <ele>595.9</ele>
        <time>2021-01-05T13:51:26Z</time>
      </trkpt>
      <trkpt lat="46.85543" lon="5.84217">
        <ele>594.1</ele>
        <time>2021-01-05T13:51:49Z</time>
      </trkpt>
      <trkpt lat="46.8554" lon="5.84222">
        <ele>594.1</ele>
        <time>2021-01-05T13:51:55Z</time>
      </trkpt>
      <trkpt lat="46.85541" lon="5.84229">
        <ele>602.2</ele>
        <time>2021-01-05T13:52:11Z</time>
      </trkpt>
      <trkpt lat="46.85549" lon="5.84229">
        <ele>605.3</ele>
        <time>2021-01-05T13:52:23Z</time>
      </trkpt>
      <trkpt lat="46.85554" lon="5.84221">
        <ele>605</ele>
        <time>2021-01-05T13:52:27Z</time>
      </trkpt>
      <trkpt lat="46.85557" lon="5.84214">
        <ele>604.2</ele>
        <time>2021-01-05T13:52:36Z</time>
      </trkpt>
      <trkpt lat="46.85559" lon="5.84208">
        <ele>603.3</ele>
        <time>2021-01-05T13:52:41Z</time>
      </trkpt>
      <trkpt lat="46.85553" lon="5.84211">
        <ele>601</ele>
        <time>2021-01-05T13:52:56Z</time>
      </trkpt>
      <trkpt lat="46.85549" lon="5.84213">
        <ele>599.1</ele>
        <time>2021-01-05T13:53:02Z</time>
      </trkpt>
      <trkpt lat="46.85546" lon="5.84219">
        <ele>597.7</ele>
        <time>2021-01-05T13:53:27Z</time>
      </trkpt>
      <trkpt lat="46.85543" lon="5.84224">
        <ele>597.6</ele>
        <time>2021-01-05T13:53:32Z</time>
      </trkpt>
      <trkpt lat="46.85539" lon="5.84229">
        <ele>599.2</ele>
        <time>2021-01-05T13:54:02Z</time>
      </trkpt>
      <trkpt lat="46.85536" lon="5.84235">
        <ele>601</ele>
        <time>2021-01-05T13:54:07Z</time>
      </trkpt>
      <trkpt lat="46.85535" lon="5.84244">
        <ele>602.5</ele>
        <time>2021-01-05T13:54:17Z</time>
      </trkpt>
      <trkpt lat="46.85535" lon="5.84257">
        <ele>604.3</ele>
        <time>2021-01-05T13:55:45Z</time>
      </trkpt>
      <trkpt lat="46.85534" lon="5.84275">
        <ele>599.3</ele>
        <time>2021-01-05T13:55:50Z</time>
      </trkpt>
      <trkpt lat="46.85533" lon="5.84282">
        <ele>597.9</ele>
        <time>2021-01-05T13:55:55Z</time>
      </trkpt>
      <trkpt lat="46.85531" lon="5.8429">
        <ele>598.4</ele>
        <time>2021-01-05T13:56:06Z</time>
      </trkpt>
      <trkpt lat="46.85529" lon="5.84296">
        <ele>599.5</ele>
        <time>2021-01-05T13:56:12Z</time>
      </trkpt>
      <trkpt lat="46.85525" lon="5.84302">
        <ele>599.5</ele>
        <time>2021-01-05T13:56:17Z</time>
      </trkpt>
      <trkpt lat="46.85521" lon="5.84311">
        <ele>599.4</ele>
        <time>2021-01-05T13:56:35Z</time>
      </trkpt>
      <trkpt lat="46.85519" lon="5.8432">
        <ele>599.3</ele>
        <time>2021-01-05T13:56:39Z</time>
      </trkpt>
      <trkpt lat="46.85517" lon="5.84327">
        <ele>599.5</ele>
        <time>2021-01-05T13:56:47Z</time>
      </trkpt>
      <trkpt lat="46.85515" lon="5.84338">
        <ele>601.8</ele>
        <time>2021-01-05T13:56:51Z</time>
      </trkpt>
      <trkpt lat="46.85514" lon="5.84345">
        <ele>605.9</ele>
        <time>2021-01-05T13:57:01Z</time>
      </trkpt>
      <trkpt lat="46.85511" lon="5.8435">
        <ele>608.2</ele>
        <time>2021-01-05T13:57:08Z</time>
      </trkpt>
      <trkpt lat="46.85503" lon="5.8436">
        <ele>610.3</ele>
        <time>2021-01-05T13:57:13Z</time>
      </trkpt>
      <trkpt lat="46.85497" lon="5.84366">
        <ele>613</ele>
        <time>2021-01-05T13:57:34Z</time>
      </trkpt>
      <trkpt lat="46.85492" lon="5.84372">
        <ele>613</ele>
        <time>2021-01-05T13:57:39Z</time>
      </trkpt>
      <trkpt lat="46.85488" lon="5.84377">
        <ele>612.7</ele>
        <time>2021-01-05T13:57:48Z</time>
      </trkpt>
      <trkpt lat="46.85482" lon="5.84382">
        <ele>611.8</ele>
        <time>2021-01-05T13:57:53Z</time>
      </trkpt>
      <trkpt lat="46.85477" lon="5.84386">
        <ele>611.1</ele>
        <time>2021-01-05T13:57:57Z</time>
      </trkpt>
      <trkpt lat="46.85471" lon="5.84393">
        <ele>609.7</ele>
        <time>2021-01-05T13:58:12Z</time>
      </trkpt>
      <trkpt lat="46.85466" lon="5.84399">
        <ele>609.1</ele>
        <time>2021-01-05T13:58:17Z</time>
      </trkpt>
      <trkpt lat="46.85461" lon="5.84399">
        <ele>608</ele>
        <time>2021-01-05T13:58:27Z</time>
      </trkpt>
      <trkpt lat="46.85458" lon="5.84403">
        <ele>607.2</ele>
        <time>2021-01-05T13:58:32Z</time>
      </trkpt>
      <trkpt lat="46.85454" lon="5.84413">
        <ele>608</ele>
        <time>2021-01-05T13:58:37Z</time>
      </trkpt>
      <trkpt lat="46.8545" lon="5.84424">
        <ele>609.3</ele>
        <time>2021-01-05T13:58:45Z</time>
      </trkpt>
      <trkpt lat="46.85445" lon="5.84437">
        <ele>610.9</ele>
        <time>2021-01-05T13:58:50Z</time>
      </trkpt>
      <trkpt lat="46.8544" lon="5.84441">
        <ele>614.1</ele>
        <time>2021-01-05T13:59:23Z</time>
      </trkpt>
      <trkpt lat="46.85432" lon="5.84435">
        <ele>615.7</ele>
        <time>2021-01-05T13:59:28Z</time>
      </trkpt>
      <trkpt lat="46.85432" lon="5.84442">
        <ele>616.2</ele>
        <time>2021-01-05T13:59:37Z</time>
      </trkpt>
      <trkpt lat="46.85428" lon="5.84449">
        <ele>613.5</ele>
        <time>2021-01-05T14:00:57Z</time>
      </trkpt>
      <trkpt lat="46.85424" lon="5.84453">
        <ele>611.3</ele>
        <time>2021-01-05T14:01:02Z</time>
      </trkpt>
      <trkpt lat="46.8542" lon="5.84458">
        <ele>609.5</ele>
        <time>2021-01-05T14:01:15Z</time>
      </trkpt>
      <trkpt lat="46.85415" lon="5.84467">
        <ele>609.2</ele>
        <time>2021-01-05T14:01:20Z</time>
      </trkpt>
      <trkpt lat="46.85408" lon="5.84478">
        <ele>610.7</ele>
        <time>2021-01-05T14:01:25Z</time>
      </trkpt>
      <trkpt lat="46.85402" lon="5.8449">
        <ele>612.4</ele>
        <time>2021-01-05T14:01:30Z</time>
      </trkpt>
      <trkpt lat="46.85402" lon="5.84497">
        <ele>613.9</ele>
        <time>2021-01-05T14:01:50Z</time>
      </trkpt>
      <trkpt lat="46.85399" lon="5.84491">
        <ele>613.6</ele>
        <time>2021-01-05T14:01:54Z</time>
      </trkpt>
      <trkpt lat="46.85395" lon="5.84491">
        <ele>612.8</ele>
        <time>2021-01-05T14:02:11Z</time>
      </trkpt>
      <trkpt lat="46.85385" lon="5.84494">
        <ele>613.5</ele>
        <time>2021-01-05T14:02:16Z</time>
      </trkpt>
      <trkpt lat="46.85382" lon="5.84501">
        <ele>613.2</ele>
        <time>2021-01-05T14:02:58Z</time>
      </trkpt>
      <trkpt lat="46.85376" lon="5.8451">
        <ele>611.9</ele>
        <time>2021-01-05T14:03:03Z</time>
      </trkpt>
      <trkpt lat="46.85371" lon="5.84518">
        <ele>610.9</ele>
        <time>2021-01-05T14:03:08Z</time>
      </trkpt>
      <trkpt lat="46.85365" lon="5.84527">
        <ele>610.1</ele>
        <time>2021-01-05T14:03:31Z</time>
      </trkpt>
      <trkpt lat="46.85354" lon="5.84539">
        <ele>608.1</ele>
        <time>2021-01-05T14:03:36Z</time>
      </trkpt>
      <trkpt lat="46.85346" lon="5.84544">
        <ele>606.6</ele>
        <time>2021-01-05T14:03:41Z</time>
      </trkpt>
      <trkpt lat="46.85339" lon="5.84547">
        <ele>605.2</ele>
        <time>2021-01-05T14:03:57Z</time>
      </trkpt>
      <trkpt lat="46.85333" lon="5.84551">
        <ele>605.3</ele>
        <time>2021-01-05T14:04:02Z</time>
      </trkpt>
      <trkpt lat="46.85328" lon="5.84552">
        <ele>605.4</ele>
        <time>2021-01-05T14:04:34Z</time>
      </trkpt>
      <trkpt lat="46.85322" lon="5.84554">
        <ele>605.6</ele>
        <time>2021-01-05T14:04:39Z</time>
      </trkpt>
      <trkpt lat="46.85316" lon="5.84556">
        <ele>606</ele>
        <time>2021-01-05T14:04:49Z</time>
      </trkpt>
      <trkpt lat="46.85311" lon="5.8456">
        <ele>606.3</ele>
        <time>2021-01-05T14:04:54Z</time>
      </trkpt>
      <trkpt lat="46.85301" lon="5.8457">
        <ele>607.3</ele>
        <time>2021-01-05T14:04:59Z</time>
      </trkpt>
      <trkpt lat="46.85295" lon="5.84574">
        <ele>608.1</ele>
        <time>2021-01-05T14:05:03Z</time>
      </trkpt>
      <trkpt lat="46.85289" lon="5.84577">
        <ele>609.5</ele>
        <time>2021-01-05T14:05:19Z</time>
      </trkpt>
      <trkpt lat="46.85284" lon="5.84581">
        <ele>610.2</ele>
        <time>2021-01-05T14:05:24Z</time>
      </trkpt>
      <trkpt lat="46.85272" lon="5.84591">
        <ele>613.5</ele>
        <time>2021-01-05T14:05:29Z</time>
      </trkpt>
      <trkpt lat="46.85266" lon="5.84595">
        <ele>616.4</ele>
        <time>2021-01-05T14:05:33Z</time>
      </trkpt>
      <trkpt lat="46.85259" lon="5.84598">
        <ele>618.1</ele>
        <time>2021-01-05T14:05:38Z</time>
      </trkpt>
      <trkpt lat="46.85251" lon="5.84602">
        <ele>618.6</ele>
        <time>2021-01-05T14:05:58Z</time>
      </trkpt>
      <trkpt lat="46.85243" lon="5.84606">
        <ele>615.8</ele>
        <time>2021-01-05T14:06:03Z</time>
      </trkpt>
      <trkpt lat="46.85237" lon="5.84609">
        <ele>611.5</ele>
        <time>2021-01-05T14:06:15Z</time>
      </trkpt>
      <trkpt lat="46.85232" lon="5.84613">
        <ele>611.2</ele>
        <time>2021-01-05T14:06:20Z</time>
      </trkpt>
      <trkpt lat="46.85227" lon="5.84616">
        <ele>612.1</ele>
        <time>2021-01-05T14:06:27Z</time>
      </trkpt>
      <trkpt lat="46.8522" lon="5.84618">
        <ele>614.5</ele>
        <time>2021-01-05T14:06:32Z</time>
      </trkpt>
      <trkpt lat="46.85213" lon="5.84621">
        <ele>618</ele>
        <time>2021-01-05T14:06:42Z</time>
      </trkpt>
      <trkpt lat="46.85204" lon="5.84624">
        <ele>618.3</ele>
        <time>2021-01-05T14:06:47Z</time>
      </trkpt>
      <trkpt lat="46.85198" lon="5.84623">
        <ele>618.9</ele>
        <time>2021-01-05T14:07:03Z</time>
      </trkpt>
      <trkpt lat="46.85194" lon="5.84621">
        <ele>619</ele>
        <time>2021-01-05T14:07:08Z</time>
      </trkpt>
      <trkpt lat="46.85189" lon="5.8462">
        <ele>617.2</ele>
        <time>2021-01-05T14:07:18Z</time>
      </trkpt>
      <trkpt lat="46.85183" lon="5.84618">
        <ele>615</ele>
        <time>2021-01-05T14:07:23Z</time>
      </trkpt>
      <trkpt lat="46.85178" lon="5.84616">
        <ele>612.5</ele>
        <time>2021-01-05T14:07:34Z</time>
      </trkpt>
      <trkpt lat="46.85167" lon="5.84615">
        <ele>611</ele>
        <time>2021-01-05T14:07:39Z</time>
      </trkpt>
      <trkpt lat="46.8516" lon="5.84617">
        <ele>610.1</ele>
        <time>2021-01-05T14:07:44Z</time>
      </trkpt>
      <trkpt lat="46.85154" lon="5.84616">
        <ele>609.3</ele>
        <time>2021-01-05T14:07:57Z</time>
      </trkpt>
      <trkpt lat="46.85146" lon="5.84616">
        <ele>610.2</ele>
        <time>2021-01-05T14:08:02Z</time>
      </trkpt>
      <trkpt lat="46.85143" lon="5.84611">
        <ele>610.7</ele>
        <time>2021-01-05T14:08:19Z</time>
      </trkpt>
      <trkpt lat="46.85129" lon="5.84611">
        <ele>612.5</ele>
        <time>2021-01-05T14:08:24Z</time>
      </trkpt>
      <trkpt lat="46.85123" lon="5.84612">
        <ele>613</ele>
        <time>2021-01-05T14:08:29Z</time>
      </trkpt>
      <trkpt lat="46.85116" lon="5.84613">
        <ele>614.5</ele>
        <time>2021-01-05T14:08:35Z</time>
      </trkpt>
      <trkpt lat="46.85111" lon="5.84614">
        <ele>615.6</ele>
        <time>2021-01-05T14:08:40Z</time>
      </trkpt>
      <trkpt lat="46.85105" lon="5.84613">
        <ele>617.1</ele>
        <time>2021-01-05T14:08:45Z</time>
      </trkpt>
      <trkpt lat="46.85098" lon="5.84613">
        <ele>618.7</ele>
        <time>2021-01-05T14:08:50Z</time>
      </trkpt>
      <trkpt lat="46.85086" lon="5.84616">
        <ele>621.8</ele>
        <time>2021-01-05T14:09:09Z</time>
      </trkpt>
      <trkpt lat="46.85076" lon="5.84617">
        <ele>623.2</ele>
        <time>2021-01-05T14:09:14Z</time>
      </trkpt>
      <trkpt lat="46.8507" lon="5.84619">
        <ele>624.6</ele>
        <time>2021-01-05T14:09:36Z</time>
      </trkpt>
      <trkpt lat="46.85057" lon="5.84628">
        <ele>622</ele>
        <time>2021-01-05T14:09:41Z</time>
      </trkpt>
      <trkpt lat="46.8505" lon="5.84633">
        <ele>619.8</ele>
        <time>2021-01-05T14:09:56Z</time>
      </trkpt>
      <trkpt lat="46.85038" lon="5.84647">
        <ele>617.7</ele>
        <time>2021-01-05T14:10:01Z</time>
      </trkpt>
      <trkpt lat="46.85034" lon="5.84656">
        <ele>618.7</ele>
        <time>2021-01-05T14:10:06Z</time>
      </trkpt>
      <trkpt lat="46.8503" lon="5.84661">
        <ele>619.3</ele>
        <time>2021-01-05T14:10:11Z</time>
      </trkpt>
      <trkpt lat="46.85025" lon="5.84666">
        <ele>620.5</ele>
        <time>2021-01-05T14:10:32Z</time>
      </trkpt>
      <trkpt lat="46.85021" lon="5.84671">
        <ele>621</ele>
        <time>2021-01-05T14:10:37Z</time>
      </trkpt>
      <trkpt lat="46.85016" lon="5.84674">
        <ele>621.7</ele>
        <time>2021-01-05T14:10:48Z</time>
      </trkpt>
      <trkpt lat="46.85011" lon="5.84679">
        <ele>622.1</ele>
        <time>2021-01-05T14:10:53Z</time>
      </trkpt>
      <trkpt lat="46.85007" lon="5.84684">
        <ele>622.4</ele>
        <time>2021-01-05T14:11:03Z</time>
      </trkpt>
      <trkpt lat="46.85002" lon="5.84691">
        <ele>622.6</ele>
        <time>2021-01-05T14:11:08Z</time>
      </trkpt>
      <trkpt lat="46.84997" lon="5.84696">
        <ele>622.7</ele>
        <time>2021-01-05T14:11:17Z</time>
      </trkpt>
      <trkpt lat="46.84992" lon="5.84701">
        <ele>622.9</ele>
        <time>2021-01-05T14:11:22Z</time>
      </trkpt>
      <trkpt lat="46.84988" lon="5.84705">
        <ele>622.7</ele>
        <time>2021-01-05T14:11:30Z</time>
      </trkpt>
      <trkpt lat="46.84982" lon="5.84711">
        <ele>622.2</ele>
        <time>2021-01-05T14:11:35Z</time>
      </trkpt>
      <trkpt lat="46.84979" lon="5.84717">
        <ele>621.7</ele>
        <time>2021-01-05T14:11:43Z</time>
      </trkpt>
      <trkpt lat="46.84975" lon="5.84724">
        <ele>621.3</ele>
        <time>2021-01-05T14:11:48Z</time>
      </trkpt>
      <trkpt lat="46.84971" lon="5.84729">
        <ele>620.8</ele>
        <time>2021-01-05T14:11:55Z</time>
      </trkpt>
      <trkpt lat="46.84966" lon="5.84735">
        <ele>620.3</ele>
        <time>2021-01-05T14:12:00Z</time>
      </trkpt>
      <trkpt lat="46.84961" lon="5.84739">
        <ele>619.5</ele>
        <time>2021-01-05T14:12:08Z</time>
      </trkpt>
      <trkpt lat="46.84955" lon="5.84744">
        <ele>618.6</ele>
        <time>2021-01-05T14:12:13Z</time>
      </trkpt>
      <trkpt lat="46.84951" lon="5.84749">
        <ele>617.5</ele>
        <time>2021-01-05T14:12:21Z</time>
      </trkpt>
      <trkpt lat="46.84946" lon="5.84754">
        <ele>616.6</ele>
        <time>2021-01-05T14:12:26Z</time>
      </trkpt>
      <trkpt lat="46.84942" lon="5.84758">
        <ele>615.6</ele>
        <time>2021-01-05T14:12:33Z</time>
      </trkpt>
      <trkpt lat="46.84934" lon="5.84765">
        <ele>614.4</ele>
        <time>2021-01-05T14:12:38Z</time>
      </trkpt>
      <trkpt lat="46.84928" lon="5.84771">
        <ele>613</ele>
        <time>2021-01-05T14:12:47Z</time>
      </trkpt>
      <trkpt lat="46.84922" lon="5.84777">
        <ele>611.9</ele>
        <time>2021-01-05T14:12:52Z</time>
      </trkpt>
      <trkpt lat="46.84917" lon="5.84782">
        <ele>610.4</ele>
        <time>2021-01-05T14:12:59Z</time>
      </trkpt>
      <trkpt lat="46.84906" lon="5.84796">
        <ele>611.1</ele>
        <time>2021-01-05T14:13:03Z</time>
      </trkpt>
      <trkpt lat="46.84899" lon="5.84808">
        <ele>611.5</ele>
        <time>2021-01-05T14:13:08Z</time>
      </trkpt>
      <trkpt lat="46.84895" lon="5.84812">
        <ele>611.4</ele>
        <time>2021-01-05T14:13:17Z</time>
      </trkpt>
      <trkpt lat="46.84888" lon="5.84816">
        <ele>610.5</ele>
        <time>2021-01-05T14:13:26Z</time>
      </trkpt>
      <trkpt lat="46.84883" lon="5.8482">
        <ele>609.9</ele>
        <time>2021-01-05T14:13:31Z</time>
      </trkpt>
      <trkpt lat="46.84879" lon="5.84824">
        <ele>609</ele>
        <time>2021-01-05T14:13:37Z</time>
      </trkpt>
      <trkpt lat="46.84875" lon="5.84829">
        <ele>608.3</ele>
        <time>2021-01-05T14:13:44Z</time>
      </trkpt>
      <trkpt lat="46.8487" lon="5.84835">
        <ele>607.7</ele>
        <time>2021-01-05T14:13:49Z</time>
      </trkpt>
      <trkpt lat="46.84864" lon="5.8484">
        <ele>607</ele>
        <time>2021-01-05T14:13:54Z</time>
      </trkpt>
      <trkpt lat="46.8486" lon="5.84844">
        <ele>606.2</ele>
        <time>2021-01-05T14:13:59Z</time>
      </trkpt>
      <trkpt lat="46.84854" lon="5.84847">
        <ele>605.2</ele>
        <time>2021-01-05T14:14:12Z</time>
      </trkpt>
      <trkpt lat="46.84846" lon="5.84854">
        <ele>606.5</ele>
        <time>2021-01-05T14:14:17Z</time>
      </trkpt>
      <trkpt lat="46.8484" lon="5.8486">
        <ele>608.2</ele>
        <time>2021-01-05T14:14:22Z</time>
      </trkpt>
      <trkpt lat="46.84834" lon="5.84867">
        <ele>609.8</ele>
        <time>2021-01-05T14:14:35Z</time>
      </trkpt>
      <trkpt lat="46.84826" lon="5.84876">
        <ele>611.3</ele>
        <time>2021-01-05T14:14:40Z</time>
      </trkpt>
      <trkpt lat="46.8482" lon="5.84883">
        <ele>612.8</ele>
        <time>2021-01-05T14:14:54Z</time>
      </trkpt>
      <trkpt lat="46.84813" lon="5.84888">
        <ele>612.9</ele>
        <time>2021-01-05T14:14:59Z</time>
      </trkpt>
      <trkpt lat="46.84809" lon="5.84892">
        <ele>612.5</ele>
        <time>2021-01-05T14:15:06Z</time>
      </trkpt>
      <trkpt lat="46.84806" lon="5.84897">
        <ele>612.2</ele>
        <time>2021-01-05T14:15:13Z</time>
      </trkpt>
      <trkpt lat="46.84801" lon="5.84902">
        <ele>612</ele>
        <time>2021-01-05T14:15:18Z</time>
      </trkpt>
      <trkpt lat="46.84798" lon="5.84908">
        <ele>610.7</ele>
        <time>2021-01-05T14:15:45Z</time>
      </trkpt>
      <trkpt lat="46.84792" lon="5.84914">
        <ele>609.4</ele>
        <time>2021-01-05T14:15:50Z</time>
      </trkpt>
      <trkpt lat="46.84786" lon="5.84918">
        <ele>608.1</ele>
        <time>2021-01-05T14:15:55Z</time>
      </trkpt>
      <trkpt lat="46.84778" lon="5.84922">
        <ele>606.6</ele>
        <time>2021-01-05T14:16:07Z</time>
      </trkpt>
      <trkpt lat="46.84773" lon="5.84925">
        <ele>606.1</ele>
        <time>2021-01-05T14:16:12Z</time>
      </trkpt>
      <trkpt lat="46.84768" lon="5.84929">
        <ele>605.1</ele>
        <time>2021-01-05T14:16:20Z</time>
      </trkpt>
      <trkpt lat="46.84761" lon="5.84936">
        <ele>603.8</ele>
        <time>2021-01-05T14:16:25Z</time>
      </trkpt>
      <trkpt lat="46.84755" lon="5.84939">
        <ele>602.1</ele>
        <time>2021-01-05T14:16:30Z</time>
      </trkpt>
      <trkpt lat="46.84751" lon="5.84947">
        <ele>607.7</ele>
        <time>2021-01-05T14:16:46Z</time>
      </trkpt>
      <trkpt lat="46.84749" lon="5.84953">
        <ele>615.4</ele>
        <time>2021-01-05T14:16:51Z</time>
      </trkpt>
      <trkpt lat="46.84744" lon="5.8495">
        <ele>618.8</ele>
        <time>2021-01-05T14:17:46Z</time>
      </trkpt>
      <trkpt lat="46.84737" lon="5.84943">
        <ele>610.5</ele>
        <time>2021-01-05T14:18:06Z</time>
      </trkpt>
      <trkpt lat="46.84734" lon="5.84937">
        <ele>609.6</ele>
        <time>2021-01-05T14:18:11Z</time>
      </trkpt>
      <trkpt lat="46.84732" lon="5.84929">
        <ele>608.5</ele>
        <time>2021-01-05T14:18:22Z</time>
      </trkpt>
      <trkpt lat="46.8473" lon="5.84921">
        <ele>608.1</ele>
        <time>2021-01-05T14:18:27Z</time>
      </trkpt>
      <trkpt lat="46.84726" lon="5.84916">
        <ele>608.2</ele>
        <time>2021-01-05T14:18:33Z</time>
      </trkpt>
      <trkpt lat="46.84714" lon="5.84909">
        <ele>609.3</ele>
        <time>2021-01-05T14:18:38Z</time>
      </trkpt>
      <trkpt lat="46.84709" lon="5.84905">
        <ele>610.3</ele>
        <time>2021-01-05T14:18:43Z</time>
      </trkpt>
      <trkpt lat="46.84708" lon="5.84898">
        <ele>617.4</ele>
        <time>2021-01-05T14:18:49Z</time>
      </trkpt>
      <trkpt lat="46.8471" lon="5.84888">
        <ele>622.7</ele>
        <time>2021-01-05T14:18:54Z</time>
      </trkpt>
      <trkpt lat="46.84708" lon="5.84881">
        <ele>625</ele>
        <time>2021-01-05T14:18:59Z</time>
      </trkpt>
      <trkpt lat="46.84709" lon="5.84872">
        <ele>627.3</ele>
        <time>2021-01-05T14:19:09Z</time>
      </trkpt>
      <trkpt lat="46.84709" lon="5.84861">
        <ele>627.9</ele>
        <time>2021-01-05T14:19:14Z</time>
      </trkpt>
      <trkpt lat="46.84709" lon="5.84852">
        <ele>628.9</ele>
        <time>2021-01-05T14:19:26Z</time>
      </trkpt>
      <trkpt lat="46.8471" lon="5.8484">
        <ele>629.2</ele>
        <time>2021-01-05T14:19:31Z</time>
      </trkpt>
      <trkpt lat="46.8471" lon="5.84832">
        <ele>628.7</ele>
        <time>2021-01-05T14:19:36Z</time>
      </trkpt>
      <trkpt lat="46.8471" lon="5.84825">
        <ele>627.6</ele>
        <time>2021-01-05T14:19:41Z</time>
      </trkpt>
      <trkpt lat="46.8471" lon="5.84818">
        <ele>626.2</ele>
        <time>2021-01-05T14:19:48Z</time>
      </trkpt>
      <trkpt lat="46.8471" lon="5.8481">
        <ele>624.6</ele>
        <time>2021-01-05T14:20:01Z</time>
      </trkpt>
      <trkpt lat="46.84708" lon="5.84801">
        <ele>622.8</ele>
        <time>2021-01-05T14:20:06Z</time>
      </trkpt>
      <trkpt lat="46.84707" lon="5.84794">
        <ele>621.1</ele>
        <time>2021-01-05T14:20:14Z</time>
      </trkpt>
      <trkpt lat="46.84706" lon="5.84787">
        <ele>620</ele>
        <time>2021-01-05T14:20:19Z</time>
      </trkpt>
      <trkpt lat="46.84706" lon="5.84778">
        <ele>618.7</ele>
        <time>2021-01-05T14:20:31Z</time>
      </trkpt>
      <trkpt lat="46.84706" lon="5.84769">
        <ele>617.8</ele>
        <time>2021-01-05T14:20:36Z</time>
      </trkpt>
      <trkpt lat="46.84707" lon="5.8476">
        <ele>617.1</ele>
        <time>2021-01-05T14:20:41Z</time>
      </trkpt>
      <trkpt lat="46.84707" lon="5.84753">
        <ele>616.9</ele>
        <time>2021-01-05T14:20:46Z</time>
      </trkpt>
      <trkpt lat="46.84706" lon="5.84745">
        <ele>616.7</ele>
        <time>2021-01-05T14:20:51Z</time>
      </trkpt>
      <trkpt lat="46.84705" lon="5.84733">
        <ele>615.9</ele>
        <time>2021-01-05T14:21:05Z</time>
      </trkpt>
      <trkpt lat="46.84704" lon="5.84724">
        <ele>615.3</ele>
        <time>2021-01-05T14:21:10Z</time>
      </trkpt>
      <trkpt lat="46.84704" lon="5.84716">
        <ele>614.6</ele>
        <time>2021-01-05T14:21:15Z</time>
      </trkpt>
      <trkpt lat="46.84704" lon="5.84703">
        <ele>613.1</ele>
        <time>2021-01-05T14:21:27Z</time>
      </trkpt>
      <trkpt lat="46.84703" lon="5.84694">
        <ele>612.2</ele>
        <time>2021-01-05T14:21:32Z</time>
      </trkpt>
      <trkpt lat="46.84702" lon="5.84687">
        <ele>611.7</ele>
        <time>2021-01-05T14:21:37Z</time>
      </trkpt>
      <trkpt lat="46.84702" lon="5.84677">
        <ele>611</ele>
        <time>2021-01-05T14:21:49Z</time>
      </trkpt>
      <trkpt lat="46.84702" lon="5.84668">
        <ele>610.5</ele>
        <time>2021-01-05T14:21:54Z</time>
      </trkpt>
      <trkpt lat="46.84701" lon="5.8466">
        <ele>610.2</ele>
        <time>2021-01-05T14:22:06Z</time>
      </trkpt>
      <trkpt lat="46.84699" lon="5.84646">
        <ele>611.9</ele>
        <time>2021-01-05T14:22:11Z</time>
      </trkpt>
      <trkpt lat="46.84697" lon="5.84636">
        <ele>614.2</ele>
        <time>2021-01-05T14:22:22Z</time>
      </trkpt>
      <trkpt lat="46.84697" lon="5.84626">
        <ele>614.9</ele>
        <time>2021-01-05T14:22:27Z</time>
      </trkpt>
      <trkpt lat="46.84697" lon="5.84618">
        <ele>615.4</ele>
        <time>2021-01-05T14:22:37Z</time>
      </trkpt>
      <trkpt lat="46.84696" lon="5.84608">
        <ele>615.3</ele>
        <time>2021-01-05T14:22:42Z</time>
      </trkpt>
      <trkpt lat="46.84695" lon="5.84599">
        <ele>615.8</ele>
        <time>2021-01-05T14:22:47Z</time>
      </trkpt>
      <trkpt lat="46.84695" lon="5.8459">
        <ele>615.8</ele>
        <time>2021-01-05T14:22:57Z</time>
      </trkpt>
      <trkpt lat="46.84695" lon="5.84582">
        <ele>615.4</ele>
        <time>2021-01-05T14:23:02Z</time>
      </trkpt>
      <trkpt lat="46.84693" lon="5.84574">
        <ele>614.9</ele>
        <time>2021-01-05T14:23:11Z</time>
      </trkpt>
      <trkpt lat="46.84691" lon="5.84565">
        <ele>614.6</ele>
        <time>2021-01-05T14:23:16Z</time>
      </trkpt>
      <trkpt lat="46.84686" lon="5.84558">
        <ele>614.6</ele>
        <time>2021-01-05T14:23:23Z</time>
      </trkpt>
      <trkpt lat="46.84681" lon="5.8455">
        <ele>614.7</ele>
        <time>2021-01-05T14:23:28Z</time>
      </trkpt>
      <trkpt lat="46.84676" lon="5.84544">
        <ele>614.5</ele>
        <time>2021-01-05T14:23:35Z</time>
      </trkpt>
      <trkpt lat="46.84671" lon="5.84537">
        <ele>613.9</ele>
        <time>2021-01-05T14:23:40Z</time>
      </trkpt>
      <trkpt lat="46.84667" lon="5.84532">
        <ele>613</ele>
        <time>2021-01-05T14:23:48Z</time>
      </trkpt>
      <trkpt lat="46.84662" lon="5.84526">
        <ele>612</ele>
        <time>2021-01-05T14:23:53Z</time>
      </trkpt>
      <trkpt lat="46.84659" lon="5.8452">
        <ele>611</ele>
        <time>2021-01-05T14:24:01Z</time>
      </trkpt>
      <trkpt lat="46.84653" lon="5.84514">
        <ele>610.4</ele>
        <time>2021-01-05T14:24:06Z</time>
      </trkpt>
      <trkpt lat="46.84648" lon="5.84511">
        <ele>609.7</ele>
        <time>2021-01-05T14:24:15Z</time>
      </trkpt>
      <trkpt lat="46.84641" lon="5.84508">
        <ele>609.7</ele>
        <time>2021-01-05T14:24:20Z</time>
      </trkpt>
      <trkpt lat="46.84636" lon="5.84506">
        <ele>609.5</ele>
        <time>2021-01-05T14:24:30Z</time>
      </trkpt>
      <trkpt lat="46.84629" lon="5.84504">
        <ele>609.1</ele>
        <time>2021-01-05T14:24:35Z</time>
      </trkpt>
      <trkpt lat="46.84624" lon="5.84502">
        <ele>608.6</ele>
        <time>2021-01-05T14:24:48Z</time>
      </trkpt>
      <trkpt lat="46.84618" lon="5.845">
        <ele>608.5</ele>
        <time>2021-01-05T14:24:53Z</time>
      </trkpt>
      <trkpt lat="46.84612" lon="5.84501">
        <ele>608.3</ele>
        <time>2021-01-05T14:25:06Z</time>
      </trkpt>
      <trkpt lat="46.84606" lon="5.84501">
        <ele>608</ele>
        <time>2021-01-05T14:25:11Z</time>
      </trkpt>
      <trkpt lat="46.84601" lon="5.84502">
        <ele>607.4</ele>
        <time>2021-01-05T14:25:24Z</time>
      </trkpt>
      <trkpt lat="46.84595" lon="5.84502">
        <ele>606.9</ele>
        <time>2021-01-05T14:25:29Z</time>
      </trkpt>
      <trkpt lat="46.84585" lon="5.8451">
        <ele>611.6</ele>
        <time>2021-01-05T14:25:33Z</time>
      </trkpt>
      <trkpt lat="46.84572" lon="5.84521">
        <ele>619.3</ele>
        <time>2021-01-05T14:25:38Z</time>
      </trkpt>
      <trkpt lat="46.84564" lon="5.84522">
        <ele>626.8</ele>
        <time>2021-01-05T14:25:56Z</time>
      </trkpt>
      <trkpt lat="46.84558" lon="5.84522">
        <ele>627.6</ele>
        <time>2021-01-05T14:26:01Z</time>
      </trkpt>
      <trkpt lat="46.84552" lon="5.84522">
        <ele>628.4</ele>
        <time>2021-01-05T14:26:10Z</time>
      </trkpt>
      <trkpt lat="46.84542" lon="5.84523">
        <ele>628.5</ele>
        <time>2021-01-05T14:26:15Z</time>
      </trkpt>
      <trkpt lat="46.84535" lon="5.84523">
        <ele>628.4</ele>
        <time>2021-01-05T14:26:20Z</time>
      </trkpt>
      <trkpt lat="46.8453" lon="5.84522">
        <ele>628.3</ele>
        <time>2021-01-05T14:26:25Z</time>
      </trkpt>
      <trkpt lat="46.84525" lon="5.84521">
        <ele>628.5</ele>
        <time>2021-01-05T14:26:34Z</time>
      </trkpt>
      <trkpt lat="46.84519" lon="5.84519">
        <ele>628.7</ele>
        <time>2021-01-05T14:26:39Z</time>
      </trkpt>
      <trkpt lat="46.84513" lon="5.84517">
        <ele>628.9</ele>
        <time>2021-01-05T14:26:47Z</time>
      </trkpt>
      <trkpt lat="46.84505" lon="5.84513">
        <ele>628.8</ele>
        <time>2021-01-05T14:26:52Z</time>
      </trkpt>
      <trkpt lat="46.845" lon="5.8451">
        <ele>628.8</ele>
        <time>2021-01-05T14:27:01Z</time>
      </trkpt>
      <trkpt lat="46.84495" lon="5.84507">
        <ele>628.6</ele>
        <time>2021-01-05T14:27:06Z</time>
      </trkpt>
      <trkpt lat="46.8449" lon="5.84503">
        <ele>627.8</ele>
        <time>2021-01-05T14:27:15Z</time>
      </trkpt>
      <trkpt lat="46.84484" lon="5.84499">
        <ele>626.4</ele>
        <time>2021-01-05T14:27:20Z</time>
      </trkpt>
      <trkpt lat="46.84478" lon="5.84497">
        <ele>624.8</ele>
        <time>2021-01-05T14:27:28Z</time>
      </trkpt>
      <trkpt lat="46.84473" lon="5.84496">
        <ele>623.6</ele>
        <time>2021-01-05T14:27:33Z</time>
      </trkpt>
      <trkpt lat="46.84467" lon="5.84494">
        <ele>621.7</ele>
        <time>2021-01-05T14:27:48Z</time>
      </trkpt>
      <trkpt lat="46.84461" lon="5.84492">
        <ele>620.6</ele>
        <time>2021-01-05T14:27:53Z</time>
      </trkpt>
      <trkpt lat="46.8445" lon="5.8449">
        <ele>621.8</ele>
        <time>2021-01-05T14:27:57Z</time>
      </trkpt>
      <trkpt lat="46.84443" lon="5.84488">
        <ele>622.8</ele>
        <time>2021-01-05T14:28:02Z</time>
      </trkpt>
      <trkpt lat="46.84438" lon="5.84488">
        <ele>623.1</ele>
        <time>2021-01-05T14:28:12Z</time>
      </trkpt>
      <trkpt lat="46.84431" lon="5.84487">
        <ele>622.5</ele>
        <time>2021-01-05T14:28:17Z</time>
      </trkpt>
      <trkpt lat="46.84426" lon="5.84486">
        <ele>621.9</ele>
        <time>2021-01-05T14:28:26Z</time>
      </trkpt>
      <trkpt lat="46.8442" lon="5.84483">
        <ele>621.3</ele>
        <time>2021-01-05T14:28:31Z</time>
      </trkpt>
      <trkpt lat="46.84414" lon="5.84482">
        <ele>620.6</ele>
        <time>2021-01-05T14:28:42Z</time>
      </trkpt>
      <trkpt lat="46.84405" lon="5.84482">
        <ele>620.1</ele>
        <time>2021-01-05T14:28:47Z</time>
      </trkpt>
      <trkpt lat="46.844" lon="5.84481">
        <ele>619.2</ele>
        <time>2021-01-05T14:28:53Z</time>
      </trkpt>
      <trkpt lat="46.84394" lon="5.84478">
        <ele>618.5</ele>
        <time>2021-01-05T14:29:04Z</time>
      </trkpt>
      <trkpt lat="46.8438" lon="5.84477">
        <ele>620.8</ele>
        <time>2021-01-05T14:29:09Z</time>
      </trkpt>
      <trkpt lat="46.84371" lon="5.84478">
        <ele>622.6</ele>
        <time>2021-01-05T14:29:14Z</time>
      </trkpt>
      <trkpt lat="46.84365" lon="5.84476">
        <ele>623.5</ele>
        <time>2021-01-05T14:29:19Z</time>
      </trkpt>
      <trkpt lat="46.84361" lon="5.84474">
        <ele>624.8</ele>
        <time>2021-01-05T14:29:26Z</time>
      </trkpt>
      <trkpt lat="46.84356" lon="5.84472">
        <ele>626</ele>
        <time>2021-01-05T14:29:36Z</time>
      </trkpt>
      <trkpt lat="46.84348" lon="5.8447">
        <ele>626.4</ele>
        <time>2021-01-05T14:29:41Z</time>
      </trkpt>
      <trkpt lat="46.84341" lon="5.84468">
        <ele>626.2</ele>
        <time>2021-01-05T14:29:46Z</time>
      </trkpt>
      <trkpt lat="46.84337" lon="5.84466">
        <ele>625.4</ele>
        <time>2021-01-05T14:29:51Z</time>
      </trkpt>
      <trkpt lat="46.84329" lon="5.84463">
        <ele>624.8</ele>
        <time>2021-01-05T14:30:08Z</time>
      </trkpt>
      <trkpt lat="46.84323" lon="5.8446">
        <ele>625</ele>
        <time>2021-01-05T14:30:13Z</time>
      </trkpt>
      <trkpt lat="46.84318" lon="5.84456">
        <ele>624.9</ele>
        <time>2021-01-05T14:30:23Z</time>
      </trkpt>
      <trkpt lat="46.84314" lon="5.8445">
        <ele>624.5</ele>
        <time>2021-01-05T14:30:28Z</time>
      </trkpt>
      <trkpt lat="46.8431" lon="5.84444">
        <ele>624.3</ele>
        <time>2021-01-05T14:30:37Z</time>
      </trkpt>
      <trkpt lat="46.84306" lon="5.84437">
        <ele>624.4</ele>
        <time>2021-01-05T14:30:42Z</time>
      </trkpt>
      <trkpt lat="46.84302" lon="5.84431">
        <ele>624.2</ele>
        <time>2021-01-05T14:30:50Z</time>
      </trkpt>
      <trkpt lat="46.84298" lon="5.84423">
        <ele>623.7</ele>
        <time>2021-01-05T14:30:55Z</time>
      </trkpt>
      <trkpt lat="46.84294" lon="5.84415">
        <ele>622.5</ele>
        <time>2021-01-05T14:31:00Z</time>
      </trkpt>
      <trkpt lat="46.84291" lon="5.8441">
        <ele>621.9</ele>
        <time>2021-01-05T14:31:05Z</time>
      </trkpt>
      <trkpt lat="46.84286" lon="5.84402">
        <ele>621.4</ele>
        <time>2021-01-05T14:31:10Z</time>
      </trkpt>
      <trkpt lat="46.84283" lon="5.84397">
        <ele>621.2</ele>
        <time>2021-01-05T14:31:15Z</time>
      </trkpt>
      <trkpt lat="46.84279" lon="5.84391">
        <ele>621</ele>
        <time>2021-01-05T14:31:20Z</time>
      </trkpt>
      <trkpt lat="46.84275" lon="5.84383">
        <ele>621.2</ele>
        <time>2021-01-05T14:31:25Z</time>
      </trkpt>
      <trkpt lat="46.84272" lon="5.84377">
        <ele>621.4</ele>
        <time>2021-01-05T14:31:30Z</time>
      </trkpt>
      <trkpt lat="46.8427" lon="5.8437">
        <ele>621.2</ele>
        <time>2021-01-05T14:31:36Z</time>
      </trkpt>
      <trkpt lat="46.84268" lon="5.8436">
        <ele>621.7</ele>
        <time>2021-01-05T14:31:52Z</time>
      </trkpt>
      <trkpt lat="46.84265" lon="5.84347">
        <ele>621.5</ele>
        <time>2021-01-05T14:31:57Z</time>
      </trkpt>
      <trkpt lat="46.84263" lon="5.84339">
        <ele>620.9</ele>
        <time>2021-01-05T14:32:02Z</time>
      </trkpt>
      <trkpt lat="46.84261" lon="5.84332">
        <ele>620.1</ele>
        <time>2021-01-05T14:32:07Z</time>
      </trkpt>
      <trkpt lat="46.84258" lon="5.84326">
        <ele>619.1</ele>
        <time>2021-01-05T14:32:12Z</time>
      </trkpt>
      <trkpt lat="46.84256" lon="5.84319">
        <ele>618.2</ele>
        <time>2021-01-05T14:32:17Z</time>
      </trkpt>
      <trkpt lat="46.84254" lon="5.8431">
        <ele>617.1</ele>
        <time>2021-01-05T14:32:30Z</time>
      </trkpt>
      <trkpt lat="46.84252" lon="5.84301">
        <ele>616.5</ele>
        <time>2021-01-05T14:32:35Z</time>
      </trkpt>
      <trkpt lat="46.84249" lon="5.84293">
        <ele>615.2</ele>
        <time>2021-01-05T14:32:40Z</time>
      </trkpt>
      <trkpt lat="46.84246" lon="5.84287">
        <ele>613.6</ele>
        <time>2021-01-05T14:32:45Z</time>
      </trkpt>
      <trkpt lat="46.84243" lon="5.8428">
        <ele>610.1</ele>
        <time>2021-01-05T14:32:54Z</time>
      </trkpt>
      <trkpt lat="46.84241" lon="5.8427">
        <ele>606.7</ele>
        <time>2021-01-05T14:32:59Z</time>
      </trkpt>
      <trkpt lat="46.84241" lon="5.84261">
        <ele>603.1</ele>
        <time>2021-01-05T14:33:08Z</time>
      </trkpt>
      <trkpt lat="46.84241" lon="5.84252">
        <ele>601.5</ele>
        <time>2021-01-05T14:33:13Z</time>
      </trkpt>
      <trkpt lat="46.84241" lon="5.84238">
        <ele>599.6</ele>
        <time>2021-01-05T14:33:29Z</time>
      </trkpt>
      <trkpt lat="46.8424" lon="5.84226">
        <ele>599.5</ele>
        <time>2021-01-05T14:33:33Z</time>
      </trkpt>
      <trkpt lat="46.84239" lon="5.84217">
        <ele>599.7</ele>
        <time>2021-01-05T14:33:38Z</time>
      </trkpt>
      <trkpt lat="46.84237" lon="5.84208">
        <ele>600.1</ele>
        <time>2021-01-05T14:33:48Z</time>
      </trkpt>
      <trkpt lat="46.84237" lon="5.84197">
        <ele>601</ele>
        <time>2021-01-05T14:33:53Z</time>
      </trkpt>
      <trkpt lat="46.84236" lon="5.84187">
        <ele>602.9</ele>
        <time>2021-01-05T14:34:03Z</time>
      </trkpt>
      <trkpt lat="46.84235" lon="5.84175">
        <ele>604.6</ele>
        <time>2021-01-05T14:34:08Z</time>
      </trkpt>
      <trkpt lat="46.84234" lon="5.84168">
        <ele>605.7</ele>
        <time>2021-01-05T14:34:13Z</time>
      </trkpt>
      <trkpt lat="46.84234" lon="5.84161">
        <ele>606.1</ele>
        <time>2021-01-05T14:34:18Z</time>
      </trkpt>
      <trkpt lat="46.84234" lon="5.84153">
        <ele>606.4</ele>
        <time>2021-01-05T14:34:28Z</time>
      </trkpt>
      <trkpt lat="46.84235" lon="5.84143">
        <ele>606.4</ele>
        <time>2021-01-05T14:34:33Z</time>
      </trkpt>
      <trkpt lat="46.84233" lon="5.84135">
        <ele>606.5</ele>
        <time>2021-01-05T14:34:42Z</time>
      </trkpt>
      <trkpt lat="46.84231" lon="5.84128">
        <ele>606.5</ele>
        <time>2021-01-05T14:34:47Z</time>
      </trkpt>
      <trkpt lat="46.84227" lon="5.84122">
        <ele>606.3</ele>
        <time>2021-01-05T14:34:53Z</time>
      </trkpt>
      <trkpt lat="46.84224" lon="5.84115">
        <ele>606.2</ele>
        <time>2021-01-05T14:34:57Z</time>
      </trkpt>
      <trkpt lat="46.84218" lon="5.84108">
        <ele>606.5</ele>
        <time>2021-01-05T14:35:02Z</time>
      </trkpt>
      <trkpt lat="46.84213" lon="5.84102">
        <ele>607.2</ele>
        <time>2021-01-05T14:35:07Z</time>
      </trkpt>
      <trkpt lat="46.84208" lon="5.84096">
        <ele>607.9</ele>
        <time>2021-01-05T14:35:12Z</time>
      </trkpt>
      <trkpt lat="46.84203" lon="5.84087">
        <ele>609</ele>
        <time>2021-01-05T14:35:23Z</time>
      </trkpt>
      <trkpt lat="46.84199" lon="5.84081">
        <ele>609.5</ele>
        <time>2021-01-05T14:35:27Z</time>
      </trkpt>
      <trkpt lat="46.84197" lon="5.84075">
        <ele>609.9</ele>
        <time>2021-01-05T14:35:32Z</time>
      </trkpt>
      <trkpt lat="46.84193" lon="5.84066">
        <ele>609.8</ele>
        <time>2021-01-05T14:35:37Z</time>
      </trkpt>
      <trkpt lat="46.84189" lon="5.84059">
        <ele>610.3</ele>
        <time>2021-01-05T14:35:50Z</time>
      </trkpt>
      <trkpt lat="46.84184" lon="5.84052">
        <ele>611.1</ele>
        <time>2021-01-05T14:35:55Z</time>
      </trkpt>
      <trkpt lat="46.84181" lon="5.84046">
        <ele>612.1</ele>
        <time>2021-01-05T14:36:04Z</time>
      </trkpt>
      <trkpt lat="46.84176" lon="5.8404">
        <ele>612.6</ele>
        <time>2021-01-05T14:36:09Z</time>
      </trkpt>
      <trkpt lat="46.84171" lon="5.84033">
        <ele>612.3</ele>
        <time>2021-01-05T14:36:14Z</time>
      </trkpt>
      <trkpt lat="46.84164" lon="5.84023">
        <ele>612</ele>
        <time>2021-01-05T14:36:19Z</time>
      </trkpt>
      <trkpt lat="46.84159" lon="5.84017">
        <ele>611.8</ele>
        <time>2021-01-05T14:36:24Z</time>
      </trkpt>
      <trkpt lat="46.84153" lon="5.84012">
        <ele>612.1</ele>
        <time>2021-01-05T14:36:36Z</time>
      </trkpt>
      <trkpt lat="46.84146" lon="5.84007">
        <ele>612.2</ele>
        <time>2021-01-05T14:36:41Z</time>
      </trkpt>
      <trkpt lat="46.84141" lon="5.84003">
        <ele>612.3</ele>
        <time>2021-01-05T14:36:46Z</time>
      </trkpt>
      <trkpt lat="46.84134" lon="5.84">
        <ele>612.5</ele>
        <time>2021-01-05T14:36:58Z</time>
      </trkpt>
      <trkpt lat="46.84127" lon="5.83998">
        <ele>613</ele>
        <time>2021-01-05T14:37:03Z</time>
      </trkpt>
      <trkpt lat="46.84122" lon="5.83996">
        <ele>613.3</ele>
        <time>2021-01-05T14:37:13Z</time>
      </trkpt>
      <trkpt lat="46.84117" lon="5.83994">
        <ele>613.1</ele>
        <time>2021-01-05T14:37:18Z</time>
      </trkpt>
      <trkpt lat="46.84106" lon="5.83994">
        <ele>612.9</ele>
        <time>2021-01-05T14:37:26Z</time>
      </trkpt>
      <trkpt lat="46.84093" lon="5.83993">
        <ele>612.7</ele>
        <time>2021-01-05T14:37:31Z</time>
      </trkpt>
      <trkpt lat="46.84087" lon="5.83993">
        <ele>612.6</ele>
        <time>2021-01-05T14:37:43Z</time>
      </trkpt>
      <trkpt lat="46.8408" lon="5.83994">
        <ele>612.6</ele>
        <time>2021-01-05T14:37:48Z</time>
      </trkpt>
      <trkpt lat="46.84075" lon="5.83998">
        <ele>612.5</ele>
        <time>2021-01-05T14:38:02Z</time>
      </trkpt>
      <trkpt lat="46.84069" lon="5.84002">
        <ele>612.3</ele>
        <time>2021-01-05T14:38:07Z</time>
      </trkpt>
      <trkpt lat="46.84065" lon="5.84005">
        <ele>611.6</ele>
        <time>2021-01-05T14:38:14Z</time>
      </trkpt>
      <trkpt lat="46.84059" lon="5.8401">
        <ele>610.5</ele>
        <time>2021-01-05T14:38:19Z</time>
      </trkpt>
      <trkpt lat="46.84052" lon="5.84014">
        <ele>609.1</ele>
        <time>2021-01-05T14:38:28Z</time>
      </trkpt>
      <trkpt lat="46.84043" lon="5.8402">
        <ele>608</ele>
        <time>2021-01-05T14:38:33Z</time>
      </trkpt>
      <trkpt lat="46.84037" lon="5.84024">
        <ele>606.5</ele>
        <time>2021-01-05T14:38:44Z</time>
      </trkpt>
      <trkpt lat="46.84031" lon="5.84027">
        <ele>605.4</ele>
        <time>2021-01-05T14:38:49Z</time>
      </trkpt>
      <trkpt lat="46.84025" lon="5.84029">
        <ele>603.9</ele>
        <time>2021-01-05T14:38:58Z</time>
      </trkpt>
      <trkpt lat="46.84017" lon="5.8403">
        <ele>602.9</ele>
        <time>2021-01-05T14:39:03Z</time>
      </trkpt>
      <trkpt lat="46.84012" lon="5.84028">
        <ele>601.8</ele>
        <time>2021-01-05T14:39:14Z</time>
      </trkpt>
      <trkpt lat="46.84003" lon="5.84025">
        <ele>602.2</ele>
        <time>2021-01-05T14:39:19Z</time>
      </trkpt>
      <trkpt lat="46.83995" lon="5.84023">
        <ele>604.6</ele>
        <time>2021-01-05T14:39:24Z</time>
      </trkpt>
      <trkpt lat="46.83988" lon="5.84018">
        <ele>608.4</ele>
        <time>2021-01-05T14:39:36Z</time>
      </trkpt>
      <trkpt lat="46.83981" lon="5.84011">
        <ele>610</ele>
        <time>2021-01-05T14:39:41Z</time>
      </trkpt>
      <trkpt lat="46.83979" lon="5.84003">
        <ele>611.7</ele>
        <time>2021-01-05T14:39:54Z</time>
      </trkpt>
      <trkpt lat="46.83975" lon="5.83997">
        <ele>612.2</ele>
        <time>2021-01-05T14:39:59Z</time>
      </trkpt>
      <trkpt lat="46.83972" lon="5.83991">
        <ele>612.5</ele>
        <time>2021-01-05T14:40:06Z</time>
      </trkpt>
      <trkpt lat="46.83966" lon="5.83983">
        <ele>612.6</ele>
        <time>2021-01-05T14:40:11Z</time>
      </trkpt>
      <trkpt lat="46.83962" lon="5.83976">
        <ele>613.2</ele>
        <time>2021-01-05T14:40:21Z</time>
      </trkpt>
      <trkpt lat="46.83958" lon="5.83967">
        <ele>613.5</ele>
        <time>2021-01-05T14:40:26Z</time>
      </trkpt>
      <trkpt lat="46.83952" lon="5.83959">
        <ele>613</ele>
        <time>2021-01-05T14:40:31Z</time>
      </trkpt>
      <trkpt lat="46.83948" lon="5.83954">
        <ele>612.4</ele>
        <time>2021-01-05T14:40:38Z</time>
      </trkpt>
      <trkpt lat="46.83943" lon="5.83948">
        <ele>611.9</ele>
        <time>2021-01-05T14:40:43Z</time>
      </trkpt>
      <trkpt lat="46.83938" lon="5.83944">
        <ele>611.5</ele>
        <time>2021-01-05T14:40:48Z</time>
      </trkpt>
      <trkpt lat="46.83933" lon="5.83941">
        <ele>611.1</ele>
        <time>2021-01-05T14:41:01Z</time>
      </trkpt>
      <trkpt lat="46.83927" lon="5.83938">
        <ele>611</ele>
        <time>2021-01-05T14:41:06Z</time>
      </trkpt>
      <trkpt lat="46.83921" lon="5.83936">
        <ele>610.8</ele>
        <time>2021-01-05T14:41:13Z</time>
      </trkpt>
      <trkpt lat="46.83915" lon="5.83932">
        <ele>610.5</ele>
        <time>2021-01-05T14:41:18Z</time>
      </trkpt>
      <trkpt lat="46.83911" lon="5.83928">
        <ele>610.1</ele>
        <time>2021-01-05T14:41:26Z</time>
      </trkpt>
      <trkpt lat="46.83905" lon="5.83922">
        <ele>609.8</ele>
        <time>2021-01-05T14:41:31Z</time>
      </trkpt>
      <trkpt lat="46.83898" lon="5.83917">
        <ele>609.3</ele>
        <time>2021-01-05T14:41:36Z</time>
      </trkpt>
      <trkpt lat="46.83893" lon="5.83914">
        <ele>608.5</ele>
        <time>2021-01-05T14:41:41Z</time>
      </trkpt>
      <trkpt lat="46.83887" lon="5.83911">
        <ele>607.8</ele>
        <time>2021-01-05T14:41:54Z</time>
      </trkpt>
      <trkpt lat="46.83881" lon="5.83906">
        <ele>607.8</ele>
        <time>2021-01-05T14:41:59Z</time>
      </trkpt>
      <trkpt lat="46.83876" lon="5.83903">
        <ele>607.9</ele>
        <time>2021-01-05T14:42:08Z</time>
      </trkpt>
      <trkpt lat="46.83866" lon="5.83895">
        <ele>607.6</ele>
        <time>2021-01-05T14:42:13Z</time>
      </trkpt>
      <trkpt lat="46.8386" lon="5.83889">
        <ele>607.8</ele>
        <time>2021-01-05T14:42:18Z</time>
      </trkpt>
      <trkpt lat="46.83857" lon="5.83882">
        <ele>608.2</ele>
        <time>2021-01-05T14:42:26Z</time>
      </trkpt>
      <trkpt lat="46.83855" lon="5.83873">
        <ele>608.2</ele>
        <time>2021-01-05T14:42:31Z</time>
      </trkpt>
      <trkpt lat="46.83853" lon="5.83865">
        <ele>608.5</ele>
        <time>2021-01-05T14:42:41Z</time>
      </trkpt>
      <trkpt lat="46.8385" lon="5.83856">
        <ele>609</ele>
        <time>2021-01-05T14:42:46Z</time>
      </trkpt>
      <trkpt lat="46.83847" lon="5.83849">
        <ele>609.6</ele>
        <time>2021-01-05T14:42:52Z</time>
      </trkpt>
      <trkpt lat="46.83843" lon="5.83835">
        <ele>610.5</ele>
        <time>2021-01-05T14:42:57Z</time>
      </trkpt>
      <trkpt lat="46.8384" lon="5.83828">
        <ele>610.6</ele>
        <time>2021-01-05T14:43:02Z</time>
      </trkpt>
      <trkpt lat="46.83838" lon="5.83821">
        <ele>610.7</ele>
        <time>2021-01-05T14:43:11Z</time>
      </trkpt>
      <trkpt lat="46.83835" lon="5.83809">
        <ele>610.3</ele>
        <time>2021-01-05T14:43:16Z</time>
      </trkpt>
      <trkpt lat="46.8383" lon="5.83802">
        <ele>606.4</ele>
        <time>2021-01-05T14:44:15Z</time>
      </trkpt>
      <trkpt lat="46.8383" lon="5.83789">
        <ele>607</ele>
        <time>2021-01-05T14:44:20Z</time>
      </trkpt>
      <trkpt lat="46.83832" lon="5.83777">
        <ele>607.3</ele>
        <time>2021-01-05T14:44:25Z</time>
      </trkpt>
      <trkpt lat="46.83833" lon="5.83769">
        <ele>608</ele>
        <time>2021-01-05T14:44:30Z</time>
      </trkpt>
      <trkpt lat="46.83835" lon="5.83762">
        <ele>609.2</ele>
        <time>2021-01-05T14:44:35Z</time>
      </trkpt>
      <trkpt lat="46.83837" lon="5.83756">
        <ele>611.3</ele>
        <time>2021-01-05T14:44:41Z</time>
      </trkpt>
      <trkpt lat="46.83841" lon="5.83751">
        <ele>614.6</ele>
        <time>2021-01-05T14:44:48Z</time>
      </trkpt>
      <trkpt lat="46.83844" lon="5.83745">
        <ele>616.9</ele>
        <time>2021-01-05T14:44:53Z</time>
      </trkpt>
      <trkpt lat="46.83848" lon="5.8374">
        <ele>618.8</ele>
        <time>2021-01-05T14:44:58Z</time>
      </trkpt>
      <trkpt lat="46.83851" lon="5.83736">
        <ele>620.9</ele>
        <time>2021-01-05T14:45:04Z</time>
      </trkpt>
      <trkpt lat="46.83855" lon="5.83732">
        <ele>622.7</ele>
        <time>2021-01-05T14:45:09Z</time>
      </trkpt>
      <trkpt lat="46.8386" lon="5.83727">
        <ele>623.8</ele>
        <time>2021-01-05T14:45:14Z</time>
      </trkpt>
      <trkpt lat="46.83867" lon="5.83721">
        <ele>625.4</ele>
        <time>2021-01-05T14:45:30Z</time>
      </trkpt>
      <trkpt lat="46.83873" lon="5.83717">
        <ele>625.8</ele>
        <time>2021-01-05T14:45:35Z</time>
      </trkpt>
      <trkpt lat="46.83878" lon="5.83715">
        <ele>624</ele>
        <time>2021-01-05T14:45:41Z</time>
      </trkpt>
      <trkpt lat="46.83886" lon="5.83713">
        <ele>619.9</ele>
        <time>2021-01-05T14:45:46Z</time>
      </trkpt>
      <trkpt lat="46.83892" lon="5.83711">
        <ele>616.3</ele>
        <time>2021-01-05T14:45:58Z</time>
      </trkpt>
      <trkpt lat="46.839" lon="5.83709">
        <ele>615.2</ele>
        <time>2021-01-05T14:46:03Z</time>
      </trkpt>
      <trkpt lat="46.83906" lon="5.83706">
        <ele>614</ele>
        <time>2021-01-05T14:46:15Z</time>
      </trkpt>
      <trkpt lat="46.83913" lon="5.83702">
        <ele>613.3</ele>
        <time>2021-01-05T14:46:20Z</time>
      </trkpt>
      <trkpt lat="46.83918" lon="5.83701">
        <ele>612.5</ele>
        <time>2021-01-05T14:46:27Z</time>
      </trkpt>
      <trkpt lat="46.83924" lon="5.837">
        <ele>611.7</ele>
        <time>2021-01-05T14:46:32Z</time>
      </trkpt>
      <trkpt lat="46.83929" lon="5.83698">
        <ele>610.5</ele>
        <time>2021-01-05T14:46:40Z</time>
      </trkpt>
      <trkpt lat="46.83937" lon="5.83694">
        <ele>608.7</ele>
        <time>2021-01-05T14:46:45Z</time>
      </trkpt>
      <trkpt lat="46.83945" lon="5.83689">
        <ele>605.6</ele>
        <time>2021-01-05T14:46:59Z</time>
      </trkpt>
      <trkpt lat="46.8395" lon="5.83685">
        <ele>604.7</ele>
        <time>2021-01-05T14:47:03Z</time>
      </trkpt>
      <trkpt lat="46.83955" lon="5.83681">
        <ele>603.3</ele>
        <time>2021-01-05T14:47:12Z</time>
      </trkpt>
      <trkpt lat="46.8396" lon="5.83677">
        <ele>602.5</ele>
        <time>2021-01-05T14:47:17Z</time>
      </trkpt>
      <trkpt lat="46.83964" lon="5.83673">
        <ele>601.4</ele>
        <time>2021-01-05T14:47:25Z</time>
      </trkpt>
      <trkpt lat="46.83971" lon="5.83667">
        <ele>600.5</ele>
        <time>2021-01-05T14:47:30Z</time>
      </trkpt>
      <trkpt lat="46.83976" lon="5.83659">
        <ele>598.9</ele>
        <time>2021-01-05T14:47:35Z</time>
      </trkpt>
      <trkpt lat="46.8398" lon="5.83654">
        <ele>597</ele>
        <time>2021-01-05T14:47:40Z</time>
      </trkpt>
      <trkpt lat="46.83983" lon="5.83647">
        <ele>594.8</ele>
        <time>2021-01-05T14:47:48Z</time>
      </trkpt>
      <trkpt lat="46.83987" lon="5.8364">
        <ele>593.2</ele>
        <time>2021-01-05T14:47:53Z</time>
      </trkpt>
      <trkpt lat="46.83989" lon="5.83633">
        <ele>591.8</ele>
        <time>2021-01-05T14:47:58Z</time>
      </trkpt>
      <trkpt lat="46.83991" lon="5.83625">
        <ele>589.6</ele>
        <time>2021-01-05T14:48:10Z</time>
      </trkpt>
      <trkpt lat="46.83992" lon="5.83614">
        <ele>588.1</ele>
        <time>2021-01-05T14:48:15Z</time>
      </trkpt>
      <trkpt lat="46.83993" lon="5.83606">
        <ele>586.8</ele>
        <time>2021-01-05T14:48:21Z</time>
      </trkpt>
      <trkpt lat="46.83994" lon="5.83596">
        <ele>585.8</ele>
        <time>2021-01-05T14:48:26Z</time>
      </trkpt>
      <trkpt lat="46.83994" lon="5.83588">
        <ele>584.9</ele>
        <time>2021-01-05T14:48:33Z</time>
      </trkpt>
      <trkpt lat="46.83995" lon="5.83575">
        <ele>584.3</ele>
        <time>2021-01-05T14:48:38Z</time>
      </trkpt>
      <trkpt lat="46.83995" lon="5.83568">
        <ele>583.6</ele>
        <time>2021-01-05T14:48:43Z</time>
      </trkpt>
      <trkpt lat="46.83995" lon="5.83558">
        <ele>583</ele>
        <time>2021-01-05T14:48:48Z</time>
      </trkpt>
      <trkpt lat="46.83994" lon="5.83549">
        <ele>583.1</ele>
        <time>2021-01-05T14:48:53Z</time>
      </trkpt>
      <trkpt lat="46.83993" lon="5.83541">
        <ele>582.9</ele>
        <time>2021-01-05T14:49:03Z</time>
      </trkpt>
      <trkpt lat="46.83993" lon="5.83531">
        <ele>582.4</ele>
        <time>2021-01-05T14:49:08Z</time>
      </trkpt>
      <trkpt lat="46.83991" lon="5.83521">
        <ele>582</ele>
        <time>2021-01-05T14:49:13Z</time>
      </trkpt>
      <trkpt lat="46.83991" lon="5.83511">
        <ele>580.8</ele>
        <time>2021-01-05T14:49:26Z</time>
      </trkpt>
      <trkpt lat="46.83994" lon="5.83496">
        <ele>579.1</ele>
        <time>2021-01-05T14:49:31Z</time>
      </trkpt>
      <trkpt lat="46.83997" lon="5.83488">
        <ele>577.8</ele>
        <time>2021-01-05T14:49:36Z</time>
      </trkpt>
      <trkpt lat="46.83999" lon="5.83482">
        <ele>576.7</ele>
        <time>2021-01-05T14:49:41Z</time>
      </trkpt>
      <trkpt lat="46.84002" lon="5.83475">
        <ele>575.2</ele>
        <time>2021-01-05T14:49:49Z</time>
      </trkpt>
      <trkpt lat="46.84005" lon="5.83468">
        <ele>574.8</ele>
        <time>2021-01-05T14:49:54Z</time>
      </trkpt>
      <trkpt lat="46.84007" lon="5.8346">
        <ele>573.9</ele>
        <time>2021-01-05T14:50:04Z</time>
      </trkpt>
      <trkpt lat="46.8401" lon="5.83451">
        <ele>573.4</ele>
        <time>2021-01-05T14:50:09Z</time>
      </trkpt>
      <trkpt lat="46.84013" lon="5.83445">
        <ele>573</ele>
        <time>2021-01-05T14:50:16Z</time>
      </trkpt>
      <trkpt lat="46.84017" lon="5.83436">
        <ele>572.5</ele>
        <time>2021-01-05T14:50:21Z</time>
      </trkpt>
      <trkpt lat="46.84019" lon="5.83429">
        <ele>571.9</ele>
        <time>2021-01-05T14:50:29Z</time>
      </trkpt>
      <trkpt lat="46.84021" lon="5.83421">
        <ele>571.2</ele>
        <time>2021-01-05T14:50:33Z</time>
      </trkpt>
      <trkpt lat="46.84024" lon="5.83412">
        <ele>569.9</ele>
        <time>2021-01-05T14:50:43Z</time>
      </trkpt>
      <trkpt lat="46.84026" lon="5.83404">
        <ele>568.9</ele>
        <time>2021-01-05T14:50:48Z</time>
      </trkpt>
      <trkpt lat="46.84028" lon="5.83397">
        <ele>568.1</ele>
        <time>2021-01-05T14:50:55Z</time>
      </trkpt>
      <trkpt lat="46.84029" lon="5.83387">
        <ele>567.8</ele>
        <time>2021-01-05T14:51:00Z</time>
      </trkpt>
      <trkpt lat="46.8403" lon="5.83378">
        <ele>567.3</ele>
        <time>2021-01-05T14:51:10Z</time>
      </trkpt>
      <trkpt lat="46.84031" lon="5.83369">
        <ele>567.1</ele>
        <time>2021-01-05T14:51:15Z</time>
      </trkpt>
      <trkpt lat="46.84033" lon="5.83362">
        <ele>566.9</ele>
        <time>2021-01-05T14:51:23Z</time>
      </trkpt>
      <trkpt lat="46.84036" lon="5.83354">
        <ele>566.7</ele>
        <time>2021-01-05T14:51:27Z</time>
      </trkpt>
      <trkpt lat="46.84039" lon="5.83346">
        <ele>566.6</ele>
        <time>2021-01-05T14:51:32Z</time>
      </trkpt>
      <trkpt lat="46.8404" lon="5.83331">
        <ele>568.5</ele>
        <time>2021-01-05T14:51:37Z</time>
      </trkpt>
      <trkpt lat="46.84041" lon="5.8332">
        <ele>571.7</ele>
        <time>2021-01-05T14:51:42Z</time>
      </trkpt>
      <trkpt lat="46.84043" lon="5.83306">
        <ele>578.6</ele>
        <time>2021-01-05T14:51:47Z</time>
      </trkpt>
      <trkpt lat="46.84045" lon="5.83299">
        <ele>584.3</ele>
        <time>2021-01-05T14:51:52Z</time>
      </trkpt>
      <trkpt lat="46.84049" lon="5.83294">
        <ele>589.2</ele>
        <time>2021-01-05T14:52:04Z</time>
      </trkpt>
      <trkpt lat="46.84057" lon="5.83286">
        <ele>590.3</ele>
        <time>2021-01-05T14:52:09Z</time>
      </trkpt>
      <trkpt lat="46.84063" lon="5.83278">
        <ele>591.3</ele>
        <time>2021-01-05T14:52:14Z</time>
      </trkpt>
      <trkpt lat="46.84067" lon="5.83272">
        <ele>592.2</ele>
        <time>2021-01-05T14:52:27Z</time>
      </trkpt>
      <trkpt lat="46.84076" lon="5.83262">
        <ele>592.3</ele>
        <time>2021-01-05T14:52:32Z</time>
      </trkpt>
      <trkpt lat="46.8408" lon="5.83257">
        <ele>591.8</ele>
        <time>2021-01-05T14:52:40Z</time>
      </trkpt>
      <trkpt lat="46.84086" lon="5.83249">
        <ele>590.7</ele>
        <time>2021-01-05T14:52:45Z</time>
      </trkpt>
      <trkpt lat="46.8409" lon="5.83241">
        <ele>589.3</ele>
        <time>2021-01-05T14:52:50Z</time>
      </trkpt>
      <trkpt lat="46.84094" lon="5.83235">
        <ele>588.3</ele>
        <time>2021-01-05T14:52:55Z</time>
      </trkpt>
      <trkpt lat="46.84097" lon="5.83228">
        <ele>587.6</ele>
        <time>2021-01-05T14:53:00Z</time>
      </trkpt>
      <trkpt lat="46.841" lon="5.8322">
        <ele>586.4</ele>
        <time>2021-01-05T14:53:18Z</time>
      </trkpt>
      <trkpt lat="46.84103" lon="5.83212">
        <ele>585.6</ele>
        <time>2021-01-05T14:53:23Z</time>
      </trkpt>
      <trkpt lat="46.84104" lon="5.83204">
        <ele>584.6</ele>
        <time>2021-01-05T14:53:30Z</time>
      </trkpt>
      <trkpt lat="46.84107" lon="5.83195">
        <ele>583.7</ele>
        <time>2021-01-05T14:53:35Z</time>
      </trkpt>
      <trkpt lat="46.84108" lon="5.83186">
        <ele>582.6</ele>
        <time>2021-01-05T14:53:43Z</time>
      </trkpt>
      <trkpt lat="46.84109" lon="5.8317">
        <ele>581.7</ele>
        <time>2021-01-05T14:53:48Z</time>
      </trkpt>
      <trkpt lat="46.8411" lon="5.83161">
        <ele>581.4</ele>
        <time>2021-01-05T14:53:53Z</time>
      </trkpt>
      <trkpt lat="46.84111" lon="5.83151">
        <ele>581.2</ele>
        <time>2021-01-05T14:54:08Z</time>
      </trkpt>
      <trkpt lat="46.84112" lon="5.83141">
        <ele>581</ele>
        <time>2021-01-05T14:54:13Z</time>
      </trkpt>
      <trkpt lat="46.84114" lon="5.83134">
        <ele>580.7</ele>
        <time>2021-01-05T14:54:21Z</time>
      </trkpt>
      <trkpt lat="46.84116" lon="5.83125">
        <ele>580.2</ele>
        <time>2021-01-05T14:54:26Z</time>
      </trkpt>
      <trkpt lat="46.84118" lon="5.83117">
        <ele>579.4</ele>
        <time>2021-01-05T14:54:34Z</time>
      </trkpt>
      <trkpt lat="46.8412" lon="5.83108">
        <ele>578.5</ele>
        <time>2021-01-05T14:54:39Z</time>
      </trkpt>
      <trkpt lat="46.84122" lon="5.831">
        <ele>577.7</ele>
        <time>2021-01-05T14:54:47Z</time>
      </trkpt>
      <trkpt lat="46.84125" lon="5.83092">
        <ele>577.2</ele>
        <time>2021-01-05T14:54:52Z</time>
      </trkpt>
      <trkpt lat="46.84125" lon="5.83083">
        <ele>577</ele>
        <time>2021-01-05T14:55:00Z</time>
      </trkpt>
      <trkpt lat="46.84125" lon="5.83074">
        <ele>577.4</ele>
        <time>2021-01-05T14:55:05Z</time>
      </trkpt>
      <trkpt lat="46.84124" lon="5.83067">
        <ele>579.9</ele>
        <time>2021-01-05T14:55:35Z</time>
      </trkpt>
      <trkpt lat="46.84125" lon="5.8306">
        <ele>583.8</ele>
        <time>2021-01-05T14:55:41Z</time>
      </trkpt>
      <trkpt lat="46.84123" lon="5.83053">
        <ele>587.3</ele>
        <time>2021-01-05T14:55:59Z</time>
      </trkpt>
      <trkpt lat="46.84119" lon="5.83046">
        <ele>588.7</ele>
        <time>2021-01-05T14:56:04Z</time>
      </trkpt>
      <trkpt lat="46.84114" lon="5.83043">
        <ele>589.8</ele>
        <time>2021-01-05T14:56:11Z</time>
      </trkpt>
      <trkpt lat="46.84109" lon="5.83039">
        <ele>590.2</ele>
        <time>2021-01-05T14:56:22Z</time>
      </trkpt>
      <trkpt lat="46.84104" lon="5.83034">
        <ele>590.2</ele>
        <time>2021-01-05T14:56:27Z</time>
      </trkpt>
      <trkpt lat="46.84099" lon="5.83031">
        <ele>590.2</ele>
        <time>2021-01-05T14:56:36Z</time>
      </trkpt>
      <trkpt lat="46.84093" lon="5.83026">
        <ele>590.2</ele>
        <time>2021-01-05T14:56:41Z</time>
      </trkpt>
      <trkpt lat="46.84088" lon="5.83022">
        <ele>589.9</ele>
        <time>2021-01-05T14:56:48Z</time>
      </trkpt>
      <trkpt lat="46.84083" lon="5.83016">
        <ele>589.7</ele>
        <time>2021-01-05T14:56:53Z</time>
      </trkpt>
      <trkpt lat="46.84078" lon="5.83012">
        <ele>589.8</ele>
        <time>2021-01-05T14:57:02Z</time>
      </trkpt>
      <trkpt lat="46.84072" lon="5.83008">
        <ele>590.3</ele>
        <time>2021-01-05T14:57:07Z</time>
      </trkpt>
      <trkpt lat="46.84068" lon="5.83004">
        <ele>590.8</ele>
        <time>2021-01-05T14:57:15Z</time>
      </trkpt>
      <trkpt lat="46.84062" lon="5.83001">
        <ele>591.1</ele>
        <time>2021-01-05T14:57:20Z</time>
      </trkpt>
      <trkpt lat="46.84058" lon="5.82997">
        <ele>591.2</ele>
        <time>2021-01-05T14:57:26Z</time>
      </trkpt>
      <trkpt lat="46.84049" lon="5.82993">
        <ele>591.1</ele>
        <time>2021-01-05T14:57:31Z</time>
      </trkpt>
      <trkpt lat="46.84044" lon="5.82988">
        <ele>591.1</ele>
        <time>2021-01-05T14:57:40Z</time>
      </trkpt>
      <trkpt lat="46.84038" lon="5.82983">
        <ele>591</ele>
        <time>2021-01-05T14:57:45Z</time>
      </trkpt>
      <trkpt lat="46.84034" lon="5.82977">
        <ele>590.9</ele>
        <time>2021-01-05T14:57:51Z</time>
      </trkpt>
      <trkpt lat="46.84028" lon="5.82973">
        <ele>590.6</ele>
        <time>2021-01-05T14:57:56Z</time>
      </trkpt>
      <trkpt lat="46.84022" lon="5.82968">
        <ele>589.5</ele>
        <time>2021-01-05T14:58:01Z</time>
      </trkpt>
      <trkpt lat="46.84016" lon="5.82963">
        <ele>588.1</ele>
        <time>2021-01-05T14:58:06Z</time>
      </trkpt>
      <trkpt lat="46.84012" lon="5.8296">
        <ele>586.5</ele>
        <time>2021-01-05T14:58:14Z</time>
      </trkpt>
      <trkpt lat="46.84004" lon="5.82952">
        <ele>585</ele>
        <time>2021-01-05T14:58:19Z</time>
      </trkpt>
      <trkpt lat="46.83999" lon="5.82945">
        <ele>584.2</ele>
        <time>2021-01-05T14:58:24Z</time>
      </trkpt>
      <trkpt lat="46.83992" lon="5.82941">
        <ele>583.2</ele>
        <time>2021-01-05T14:58:38Z</time>
      </trkpt>
      <trkpt lat="46.83986" lon="5.82939">
        <ele>582.5</ele>
        <time>2021-01-05T14:58:43Z</time>
      </trkpt>
      <trkpt lat="46.83979" lon="5.82935">
        <ele>581.7</ele>
        <time>2021-01-05T14:58:48Z</time>
      </trkpt>
      <trkpt lat="46.83973" lon="5.82931">
        <ele>580.7</ele>
        <time>2021-01-05T14:59:00Z</time>
      </trkpt>
      <trkpt lat="46.83968" lon="5.82926">
        <ele>580</ele>
        <time>2021-01-05T14:59:05Z</time>
      </trkpt>
      <trkpt lat="46.83963" lon="5.82922">
        <ele>579.2</ele>
        <time>2021-01-05T14:59:14Z</time>
      </trkpt>
      <trkpt lat="46.83958" lon="5.82916">
        <ele>578.6</ele>
        <time>2021-01-05T14:59:19Z</time>
      </trkpt>
      <trkpt lat="46.83953" lon="5.82913">
        <ele>578.1</ele>
        <time>2021-01-05T14:59:27Z</time>
      </trkpt>
      <trkpt lat="46.83943" lon="5.82906">
        <ele>578.4</ele>
        <time>2021-01-05T14:59:32Z</time>
      </trkpt>
      <trkpt lat="46.83935" lon="5.829">
        <ele>580.3</ele>
        <time>2021-01-05T14:59:37Z</time>
      </trkpt>
      <trkpt lat="46.83928" lon="5.82894">
        <ele>583.5</ele>
        <time>2021-01-05T14:59:52Z</time>
      </trkpt>
      <trkpt lat="46.83923" lon="5.8289">
        <ele>584.6</ele>
        <time>2021-01-05T14:59:57Z</time>
      </trkpt>
      <trkpt lat="46.83917" lon="5.82885">
        <ele>585.9</ele>
        <time>2021-01-05T15:00:06Z</time>
      </trkpt>
      <trkpt lat="46.83912" lon="5.8288">
        <ele>586.6</ele>
        <time>2021-01-05T15:00:11Z</time>
      </trkpt>
      <trkpt lat="46.83908" lon="5.82876">
        <ele>586.7</ele>
        <time>2021-01-05T15:00:25Z</time>
      </trkpt>
      <trkpt lat="46.83902" lon="5.82871">
        <ele>586.4</ele>
        <time>2021-01-05T15:00:30Z</time>
      </trkpt>
      <trkpt lat="46.83897" lon="5.82867">
        <ele>586.4</ele>
        <time>2021-01-05T15:00:41Z</time>
      </trkpt>
      <trkpt lat="46.83891" lon="5.8286">
        <ele>586.5</ele>
        <time>2021-01-05T15:00:46Z</time>
      </trkpt>
      <trkpt lat="46.83887" lon="5.82856">
        <ele>586.6</ele>
        <time>2021-01-05T15:00:53Z</time>
      </trkpt>
      <trkpt lat="46.83881" lon="5.82851">
        <ele>586.6</ele>
        <time>2021-01-05T15:00:58Z</time>
      </trkpt>
      <trkpt lat="46.83875" lon="5.82847">
        <ele>586.8</ele>
        <time>2021-01-05T15:01:06Z</time>
      </trkpt>
      <trkpt lat="46.83869" lon="5.82843">
        <ele>587.2</ele>
        <time>2021-01-05T15:01:11Z</time>
      </trkpt>
      <trkpt lat="46.83864" lon="5.82839">
        <ele>587.6</ele>
        <time>2021-01-05T15:01:17Z</time>
      </trkpt>
      <trkpt lat="46.83857" lon="5.82835">
        <ele>588.1</ele>
        <time>2021-01-05T15:01:22Z</time>
      </trkpt>
      <trkpt lat="46.83852" lon="5.8283">
        <ele>588.7</ele>
        <time>2021-01-05T15:01:28Z</time>
      </trkpt>
      <trkpt lat="46.83846" lon="5.82826">
        <ele>589.2</ele>
        <time>2021-01-05T15:01:33Z</time>
      </trkpt>
      <trkpt lat="46.83841" lon="5.82822">
        <ele>589.8</ele>
        <time>2021-01-05T15:01:39Z</time>
      </trkpt>
      <trkpt lat="46.83833" lon="5.82818">
        <ele>590.1</ele>
        <time>2021-01-05T15:01:44Z</time>
      </trkpt>
      <trkpt lat="46.83828" lon="5.82814">
        <ele>590.1</ele>
        <time>2021-01-05T15:01:50Z</time>
      </trkpt>
      <trkpt lat="46.83821" lon="5.8281">
        <ele>589.6</ele>
        <time>2021-01-05T15:01:55Z</time>
      </trkpt>
      <trkpt lat="46.83816" lon="5.82805">
        <ele>588.7</ele>
        <time>2021-01-05T15:02:00Z</time>
      </trkpt>
      <trkpt lat="46.8381" lon="5.82799">
        <ele>587.4</ele>
        <time>2021-01-05T15:02:05Z</time>
      </trkpt>
      <trkpt lat="46.83805" lon="5.82794">
        <ele>586</ele>
        <time>2021-01-05T15:02:12Z</time>
      </trkpt>
      <trkpt lat="46.83796" lon="5.82787">
        <ele>585</ele>
        <time>2021-01-05T15:02:17Z</time>
      </trkpt>
      <trkpt lat="46.83789" lon="5.82782">
        <ele>586.1</ele>
        <time>2021-01-05T15:02:22Z</time>
      </trkpt>
      <trkpt lat="46.83785" lon="5.82779">
        <ele>587.6</ele>
        <time>2021-01-05T15:02:28Z</time>
      </trkpt>
      <trkpt lat="46.8378" lon="5.82774">
        <ele>588.1</ele>
        <time>2021-01-05T15:02:33Z</time>
      </trkpt>
      <trkpt lat="46.83777" lon="5.8277">
        <ele>588.5</ele>
        <time>2021-01-05T15:02:38Z</time>
      </trkpt>
      <trkpt lat="46.8378" lon="5.82762">
        <ele>587.6</ele>
        <time>2021-01-05T15:02:43Z</time>
      </trkpt>
      <trkpt lat="46.8379" lon="5.82754">
        <ele>585.6</ele>
        <time>2021-01-05T15:02:48Z</time>
      </trkpt>
      <trkpt lat="46.83795" lon="5.82743">
        <ele>583.6</ele>
        <time>2021-01-05T15:02:53Z</time>
      </trkpt>
      <trkpt lat="46.83795" lon="5.82736">
        <ele>582.1</ele>
        <time>2021-01-05T15:02:57Z</time>
      </trkpt>
      <trkpt lat="46.83792" lon="5.82731">
        <ele>580.1</ele>
        <time>2021-01-05T15:03:02Z</time>
      </trkpt>
      <trkpt lat="46.83773" lon="5.82732">
        <ele>578</ele>
        <time>2021-01-05T15:03:07Z</time>
      </trkpt>
      <trkpt lat="46.83762" lon="5.82731">
        <ele>577.4</ele>
        <time>2021-01-05T15:03:12Z</time>
      </trkpt>
      <trkpt lat="46.83748" lon="5.82731">
        <ele>578.7</ele>
        <time>2021-01-05T15:03:17Z</time>
      </trkpt>
      <trkpt lat="46.83742" lon="5.82729">
        <ele>579.3</ele>
        <time>2021-01-05T15:03:23Z</time>
      </trkpt>
      <trkpt lat="46.83734" lon="5.82726">
        <ele>581.4</ele>
        <time>2021-01-05T15:03:28Z</time>
      </trkpt>
      <trkpt lat="46.8373" lon="5.82724">
        <ele>586</ele>
        <time>2021-01-05T15:03:43Z</time>
      </trkpt>
      <trkpt lat="46.83722" lon="5.82723">
        <ele>588</ele>
        <time>2021-01-05T15:03:48Z</time>
      </trkpt>
      <trkpt lat="46.83715" lon="5.82722">
        <ele>587.9</ele>
        <time>2021-01-05T15:03:53Z</time>
      </trkpt>
      <trkpt lat="46.8371" lon="5.82723">
        <ele>587.3</ele>
        <time>2021-01-05T15:03:57Z</time>
      </trkpt>
      <trkpt lat="46.83705" lon="5.82724">
        <ele>586.2</ele>
        <time>2021-01-05T15:04:02Z</time>
      </trkpt>
      <trkpt lat="46.83696" lon="5.82723">
        <ele>584.4</ele>
        <time>2021-01-05T15:04:17Z</time>
      </trkpt>
      <trkpt lat="46.83686" lon="5.82724">
        <ele>583.8</ele>
        <time>2021-01-05T15:04:22Z</time>
      </trkpt>
      <trkpt lat="46.8368" lon="5.82726">
        <ele>583.4</ele>
        <time>2021-01-05T15:04:27Z</time>
      </trkpt>
      <trkpt lat="46.83676" lon="5.82727">
        <ele>582.3</ele>
        <time>2021-01-05T15:04:35Z</time>
      </trkpt>
      <trkpt lat="46.8367" lon="5.82727">
        <ele>580.9</ele>
        <time>2021-01-05T15:04:40Z</time>
      </trkpt>
      <trkpt lat="46.83664" lon="5.82728">
        <ele>579.6</ele>
        <time>2021-01-05T15:04:47Z</time>
      </trkpt>
      <trkpt lat="46.83655" lon="5.82729">
        <ele>579</ele>
        <time>2021-01-05T15:04:52Z</time>
      </trkpt>
      <trkpt lat="46.8365" lon="5.82731">
        <ele>578.8</ele>
        <time>2021-01-05T15:04:57Z</time>
      </trkpt>
      <trkpt lat="46.83643" lon="5.82733">
        <ele>579.3</ele>
        <time>2021-01-05T15:05:02Z</time>
      </trkpt>
      <trkpt lat="46.83637" lon="5.82734">
        <ele>579.9</ele>
        <time>2021-01-05T15:05:07Z</time>
      </trkpt>
      <trkpt lat="46.83631" lon="5.82735">
        <ele>580.4</ele>
        <time>2021-01-05T15:05:15Z</time>
      </trkpt>
      <trkpt lat="46.83625" lon="5.82736">
        <ele>580.5</ele>
        <time>2021-01-05T15:05:20Z</time>
      </trkpt>
      <trkpt lat="46.8362" lon="5.82736">
        <ele>580.4</ele>
        <time>2021-01-05T15:05:29Z</time>
      </trkpt>
      <trkpt lat="46.83613" lon="5.82737">
        <ele>579.7</ele>
        <time>2021-01-05T15:05:33Z</time>
      </trkpt>
      <trkpt lat="46.83608" lon="5.82738">
        <ele>579.4</ele>
        <time>2021-01-05T15:05:38Z</time>
      </trkpt>
      <trkpt lat="46.83602" lon="5.82738">
        <ele>579.9</ele>
        <time>2021-01-05T15:05:44Z</time>
      </trkpt>
      <trkpt lat="46.83598" lon="5.82738">
        <ele>580.7</ele>
        <time>2021-01-05T15:05:50Z</time>
      </trkpt>
      <trkpt lat="46.83592" lon="5.82738">
        <ele>580.7</ele>
        <time>2021-01-05T15:05:55Z</time>
      </trkpt>
      <trkpt lat="46.83586" lon="5.82739">
        <ele>580.8</ele>
        <time>2021-01-05T15:06:00Z</time>
      </trkpt>
      <trkpt lat="46.83581" lon="5.82738">
        <ele>581</ele>
        <time>2021-01-05T15:06:05Z</time>
      </trkpt>
      <trkpt lat="46.83576" lon="5.8274">
        <ele>581.5</ele>
        <time>2021-01-05T15:06:10Z</time>
      </trkpt>
      <trkpt lat="46.83571" lon="5.8274">
        <ele>582</ele>
        <time>2021-01-05T15:06:15Z</time>
      </trkpt>
      <trkpt lat="46.83565" lon="5.82741">
        <ele>582</ele>
        <time>2021-01-05T15:06:20Z</time>
      </trkpt>
      <trkpt lat="46.83561" lon="5.82742">
        <ele>581.8</ele>
        <time>2021-01-05T15:06:25Z</time>
      </trkpt>
      <trkpt lat="46.83555" lon="5.82743">
        <ele>581.3</ele>
        <time>2021-01-05T15:06:30Z</time>
      </trkpt>
      <trkpt lat="46.8355" lon="5.82742">
        <ele>581</ele>
        <time>2021-01-05T15:06:35Z</time>
      </trkpt>
      <trkpt lat="46.83545" lon="5.82742">
        <ele>581.1</ele>
        <time>2021-01-05T15:06:40Z</time>
      </trkpt>
      <trkpt lat="46.8354" lon="5.82742">
        <ele>581.2</ele>
        <time>2021-01-05T15:06:45Z</time>
      </trkpt>
      <trkpt lat="46.83535" lon="5.82742">
        <ele>581.2</ele>
        <time>2021-01-05T15:06:50Z</time>
      </trkpt>
      <trkpt lat="46.83531" lon="5.82742">
        <ele>581.3</ele>
        <time>2021-01-05T15:06:56Z</time>
      </trkpt>
      <trkpt lat="46.83524" lon="5.82742">
        <ele>581.7</ele>
        <time>2021-01-05T15:07:01Z</time>
      </trkpt>
      <trkpt lat="46.83519" lon="5.82742">
        <ele>582</ele>
        <time>2021-01-05T15:07:14Z</time>
      </trkpt>
      <trkpt lat="46.83511" lon="5.82744">
        <ele>582.3</ele>
        <time>2021-01-05T15:07:19Z</time>
      </trkpt>
      <trkpt lat="46.83506" lon="5.82744">
        <ele>582.3</ele>
        <time>2021-01-05T15:07:25Z</time>
      </trkpt>
      <trkpt lat="46.835" lon="5.82745">
        <ele>582</ele>
        <time>2021-01-05T15:07:30Z</time>
      </trkpt>
      <trkpt lat="46.83495" lon="5.82746">
        <ele>581.5</ele>
        <time>2021-01-05T15:07:35Z</time>
      </trkpt>
      <trkpt lat="46.8349" lon="5.82746">
        <ele>581.1</ele>
        <time>2021-01-05T15:07:40Z</time>
      </trkpt>
      <trkpt lat="46.83485" lon="5.82746">
        <ele>580.8</ele>
        <time>2021-01-05T15:07:45Z</time>
      </trkpt>
      <trkpt lat="46.8348" lon="5.82746">
        <ele>580.6</ele>
        <time>2021-01-05T15:07:50Z</time>
      </trkpt>
      <trkpt lat="46.83475" lon="5.82746">
        <ele>580.3</ele>
        <time>2021-01-05T15:07:55Z</time>
      </trkpt>
      <trkpt lat="46.8347" lon="5.82746">
        <ele>579.9</ele>
        <time>2021-01-05T15:08:01Z</time>
      </trkpt>
      <trkpt lat="46.83464" lon="5.82745">
        <ele>579.6</ele>
        <time>2021-01-05T15:08:11Z</time>
      </trkpt>
      <trkpt lat="46.83459" lon="5.82744">
        <ele>579.3</ele>
        <time>2021-01-05T15:08:15Z</time>
      </trkpt>
      <trkpt lat="46.83453" lon="5.82744">
        <ele>578.8</ele>
        <time>2021-01-05T15:08:25Z</time>
      </trkpt>
      <trkpt lat="46.83444" lon="5.82744">
        <ele>578.3</ele>
        <time>2021-01-05T15:08:30Z</time>
      </trkpt>
      <trkpt lat="46.83435" lon="5.82743">
        <ele>577.8</ele>
        <time>2021-01-05T15:08:43Z</time>
      </trkpt>
      <trkpt lat="46.83429" lon="5.82742">
        <ele>577.9</ele>
        <time>2021-01-05T15:08:48Z</time>
      </trkpt>
      <trkpt lat="46.83424" lon="5.8274">
        <ele>578.6</ele>
        <time>2021-01-05T15:08:58Z</time>
      </trkpt>
      <trkpt lat="46.83418" lon="5.82737">
        <ele>579.5</ele>
        <time>2021-01-05T15:09:03Z</time>
      </trkpt>
      <trkpt lat="46.83413" lon="5.82734">
        <ele>580.7</ele>
        <time>2021-01-05T15:09:13Z</time>
      </trkpt>
      <trkpt lat="46.83406" lon="5.8273">
        <ele>581.6</ele>
        <time>2021-01-05T15:09:18Z</time>
      </trkpt>
      <trkpt lat="46.83402" lon="5.82726">
        <ele>582.1</ele>
        <time>2021-01-05T15:09:25Z</time>
      </trkpt>
      <trkpt lat="46.83394" lon="5.8272">
        <ele>583.1</ele>
        <time>2021-01-05T15:09:30Z</time>
      </trkpt>
      <trkpt lat="46.83386" lon="5.82714">
        <ele>583.4</ele>
        <time>2021-01-05T15:09:45Z</time>
      </trkpt>
      <trkpt lat="46.83381" lon="5.82709">
        <ele>581.5</ele>
        <time>2021-01-05T15:09:50Z</time>
      </trkpt>
      <trkpt lat="46.83377" lon="5.82705">
        <ele>579.6</ele>
        <time>2021-01-05T15:09:56Z</time>
      </trkpt>
      <trkpt lat="46.83369" lon="5.82697">
        <ele>579.3</ele>
        <time>2021-01-05T15:10:06Z</time>
      </trkpt>
      <trkpt lat="46.83363" lon="5.82691">
        <ele>580.6</ele>
        <time>2021-01-05T15:10:11Z</time>
      </trkpt>
      <trkpt lat="46.83357" lon="5.82686">
        <ele>581.8</ele>
        <time>2021-01-05T15:10:16Z</time>
      </trkpt>
      <trkpt lat="46.83349" lon="5.8268">
        <ele>583</ele>
        <time>2021-01-05T15:10:22Z</time>
      </trkpt>
      <trkpt lat="46.83342" lon="5.82674">
        <ele>583.8</ele>
        <time>2021-01-05T15:10:27Z</time>
      </trkpt>
      <trkpt lat="46.83338" lon="5.82671">
        <ele>584.2</ele>
        <time>2021-01-05T15:10:33Z</time>
      </trkpt>
      <trkpt lat="46.83333" lon="5.82665">
        <ele>584</ele>
        <time>2021-01-05T15:10:38Z</time>
      </trkpt>
      <trkpt lat="46.83329" lon="5.8266">
        <ele>583.4</ele>
        <time>2021-01-05T15:10:46Z</time>
      </trkpt>
      <trkpt lat="46.83324" lon="5.82654">
        <ele>582.7</ele>
        <time>2021-01-05T15:10:51Z</time>
      </trkpt>
      <trkpt lat="46.83318" lon="5.82649">
        <ele>582.4</ele>
        <time>2021-01-05T15:10:56Z</time>
      </trkpt>
      <trkpt lat="46.83314" lon="5.82645">
        <ele>582.2</ele>
        <time>2021-01-05T15:11:01Z</time>
      </trkpt>
      <trkpt lat="46.83308" lon="5.8264">
        <ele>582.6</ele>
        <time>2021-01-05T15:11:06Z</time>
      </trkpt>
      <trkpt lat="46.83304" lon="5.82636">
        <ele>583.8</ele>
        <time>2021-01-05T15:11:11Z</time>
      </trkpt>
      <trkpt lat="46.833" lon="5.82631">
        <ele>584.9</ele>
        <time>2021-01-05T15:11:16Z</time>
      </trkpt>
      <trkpt lat="46.83296" lon="5.82626">
        <ele>585.6</ele>
        <time>2021-01-05T15:11:21Z</time>
      </trkpt>
      <trkpt lat="46.83291" lon="5.82616">
        <ele>586.6</ele>
        <time>2021-01-05T15:11:33Z</time>
      </trkpt>
      <trkpt lat="46.83288" lon="5.82609">
        <ele>587</ele>
        <time>2021-01-05T15:11:38Z</time>
      </trkpt>
      <trkpt lat="46.83285" lon="5.82602">
        <ele>587.1</ele>
        <time>2021-01-05T15:11:47Z</time>
      </trkpt>
      <trkpt lat="46.83282" lon="5.82591">
        <ele>586.9</ele>
        <time>2021-01-05T15:11:52Z</time>
      </trkpt>
      <trkpt lat="46.8328" lon="5.82585">
        <ele>586.6</ele>
        <time>2021-01-05T15:11:58Z</time>
      </trkpt>
      <trkpt lat="46.83278" lon="5.82578">
        <ele>585.9</ele>
        <time>2021-01-05T15:12:06Z</time>
      </trkpt>
      <trkpt lat="46.83276" lon="5.8257">
        <ele>584.9</ele>
        <time>2021-01-05T15:12:11Z</time>
      </trkpt>
      <trkpt lat="46.83275" lon="5.82562">
        <ele>584.7</ele>
        <time>2021-01-05T15:12:19Z</time>
      </trkpt>
      <trkpt lat="46.83274" lon="5.82552">
        <ele>585</ele>
        <time>2021-01-05T15:12:24Z</time>
      </trkpt>
      <trkpt lat="46.83273" lon="5.82543">
        <ele>585.4</ele>
        <time>2021-01-05T15:12:32Z</time>
      </trkpt>
      <trkpt lat="46.83273" lon="5.8253">
        <ele>585.2</ele>
        <time>2021-01-05T15:12:37Z</time>
      </trkpt>
      <trkpt lat="46.83272" lon="5.82523">
        <ele>584.8</ele>
        <time>2021-01-05T15:12:43Z</time>
      </trkpt>
      <trkpt lat="46.8327" lon="5.82513">
        <ele>584.1</ele>
        <time>2021-01-05T15:12:48Z</time>
      </trkpt>
      <trkpt lat="46.83268" lon="5.82505">
        <ele>583.7</ele>
        <time>2021-01-05T15:12:53Z</time>
      </trkpt>
      <trkpt lat="46.83266" lon="5.82498">
        <ele>583.5</ele>
        <time>2021-01-05T15:12:58Z</time>
      </trkpt>
      <trkpt lat="46.83263" lon="5.8249">
        <ele>583.7</ele>
        <time>2021-01-05T15:13:03Z</time>
      </trkpt>
      <trkpt lat="46.83261" lon="5.82484">
        <ele>584</ele>
        <time>2021-01-05T15:13:08Z</time>
      </trkpt>
      <trkpt lat="46.83259" lon="5.82477">
        <ele>584.3</ele>
        <time>2021-01-05T15:13:13Z</time>
      </trkpt>
      <trkpt lat="46.83256" lon="5.82468">
        <ele>584.4</ele>
        <time>2021-01-05T15:13:21Z</time>
      </trkpt>
      <trkpt lat="46.83252" lon="5.82461">
        <ele>584.4</ele>
        <time>2021-01-05T15:13:26Z</time>
      </trkpt>
      <trkpt lat="46.83249" lon="5.82455">
        <ele>585.2</ele>
        <time>2021-01-05T15:14:50Z</time>
      </trkpt>
      <trkpt lat="46.83245" lon="5.82446">
        <ele>586.3</ele>
        <time>2021-01-05T15:14:55Z</time>
      </trkpt>
      <trkpt lat="46.83242" lon="5.82439">
        <ele>587.3</ele>
        <time>2021-01-05T15:15:00Z</time>
      </trkpt>
      <trkpt lat="46.83239" lon="5.82432">
        <ele>587.9</ele>
        <time>2021-01-05T15:15:10Z</time>
      </trkpt>
      <trkpt lat="46.83234" lon="5.82424">
        <ele>588.1</ele>
        <time>2021-01-05T15:15:15Z</time>
      </trkpt>
      <trkpt lat="46.83232" lon="5.82417">
        <ele>588.1</ele>
        <time>2021-01-05T15:15:20Z</time>
      </trkpt>
      <trkpt lat="46.83229" lon="5.8241">
        <ele>587.4</ele>
        <time>2021-01-05T15:15:25Z</time>
      </trkpt>
      <trkpt lat="46.83226" lon="5.82403">
        <ele>587.2</ele>
        <time>2021-01-05T15:15:30Z</time>
      </trkpt>
      <trkpt lat="46.83223" lon="5.82397">
        <ele>586.9</ele>
        <time>2021-01-05T15:15:35Z</time>
      </trkpt>
      <trkpt lat="46.83221" lon="5.82391">
        <ele>586.6</ele>
        <time>2021-01-05T15:15:40Z</time>
      </trkpt>
      <trkpt lat="46.83218" lon="5.82385">
        <ele>586.1</ele>
        <time>2021-01-05T15:15:45Z</time>
      </trkpt>
      <trkpt lat="46.83215" lon="5.82379">
        <ele>585.5</ele>
        <time>2021-01-05T15:15:51Z</time>
      </trkpt>
      <trkpt lat="46.8321" lon="5.82369">
        <ele>585.3</ele>
        <time>2021-01-05T15:16:02Z</time>
      </trkpt>
      <trkpt lat="46.83205" lon="5.82359">
        <ele>585.1</ele>
        <time>2021-01-05T15:16:07Z</time>
      </trkpt>
      <trkpt lat="46.832" lon="5.82351">
        <ele>584.6</ele>
        <time>2021-01-05T15:16:12Z</time>
      </trkpt>
      <trkpt lat="46.83197" lon="5.82346">
        <ele>584.4</ele>
        <time>2021-01-05T15:16:18Z</time>
      </trkpt>
      <trkpt lat="46.83194" lon="5.82339">
        <ele>584.2</ele>
        <time>2021-01-05T15:16:27Z</time>
      </trkpt>
      <trkpt lat="46.8319" lon="5.8233">
        <ele>583.9</ele>
        <time>2021-01-05T15:16:32Z</time>
      </trkpt>
      <trkpt lat="46.83186" lon="5.82319">
        <ele>583.3</ele>
        <time>2021-01-05T15:16:37Z</time>
      </trkpt>
      <trkpt lat="46.83182" lon="5.82311">
        <ele>582.7</ele>
        <time>2021-01-05T15:16:42Z</time>
      </trkpt>
      <trkpt lat="46.83179" lon="5.82304">
        <ele>582.6</ele>
        <time>2021-01-05T15:16:47Z</time>
      </trkpt>
      <trkpt lat="46.83176" lon="5.82297">
        <ele>582.9</ele>
        <time>2021-01-05T15:16:52Z</time>
      </trkpt>
      <trkpt lat="46.83173" lon="5.82291">
        <ele>583.1</ele>
        <time>2021-01-05T15:16:57Z</time>
      </trkpt>
      <trkpt lat="46.8317" lon="5.82285">
        <ele>583.2</ele>
        <time>2021-01-05T15:17:02Z</time>
      </trkpt>
      <trkpt lat="46.83167" lon="5.8228">
        <ele>583.4</ele>
        <time>2021-01-05T15:17:07Z</time>
      </trkpt>
      <trkpt lat="46.83164" lon="5.82273">
        <ele>583.4</ele>
        <time>2021-01-05T15:17:12Z</time>
      </trkpt>
      <trkpt lat="46.83162" lon="5.82267">
        <ele>583.1</ele>
        <time>2021-01-05T15:17:18Z</time>
      </trkpt>
      <trkpt lat="46.8316" lon="5.82261">
        <ele>583.1</ele>
        <time>2021-01-05T15:17:23Z</time>
      </trkpt>
      <trkpt lat="46.83157" lon="5.82254">
        <ele>583.4</ele>
        <time>2021-01-05T15:17:27Z</time>
      </trkpt>
      <trkpt lat="46.83153" lon="5.82246">
        <ele>583.5</ele>
        <time>2021-01-05T15:17:32Z</time>
      </trkpt>
      <trkpt lat="46.8315" lon="5.82238">
        <ele>583.4</ele>
        <time>2021-01-05T15:17:37Z</time>
      </trkpt>
      <trkpt lat="46.83148" lon="5.82232">
        <ele>583.4</ele>
        <time>2021-01-05T15:17:42Z</time>
      </trkpt>
      <trkpt lat="46.83145" lon="5.82226">
        <ele>583.4</ele>
        <time>2021-01-05T15:17:47Z</time>
      </trkpt>
      <trkpt lat="46.83142" lon="5.8222">
        <ele>583.1</ele>
        <time>2021-01-05T15:17:52Z</time>
      </trkpt>
      <trkpt lat="46.83139" lon="5.82214">
        <ele>582.8</ele>
        <time>2021-01-05T15:17:57Z</time>
      </trkpt>
      <trkpt lat="46.83137" lon="5.82207">
        <ele>582.1</ele>
        <time>2021-01-05T15:18:03Z</time>
      </trkpt>
      <trkpt lat="46.83135" lon="5.822">
        <ele>581.5</ele>
        <time>2021-01-05T15:18:08Z</time>
      </trkpt>
      <trkpt lat="46.83132" lon="5.82194">
        <ele>581.2</ele>
        <time>2021-01-05T15:18:16Z</time>
      </trkpt>
      <trkpt lat="46.83128" lon="5.82186">
        <ele>581.1</ele>
        <time>2021-01-05T15:18:21Z</time>
      </trkpt>
      <trkpt lat="46.83124" lon="5.82181">
        <ele>580.7</ele>
        <time>2021-01-05T15:18:32Z</time>
      </trkpt>
      <trkpt lat="46.83121" lon="5.82175">
        <ele>580.2</ele>
        <time>2021-01-05T15:18:37Z</time>
      </trkpt>
    </trkseg>
  </trk>
</gpx>